Check out our new PWSWeather beta!
PWSweather.com
Personal Weather Stations
Station Observations
SSSVT
Soukromá Střední škola Výpočetní Techniky, Prague 9CZ 190 00

Soukromá Střední škola Výpočetní TechnikyPrague 9CZ 190 00

Lat: 50.11902, Lon: 14.491065

Elevation: 1007

Station Type: Davis Vantage Pro 2

https://www.sssvt.cz/informace/pocasi/

High Low Average
Temperature 53.2°F11.8°C 38.6°F3.7°C 45.4°F7.4°C
Dew Point 36.6°F2.6°C 26.3°F-3.2°C 30.3°F-0.9°C
Winds 11.7 mph 18.8 kmh Calm Calm 5.0 mph ENE8.0 kmh ENE
Wind Gusts 18.0 mph29.0 kmh -- 10.0 mph16.1 kmh
Humidity 80% 40% 56%
Pressure 30.29 in1025.7 mb 30.14 in1020.7 mb -
Precipitation 0.00 in0.0 mm - -
Hour Temp Dew Point Humidity Winds Wind Gusts Pressure Precip Precip Rate Daily Precip Total
12:00 AM 44.0°F6.7°C 37.3°F2.9°C 77% 3.5 mph NNW5.6 kmh NNW 6.0 mph9.7 kmh 30.24 in1024.0 mb 0.00 in0.0 mm 0.00 in0.0 mm 0.00 in0.0 mm
12:01 AM 44.0°F6.7°C 37.3°F2.9°C 77% 2.5 mph NNW4.0 kmh NNW 6.0 mph9.7 kmh 30.24 in1024.0 mb 0.00 in0.0 mm 0.00 in0.0 mm 0.00 in0.0 mm
12:02 AM 44.0°F6.7°C 37.3°F2.9°C 77% 2.2 mph NNW3.5 kmh NNW 5.0 mph8.0 kmh 30.24 in1024.0 mb 0.00 in0.0 mm 0.00 in0.0 mm 0.00 in0.0 mm
12:03 AM 44.0°F6.7°C 37.6°F3.1°C 78% 4.3 mph NNW6.9 kmh NNW 9.0 mph14.5 kmh 30.24 in1024.0 mb 0.00 in0.0 mm 0.00 in0.0 mm 0.00 in0.0 mm
12:04 AM 44.0°F6.7°C 37.6°F3.1°C 78% 2.3 mph NNW3.7 kmh NNW 9.0 mph14.5 kmh 30.24 in1024.0 mb 0.00 in0.0 mm 0.00 in0.0 mm 0.00 in0.0 mm
12:05 AM 44.0°F6.7°C 37.3°F2.9°C 77% 3.6 mph NNW5.8 kmh NNW 5.0 mph8.0 kmh 30.24 in1024.0 mb 0.00 in0.0 mm 0.00 in0.0 mm 0.00 in0.0 mm
12:06 AM 44.0°F6.7°C 37.6°F3.1°C 78% 2.2 mph NNW3.5 kmh NNW 5.0 mph8.0 kmh 30.24 in1024.0 mb 0.00 in0.0 mm 0.00 in0.0 mm 0.00 in0.0 mm
12:07 AM 43.9°F6.6°C 37.5°F3.1°C 78% 1.5 mph NNW2.4 kmh NNW 5.0 mph8.0 kmh 30.24 in1024.0 mb 0.00 in0.0 mm 0.00 in0.0 mm 0.00 in0.0 mm
12:08 AM 43.9°F6.6°C 37.5°F3.1°C 78% 3.1 mph NNW5.0 kmh NNW 5.0 mph8.0 kmh 30.24 in1024.0 mb 0.00 in0.0 mm 0.00 in0.0 mm 0.00 in0.0 mm
12:09 AM 43.9°F6.6°C 37.5°F3.1°C 78% 4.2 mph NNW6.8 kmh NNW 6.0 mph9.7 kmh 30.24 in1024.0 mb 0.00 in0.0 mm 0.00 in0.0 mm 0.00 in0.0 mm
12:10 AM 43.9°F6.6°C 37.5°F3.1°C 78% 4.5 mph NNW7.2 kmh NNW 8.0 mph12.9 kmh 30.24 in1024.0 mb 0.00 in0.0 mm 0.00 in0.0 mm 0.00 in0.0 mm
12:11 AM 43.8°F6.6°C 37.4°F3.0°C 78% 6.4 mph NNW10.3 kmh NNW 8.0 mph12.9 kmh 30.24 in1024.0 mb 0.00 in0.0 mm 0.00 in0.0 mm 0.00 in0.0 mm
12:12 AM 43.8°F6.6°C 37.4°F3.0°C 78% 4.7 mph NNW7.6 kmh NNW 8.0 mph12.9 kmh 30.24 in1024.0 mb 0.00 in0.0 mm 0.00 in0.0 mm 0.00 in0.0 mm
12:13 AM 43.8°F6.6°C 37.4°F3.0°C 78% 4.0 mph N6.4 kmh N 8.0 mph12.9 kmh 30.24 in1024.0 mb 0.00 in0.0 mm 0.00 in0.0 mm 0.00 in0.0 mm
12:14 AM 43.8°F6.6°C 37.4°F3.0°C 78% 3.6 mph N5.8 kmh N 6.0 mph9.7 kmh 30.24 in1024.0 mb 0.00 in0.0 mm 0.00 in0.0 mm 0.00 in0.0 mm
12:15 AM 43.8°F6.6°C 37.4°F3.0°C 78% 3.1 mph N5.0 kmh N 6.0 mph9.7 kmh 30.24 in1024.0 mb 0.00 in0.0 mm 0.00 in0.0 mm 0.00 in0.0 mm
12:16 AM 43.8°F6.6°C 37.4°F3.0°C 78% 4.2 mph N6.8 kmh N 6.0 mph9.7 kmh 30.24 in1024.0 mb 0.00 in0.0 mm 0.00 in0.0 mm 0.00 in0.0 mm
12:17 AM 43.8°F6.6°C 37.4°F3.0°C 78% 5.5 mph NNW8.9 kmh NNW 8.0 mph12.9 kmh 30.24 in1024.0 mb 0.00 in0.0 mm 0.00 in0.0 mm 0.00 in0.0 mm
12:18 AM 43.8°F6.6°C 37.4°F3.0°C 78% 3.7 mph NNW6.0 kmh NNW 8.0 mph12.9 kmh 30.24 in1024.0 mb 0.00 in0.0 mm 0.00 in0.0 mm 0.00 in0.0 mm
12:19 AM 43.8°F6.6°C 37.1°F2.8°C 77% 5.0 mph NNW8.0 kmh NNW 9.0 mph14.5 kmh 30.24 in1024.0 mb 0.00 in0.0 mm 0.00 in0.0 mm 0.00 in0.0 mm
12:20 AM 43.8°F6.6°C 37.1°F2.8°C 77% 5.3 mph N8.5 kmh N 10.0 mph16.1 kmh 30.24 in1024.0 mb 0.00 in0.0 mm 0.00 in0.0 mm 0.00 in0.0 mm
12:21 AM 43.8°F6.6°C 37.1°F2.8°C 77% 3.6 mph N5.8 kmh N 10.0 mph16.1 kmh 30.24 in1024.0 mb 0.00 in0.0 mm 0.00 in0.0 mm 0.00 in0.0 mm
12:22 AM 43.8°F6.6°C 37.1°F2.8°C 77% 4.8 mph N7.7 kmh N 6.0 mph9.7 kmh 30.24 in1024.0 mb 0.00 in0.0 mm 0.00 in0.0 mm 0.00 in0.0 mm
12:23 AM 43.8°F6.6°C 37.1°F2.8°C 77% 2.6 mph N4.2 kmh N 6.0 mph9.7 kmh 30.24 in1024.0 mb 0.00 in0.0 mm 0.00 in0.0 mm 0.00 in0.0 mm
12:24 AM 43.8°F6.6°C 37.1°F2.8°C 77% 5.5 mph N8.9 kmh N 10.0 mph16.1 kmh 30.24 in1024.0 mb 0.00 in0.0 mm 0.00 in0.0 mm 0.00 in0.0 mm
12:25 AM 43.8°F6.6°C 37.1°F2.8°C 77% 3.1 mph N5.0 kmh N 10.0 mph16.1 kmh 30.24 in1024.0 mb 0.00 in0.0 mm 0.00 in0.0 mm 0.00 in0.0 mm
12:26 AM 43.8°F6.6°C 37.1°F2.8°C 77% 1.8 mph N2.9 kmh N 6.0 mph9.7 kmh 30.24 in1024.0 mb 0.00 in0.0 mm 0.00 in0.0 mm 0.00 in0.0 mm
12:27 AM 43.8°F6.6°C 37.1°F2.8°C 77% 4.4 mph N7.1 kmh N 8.0 mph12.9 kmh 30.24 in1024.0 mb 0.00 in0.0 mm 0.00 in0.0 mm 0.00 in0.0 mm
12:28 AM 43.8°F6.6°C 37.1°F2.8°C 77% 3.7 mph N6.0 kmh N 8.0 mph12.9 kmh 30.24 in1024.0 mb 0.00 in0.0 mm 0.00 in0.0 mm 0.00 in0.0 mm
12:29 AM 43.8°F6.6°C 37.1°F2.8°C 77% 3.4 mph N5.5 kmh N 6.0 mph9.7 kmh 30.24 in1024.0 mb 0.00 in0.0 mm 0.00 in0.0 mm 0.00 in0.0 mm
12:30 AM 43.8°F6.6°C 37.1°F2.8°C 77% 4.0 mph N6.4 kmh N 5.0 mph8.0 kmh 30.24 in1024.0 mb 0.00 in0.0 mm 0.00 in0.0 mm 0.00 in0.0 mm
12:31 AM 43.8°F6.6°C 37.1°F2.8°C 77% 2.6 mph N4.2 kmh N 5.0 mph8.0 kmh 30.24 in1024.0 mb 0.00 in0.0 mm 0.00 in0.0 mm 0.00 in0.0 mm
12:32 AM 43.8°F6.6°C 37.1°F2.8°C 77% 3.0 mph N4.8 kmh N 8.0 mph12.9 kmh 30.24 in1024.0 mb 0.00 in0.0 mm 0.00 in0.0 mm 0.00 in0.0 mm
12:33 AM 43.7°F6.5°C 37.0°F2.8°C 77% 3.3 mph N5.3 kmh N 8.0 mph12.9 kmh 30.24 in1024.0 mb 0.00 in0.0 mm 0.00 in0.0 mm 0.00 in0.0 mm
12:34 AM 43.7°F6.5°C 37.0°F2.8°C 77% 1.4 mph N2.3 kmh N 6.0 mph9.7 kmh 30.24 in1024.0 mb 0.00 in0.0 mm 0.00 in0.0 mm 0.00 in0.0 mm
12:35 AM 43.7°F6.5°C 37.0°F2.8°C 77% 3.3 mph N5.3 kmh N 6.0 mph9.7 kmh 30.24 in1024.0 mb 0.00 in0.0 mm 0.00 in0.0 mm 0.00 in0.0 mm
12:36 AM 43.7°F6.5°C 37.0°F2.8°C 77% 3.5 mph N5.6 kmh N 6.0 mph9.7 kmh 30.24 in1024.0 mb 0.00 in0.0 mm 0.00 in0.0 mm 0.00 in0.0 mm
12:37 AM 43.6°F6.4°C 36.9°F2.7°C 77% 3.1 mph N5.0 kmh N 6.0 mph9.7 kmh 30.24 in1024.0 mb 0.00 in0.0 mm 0.00 in0.0 mm 0.00 in0.0 mm
12:38 AM 43.6°F6.4°C 36.9°F2.7°C 77% 4.6 mph N7.4 kmh N 8.0 mph12.9 kmh 30.24 in1024.0 mb 0.00 in0.0 mm 0.00 in0.0 mm 0.00 in0.0 mm
12:39 AM 43.6°F6.4°C 36.9°F2.7°C 77% 3.1 mph N5.0 kmh N 8.0 mph12.9 kmh 30.24 in1024.0 mb 0.00 in0.0 mm 0.00 in0.0 mm 0.00 in0.0 mm
12:40 AM 43.6°F6.4°C 36.9°F2.7°C 77% 3.7 mph N6.0 kmh N 7.0 mph11.3 kmh 30.24 in1024.0 mb 0.00 in0.0 mm 0.00 in0.0 mm 0.00 in0.0 mm
12:41 AM 43.5°F6.4°C 36.8°F2.7°C 77% 4.8 mph N7.7 kmh N 9.0 mph14.5 kmh 30.24 in1024.0 mb 0.00 in0.0 mm 0.00 in0.0 mm 0.00 in0.0 mm
12:42 AM 43.5°F6.4°C 36.8°F2.7°C 77% 6.0 mph N9.7 kmh N 9.0 mph14.5 kmh 30.24 in1024.0 mb 0.00 in0.0 mm 0.00 in0.0 mm 0.00 in0.0 mm
12:43 AM 43.5°F6.4°C 36.8°F2.7°C 77% 4.0 mph NNE6.4 kmh NNE 9.0 mph14.5 kmh 30.24 in1024.0 mb 0.00 in0.0 mm 0.00 in0.0 mm 0.00 in0.0 mm
12:44 AM 43.5°F6.4°C 36.8°F2.7°C 77% 5.9 mph N9.5 kmh N 10.0 mph16.1 kmh 30.24 in1024.0 mb 0.00 in0.0 mm 0.00 in0.0 mm 0.00 in0.0 mm
12:45 AM 43.5°F6.4°C 36.8°F2.7°C 77% 2.7 mph NNE4.3 kmh NNE 10.0 mph16.1 kmh 30.24 in1024.0 mb 0.00 in0.0 mm 0.00 in0.0 mm 0.00 in0.0 mm
12:46 AM 43.4°F6.3°C 36.7°F2.6°C 77% 2.5 mph NNE4.0 kmh NNE 7.0 mph11.3 kmh 30.24 in1024.0 mb 0.00 in0.0 mm 0.00 in0.0 mm 0.00 in0.0 mm
12:47 AM 43.4°F6.3°C 36.7°F2.6°C 77% 1.7 mph NNE2.7 kmh NNE 5.0 mph8.0 kmh 30.24 in1024.0 mb 0.00 in0.0 mm 0.00 in0.0 mm 0.00 in0.0 mm
12:48 AM 43.4°F6.3°C 36.7°F2.6°C 77% 1.1 mph NNE1.8 kmh NNE 4.0 mph6.4 kmh 30.24 in1024.0 mb 0.00 in0.0 mm 0.00 in0.0 mm 0.00 in0.0 mm
12:49 AM 43.4°F6.3°C 36.7°F2.6°C 77% 0.4 mph NNE0.6 kmh NNE 4.0 mph6.4 kmh 30.24 in1024.0 mb 0.00 in0.0 mm 0.00 in0.0 mm 0.00 in0.0 mm
12:50 AM 43.3°F6.3°C 36.6°F2.6°C 77% 2.5 mph NNE4.0 kmh NNE 7.0 mph11.3 kmh 30.24 in1024.0 mb 0.00 in0.0 mm 0.00 in0.0 mm 0.00 in0.0 mm
12:51 AM 43.3°F6.3°C 36.6°F2.6°C 77% 2.5 mph NNE4.0 kmh NNE 7.0 mph11.3 kmh 30.24 in1024.0 mb 0.00 in0.0 mm 0.00 in0.0 mm 0.00 in0.0 mm
12:52 AM 43.3°F6.3°C 36.6°F2.6°C 77% 2.4 mph NNE3.9 kmh NNE 5.0 mph8.0 kmh 30.24 in1024.0 mb 0.00 in0.0 mm 0.00 in0.0 mm 0.00 in0.0 mm
12:53 AM 43.3°F6.3°C 36.6°F2.6°C 77% 2.8 mph NNE4.5 kmh NNE 7.0 mph11.3 kmh 30.24 in1024.0 mb 0.00 in0.0 mm 0.00 in0.0 mm 0.00 in0.0 mm
12:54 AM 43.2°F6.2°C 36.5°F2.5°C 77% 3.3 mph NNE5.3 kmh NNE 7.0 mph11.3 kmh 30.24 in1024.0 mb 0.00 in0.0 mm 0.00 in0.0 mm 0.00 in0.0 mm
12:55 AM 43.2°F6.2°C 36.5°F2.5°C 77% 5.9 mph NNE9.5 kmh NNE 11.0 mph17.7 kmh 30.24 in1024.0 mb 0.00 in0.0 mm 0.00 in0.0 mm 0.00 in0.0 mm
12:56 AM 43.2°F6.2°C 36.5°F2.5°C 77% 3.1 mph NNE5.0 kmh NNE 11.0 mph17.7 kmh 30.24 in1024.0 mb 0.00 in0.0 mm 0.00 in0.0 mm 0.00 in0.0 mm
12:57 AM 43.2°F6.2°C 36.5°F2.5°C 77% 2.0 mph NNE3.2 kmh NNE 5.0 mph8.0 kmh 30.24 in1024.0 mb 0.00 in0.0 mm 0.00 in0.0 mm 0.00 in0.0 mm
12:58 AM 43.2°F6.2°C 36.5°F2.5°C 77% 2.2 mph NNE3.5 kmh NNE 4.0 mph6.4 kmh 30.24 in1024.0 mb 0.00 in0.0 mm 0.00 in0.0 mm 0.00 in0.0 mm
12:59 AM 43.1°F6.2°C 36.4°F2.4°C 77% 2.0 mph NNE3.2 kmh NNE 8.0 mph12.9 kmh 30.24 in1024.0 mb 0.00 in0.0 mm 0.00 in0.0 mm 0.00 in0.0 mm
01:00 AM 43.2°F6.2°C 36.5°F2.5°C 77% 5.9 mph NNE9.5 kmh NNE 10.0 mph16.1 kmh 30.24 in1024.0 mb 0.00 in0.0 mm 0.00 in0.0 mm 0.00 in0.0 mm
01:01 AM 43.1°F6.2°C 36.4°F2.4°C 77% 1.7 mph NNE2.7 kmh NNE 10.0 mph16.1 kmh 30.24 in1024.0 mb 0.00 in0.0 mm 0.00 in0.0 mm 0.00 in0.0 mm
01:02 AM 43.1°F6.2°C 36.4°F2.4°C 77% 1.6 mph NNE2.6 kmh NNE 4.0 mph6.4 kmh 30.24 in1024.0 mb 0.00 in0.0 mm 0.00 in0.0 mm 0.00 in0.0 mm
01:03 AM 43.1°F6.2°C 36.4°F2.4°C 77% 3.0 mph NNE4.8 kmh NNE 8.0 mph12.9 kmh 30.24 in1024.0 mb 0.00 in0.0 mm 0.00 in0.0 mm 0.00 in0.0 mm
01:04 AM 43.1°F6.2°C 36.4°F2.4°C 77% 1.4 mph NNE2.3 kmh NNE 8.0 mph12.9 kmh 30.24 in1024.0 mb 0.00 in0.0 mm 0.00 in0.0 mm 0.00 in0.0 mm
01:05 AM 43.1°F6.2°C 36.4°F2.4°C 77% 1.2 mph NNE1.9 kmh NNE 4.0 mph6.4 kmh 30.24 in1024.0 mb 0.00 in0.0 mm 0.00 in0.0 mm 0.00 in0.0 mm
01:06 AM 43.1°F6.2°C 36.4°F2.4°C 77% 3.6 mph NNE5.8 kmh NNE 8.0 mph12.9 kmh 30.24 in1024.0 mb 0.00 in0.0 mm 0.00 in0.0 mm 0.00 in0.0 mm
01:07 AM 43.1°F6.2°C 36.4°F2.4°C 77% 3.0 mph NNE4.8 kmh NNE 8.0 mph12.9 kmh 30.24 in1024.0 mb 0.00 in0.0 mm 0.00 in0.0 mm 0.00 in0.0 mm
01:08 AM 43.1°F6.2°C 36.4°F2.4°C 77% 2.9 mph NNE4.7 kmh NNE 10.0 mph16.1 kmh 30.24 in1024.0 mb 0.00 in0.0 mm 0.00 in0.0 mm 0.00 in0.0 mm
01:09 AM 43.0°F6.1°C 36.3°F2.4°C 77% 3.6 mph NNE5.8 kmh NNE 10.0 mph16.1 kmh 30.24 in1024.0 mb 0.00 in0.0 mm 0.00 in0.0 mm 0.00 in0.0 mm
01:10 AM 43.0°F6.1°C 36.6°F2.6°C 78% 3.2 mph NNE5.1 kmh NNE 5.0 mph8.0 kmh 30.24 in1024.0 mb 0.00 in0.0 mm 0.00 in0.0 mm 0.00 in0.0 mm
01:11 AM 43.0°F6.1°C 36.6°F2.6°C 78% 4.5 mph NNE7.2 kmh NNE 8.0 mph12.9 kmh 30.23 in1023.7 mb 0.00 in0.0 mm 0.00 in0.0 mm 0.00 in0.0 mm
01:12 AM 43.0°F6.1°C 36.6°F2.6°C 78% 5.0 mph NNE8.0 kmh NNE 10.0 mph16.1 kmh 30.24 in1024.0 mb 0.00 in0.0 mm 0.00 in0.0 mm 0.00 in0.0 mm
01:13 AM 43.0°F6.1°C 36.6°F2.6°C 78% 3.9 mph NNE6.3 kmh NNE 10.0 mph16.1 kmh 30.24 in1024.0 mb 0.00 in0.0 mm 0.00 in0.0 mm 0.00 in0.0 mm
01:14 AM 43.0°F6.1°C 36.6°F2.6°C 78% 5.0 mph NNE8.0 kmh NNE 8.0 mph12.9 kmh 30.24 in1024.0 mb 0.00 in0.0 mm 0.00 in0.0 mm 0.00 in0.0 mm
01:15 AM 43.0°F6.1°C 36.6°F2.6°C 78% 3.4 mph NNE5.5 kmh NNE 6.0 mph9.7 kmh 30.24 in1024.0 mb 0.00 in0.0 mm 0.00 in0.0 mm 0.00 in0.0 mm
01:16 AM 43.0°F6.1°C 36.6°F2.6°C 78% 3.6 mph NNE5.8 kmh NNE 5.0 mph8.0 kmh 30.24 in1024.0 mb 0.00 in0.0 mm 0.00 in0.0 mm 0.00 in0.0 mm
01:17 AM 42.9°F6.1°C 36.5°F2.5°C 78% 5.3 mph NNE8.5 kmh NNE 9.0 mph14.5 kmh 30.24 in1024.0 mb 0.00 in0.0 mm 0.00 in0.0 mm 0.00 in0.0 mm
01:18 AM 42.9°F6.1°C 36.5°F2.5°C 78% 3.4 mph NNE5.5 kmh NNE 9.0 mph14.5 kmh 30.24 in1024.0 mb 0.00 in0.0 mm 0.00 in0.0 mm 0.00 in0.0 mm
01:19 AM 42.9°F6.1°C 36.5°F2.5°C 78% 5.0 mph NNE8.0 kmh NNE 9.0 mph14.5 kmh 30.24 in1024.0 mb 0.00 in0.0 mm 0.00 in0.0 mm 0.00 in0.0 mm
01:20 AM 42.9°F6.1°C 36.5°F2.5°C 78% 1.0 mph NNE1.6 kmh NNE 9.0 mph14.5 kmh 30.24 in1024.0 mb 0.00 in0.0 mm 0.00 in0.0 mm 0.00 in0.0 mm
01:21 AM 42.9°F6.1°C 36.5°F2.5°C 78% 2.3 mph NNE3.7 kmh NNE 4.0 mph6.4 kmh 30.24 in1024.0 mb 0.00 in0.0 mm 0.00 in0.0 mm 0.00 in0.0 mm
01:22 AM 42.9°F6.1°C 36.5°F2.5°C 78% 3.5 mph NNE5.6 kmh NNE 6.0 mph9.7 kmh 30.24 in1024.0 mb 0.00 in0.0 mm 0.00 in0.0 mm 0.00 in0.0 mm
01:23 AM 42.8°F6.0°C 36.4°F2.4°C 78% 8.3 mph NNE13.4 kmh NNE 11.0 mph17.7 kmh 30.24 in1024.0 mb 0.00 in0.0 mm 0.00 in0.0 mm 0.00 in0.0 mm
01:24 AM 42.8°F6.0°C 36.4°F2.4°C 78% 7.4 mph NNE11.9 kmh NNE 11.0 mph17.7 kmh 30.24 in1024.0 mb 0.00 in0.0 mm 0.00 in0.0 mm 0.00 in0.0 mm
01:25 AM 42.8°F6.0°C 36.4°F2.4°C 78% 3.8 mph NNE6.1 kmh NNE 10.0 mph16.1 kmh 30.23 in1023.7 mb 0.00 in0.0 mm 0.00 in0.0 mm 0.00 in0.0 mm
01:26 AM 42.8°F6.0°C 36.4°F2.4°C 78% 2.7 mph NNE4.3 kmh NNE 7.0 mph11.3 kmh 30.24 in1024.0 mb 0.00 in0.0 mm 0.00 in0.0 mm 0.00 in0.0 mm
01:27 AM 42.8°F6.0°C 36.4°F2.4°C 78% 5.5 mph NNE8.9 kmh NNE 8.0 mph12.9 kmh 30.24 in1024.0 mb 0.00 in0.0 mm 0.00 in0.0 mm 0.00 in0.0 mm
01:28 AM 42.8°F6.0°C 36.4°F2.4°C 78% 6.6 mph NNE10.6 kmh NNE 10.0 mph16.1 kmh 30.24 in1024.0 mb 0.00 in0.0 mm 0.00 in0.0 mm 0.00 in0.0 mm
01:29 AM 42.7°F5.9°C 36.3°F2.4°C 78% 3.8 mph NNE6.1 kmh NNE 10.0 mph16.1 kmh 30.24 in1024.0 mb 0.00 in0.0 mm 0.00 in0.0 mm 0.00 in0.0 mm
01:30 AM 42.7°F5.9°C 36.3°F2.4°C 78% 5.5 mph NNE8.9 kmh NNE 10.0 mph16.1 kmh 30.23 in1023.7 mb 0.00 in0.0 mm 0.00 in0.0 mm 0.00 in0.0 mm
01:31 AM 42.7°F5.9°C 36.3°F2.4°C 78% 6.1 mph NNE9.8 kmh NNE 10.0 mph16.1 kmh 30.23 in1023.7 mb 0.00 in0.0 mm 0.00 in0.0 mm 0.00 in0.0 mm
01:32 AM 42.7°F5.9°C 36.0°F2.2°C 77% 6.6 mph NNE10.6 kmh NNE 10.0 mph16.1 kmh 30.24 in1024.0 mb 0.00 in0.0 mm 0.00 in0.0 mm 0.00 in0.0 mm
01:33 AM 42.6°F5.9°C 35.9°F2.2°C 77% 9.5 mph NNE15.3 kmh NNE 12.0 mph19.3 kmh 30.24 in1024.0 mb 0.00 in0.0 mm 0.00 in0.0 mm 0.00 in0.0 mm
01:34 AM 42.6°F5.9°C 35.9°F2.2°C 77% 7.1 mph NNE11.4 kmh NNE 12.0 mph19.3 kmh 30.23 in1023.7 mb 0.00 in0.0 mm 0.00 in0.0 mm 0.00 in0.0 mm
01:35 AM 42.6°F5.9°C 35.9°F2.2°C 77% 4.1 mph NNE6.6 kmh NNE 9.0 mph14.5 kmh 30.24 in1024.0 mb 0.00 in0.0 mm 0.00 in0.0 mm 0.00 in0.0 mm
01:36 AM 42.6°F5.9°C 35.9°F2.2°C 77% 5.2 mph NNE8.4 kmh NNE 9.0 mph14.5 kmh 30.23 in1023.7 mb 0.00 in0.0 mm 0.00 in0.0 mm 0.00 in0.0 mm
01:37 AM 42.6°F5.9°C 35.9°F2.2°C 77% 3.8 mph NNE6.1 kmh NNE 9.0 mph14.5 kmh 30.24 in1024.0 mb 0.00 in0.0 mm 0.00 in0.0 mm 0.00 in0.0 mm
01:38 AM 42.5°F5.8°C 35.8°F2.1°C 77% 5.8 mph NNE9.3 kmh NNE 10.0 mph16.1 kmh 30.23 in1023.7 mb 0.00 in0.0 mm 0.00 in0.0 mm 0.00 in0.0 mm
01:39 AM 42.5°F5.8°C 35.8°F2.1°C 77% 6.9 mph NNE11.1 kmh NNE 13.0 mph20.9 kmh 30.24 in1024.0 mb 0.00 in0.0 mm 0.00 in0.0 mm 0.00 in0.0 mm
01:40 AM 42.5°F5.8°C 36.1°F2.3°C 78% 7.2 mph N11.6 kmh N 13.0 mph20.9 kmh 30.24 in1024.0 mb 0.00 in0.0 mm 0.00 in0.0 mm 0.00 in0.0 mm
01:41 AM 42.5°F5.8°C 36.1°F2.3°C 78% 6.3 mph NNE10.1 kmh NNE 10.0 mph16.1 kmh 30.24 in1024.0 mb 0.00 in0.0 mm 0.00 in0.0 mm 0.00 in0.0 mm
01:42 AM 42.5°F5.8°C 36.1°F2.3°C 78% 6.9 mph NNE11.1 kmh NNE 10.0 mph16.1 kmh 30.24 in1024.0 mb 0.00 in0.0 mm 0.00 in0.0 mm 0.00 in0.0 mm
01:43 AM 42.4°F5.8°C 36.0°F2.2°C 78% 5.5 mph NNE8.9 kmh NNE 10.0 mph16.1 kmh 30.24 in1024.0 mb 0.00 in0.0 mm 0.00 in0.0 mm 0.00 in0.0 mm
01:44 AM 42.4°F5.8°C 36.0°F2.2°C 78% 2.7 mph NNE4.3 kmh NNE 8.0 mph12.9 kmh 30.24 in1024.0 mb 0.00 in0.0 mm 0.00 in0.0 mm 0.00 in0.0 mm
01:45 AM 42.4°F5.8°C 36.0°F2.2°C 78% 5.0 mph NNE8.0 kmh NNE 9.0 mph14.5 kmh 30.24 in1024.0 mb 0.00 in0.0 mm 0.00 in0.0 mm 0.00 in0.0 mm
01:46 AM 42.3°F5.7°C 35.9°F2.2°C 78% 4.2 mph NNE6.8 kmh NNE 9.0 mph14.5 kmh 30.24 in1024.0 mb 0.00 in0.0 mm 0.00 in0.0 mm 0.00 in0.0 mm
01:47 AM 42.3°F5.7°C 35.9°F2.2°C 78% 7.0 mph NNE11.3 kmh NNE 9.0 mph14.5 kmh 30.24 in1024.0 mb 0.00 in0.0 mm 0.00 in0.0 mm 0.00 in0.0 mm
01:48 AM 42.3°F5.7°C 35.9°F2.2°C 78% 5.6 mph NNE9.0 kmh NNE 10.0 mph16.1 kmh 30.23 in1023.7 mb 0.00 in0.0 mm 0.00 in0.0 mm 0.00 in0.0 mm
01:49 AM 42.3°F5.7°C 35.9°F2.2°C 78% 5.6 mph NNE9.0 kmh NNE 10.0 mph16.1 kmh 30.24 in1024.0 mb 0.00 in0.0 mm 0.00 in0.0 mm 0.00 in0.0 mm
01:50 AM 42.3°F5.7°C 35.9°F2.2°C 78% 4.2 mph NNE6.8 kmh NNE 10.0 mph16.1 kmh 30.24 in1024.0 mb 0.00 in0.0 mm 0.00 in0.0 mm 0.00 in0.0 mm
01:51 AM 42.2°F5.7°C 35.8°F2.1°C 78% 4.0 mph NNE6.4 kmh NNE 8.0 mph12.9 kmh 30.24 in1024.0 mb 0.00 in0.0 mm 0.00 in0.0 mm 0.00 in0.0 mm
01:52 AM 42.2°F5.7°C 35.8°F2.1°C 78% 0.7 mph NNE1.1 kmh NNE 7.0 mph11.3 kmh 30.24 in1024.0 mb 0.00 in0.0 mm 0.00 in0.0 mm 0.00 in0.0 mm
01:53 AM 42.2°F5.7°C 35.8°F2.1°C 78% 4.3 mph NNE6.9 kmh NNE 7.0 mph11.3 kmh 30.24 in1024.0 mb 0.00 in0.0 mm 0.00 in0.0 mm 0.00 in0.0 mm
01:54 AM 42.1°F5.6°C 35.7°F2.1°C 78% 6.2 mph NNE10.0 kmh NNE 8.0 mph12.9 kmh 30.24 in1024.0 mb 0.00 in0.0 mm 0.00 in0.0 mm 0.00 in0.0 mm
01:55 AM 42.1°F5.6°C 35.7°F2.1°C 78% 3.6 mph NNE5.8 kmh NNE 8.0 mph12.9 kmh 30.23 in1023.7 mb 0.00 in0.0 mm 0.00 in0.0 mm 0.00 in0.0 mm
01:56 AM 42.1°F5.6°C 35.7°F2.1°C 78% 4.9 mph NNE7.9 kmh NNE 10.0 mph16.1 kmh 30.24 in1024.0 mb 0.00 in0.0 mm 0.00 in0.0 mm 0.00 in0.0 mm
01:57 AM 42.1°F5.6°C 35.7°F2.1°C 78% 5.6 mph NNE9.0 kmh NNE 10.0 mph16.1 kmh 30.24 in1024.0 mb 0.00 in0.0 mm 0.00 in0.0 mm 0.00 in0.0 mm
01:58 AM 42.1°F5.6°C 35.7°F2.1°C 78% 6.3 mph N10.1 kmh N 10.0 mph16.1 kmh 30.23 in1023.7 mb 0.00 in0.0 mm 0.00 in0.0 mm 0.00 in0.0 mm
01:59 AM 42.1°F5.6°C 35.7°F2.1°C 78% 5.6 mph N9.0 kmh N 10.0 mph16.1 kmh 30.23 in1023.7 mb 0.00 in0.0 mm 0.00 in0.0 mm 0.00 in0.0 mm
02:00 AM 42.0°F5.6°C 35.6°F2.0°C 78% 5.1 mph N8.2 kmh N 8.0 mph12.9 kmh 30.23 in1023.7 mb 0.00 in0.0 mm 0.00 in0.0 mm 0.00 in0.0 mm
02:01 AM 42.0°F5.6°C 35.6°F2.0°C 78% 3.4 mph NNE5.5 kmh NNE 8.0 mph12.9 kmh 30.24 in1024.0 mb 0.00 in0.0 mm 0.00 in0.0 mm 0.00 in0.0 mm
02:02 AM 42.1°F5.6°C 35.7°F2.1°C 78% 4.4 mph N7.1 kmh N 8.0 mph12.9 kmh 30.24 in1024.0 mb 0.00 in0.0 mm 0.00 in0.0 mm 0.00 in0.0 mm
02:03 AM 42.1°F5.6°C 35.7°F2.1°C 78% 6.4 mph NNE10.3 kmh NNE 8.0 mph12.9 kmh 30.23 in1023.7 mb 0.00 in0.0 mm 0.00 in0.0 mm 0.00 in0.0 mm
02:04 AM 42.0°F5.6°C 35.6°F2.0°C 78% 4.5 mph NNE7.2 kmh NNE 8.0 mph12.9 kmh 30.23 in1023.7 mb 0.00 in0.0 mm 0.00 in0.0 mm 0.00 in0.0 mm
02:05 AM 42.1°F5.6°C 35.7°F2.1°C 78% 5.2 mph NNE8.4 kmh NNE 8.0 mph12.9 kmh 30.24 in1024.0 mb 0.00 in0.0 mm 0.00 in0.0 mm 0.00 in0.0 mm
02:06 AM 42.1°F5.6°C 35.7°F2.1°C 78% 6.5 mph NNE10.5 kmh NNE 9.0 mph14.5 kmh 30.23 in1023.7 mb 0.00 in0.0 mm 0.00 in0.0 mm 0.00 in0.0 mm
02:07 AM 42.0°F5.6°C 35.6°F2.0°C 78% 4.0 mph NNE6.4 kmh NNE 9.0 mph14.5 kmh 30.24 in1024.0 mb 0.00 in0.0 mm 0.00 in0.0 mm 0.00 in0.0 mm
02:08 AM 42.1°F5.6°C 35.7°F2.1°C 78% 5.8 mph NNE9.3 kmh NNE 8.0 mph12.9 kmh 30.24 in1024.0 mb 0.00 in0.0 mm 0.00 in0.0 mm 0.00 in0.0 mm
02:09 AM 42.1°F5.6°C 35.7°F2.1°C 78% 5.6 mph NNE9.0 kmh NNE 9.0 mph14.5 kmh 30.23 in1023.7 mb 0.00 in0.0 mm 0.00 in0.0 mm 0.00 in0.0 mm
02:10 AM 42.1°F5.6°C 35.7°F2.1°C 78% 4.8 mph NNE7.7 kmh NNE 9.0 mph14.5 kmh 30.23 in1023.7 mb 0.00 in0.0 mm 0.00 in0.0 mm 0.00 in0.0 mm
02:11 AM 42.1°F5.6°C 35.7°F2.1°C 78% 5.3 mph NNE8.5 kmh NNE 9.0 mph14.5 kmh 30.23 in1023.7 mb 0.00 in0.0 mm 0.00 in0.0 mm 0.00 in0.0 mm
02:12 AM 42.1°F5.6°C 35.7°F2.1°C 78% 5.3 mph NNE8.5 kmh NNE 9.0 mph14.5 kmh 30.24 in1024.0 mb 0.00 in0.0 mm 0.00 in0.0 mm 0.00 in0.0 mm
02:13 AM 42.0°F5.6°C 35.6°F2.0°C 78% 6.8 mph NNE10.9 kmh NNE 9.0 mph14.5 kmh 30.24 in1024.0 mb 0.00 in0.0 mm 0.00 in0.0 mm 0.00 in0.0 mm
02:14 AM 42.0°F5.6°C 35.6°F2.0°C 78% 6.5 mph NNE10.5 kmh NNE 9.0 mph14.5 kmh 30.24 in1024.0 mb 0.00 in0.0 mm 0.00 in0.0 mm 0.00 in0.0 mm
02:15 AM 42.1°F5.6°C 35.7°F2.1°C 78% 7.8 mph NNE12.6 kmh NNE 10.0 mph16.1 kmh 30.24 in1024.0 mb 0.00 in0.0 mm 0.00 in0.0 mm 0.00 in0.0 mm
02:16 AM 42.1°F5.6°C 35.7°F2.1°C 78% 7.4 mph NNE11.9 kmh NNE 10.0 mph16.1 kmh 30.24 in1024.0 mb 0.00 in0.0 mm 0.00 in0.0 mm 0.00 in0.0 mm
02:17 AM 42.0°F5.6°C 35.6°F2.0°C 78% 8.8 mph NNE14.2 kmh NNE 10.0 mph16.1 kmh 30.24 in1024.0 mb 0.00 in0.0 mm 0.00 in0.0 mm 0.00 in0.0 mm
02:18 AM 42.0°F5.6°C 35.6°F2.0°C 78% 7.0 mph NNE11.3 kmh NNE 10.0 mph16.1 kmh 30.24 in1024.0 mb 0.00 in0.0 mm 0.00 in0.0 mm 0.00 in0.0 mm
02:19 AM 42.0°F5.6°C 35.6°F2.0°C 78% 7.5 mph NNE12.1 kmh NNE 9.0 mph14.5 kmh 30.23 in1023.7 mb 0.00 in0.0 mm 0.00 in0.0 mm 0.00 in0.0 mm
02:20 AM 42.0°F5.6°C 35.6°F2.0°C 78% 3.5 mph NNE5.6 kmh NNE 9.0 mph14.5 kmh 30.24 in1024.0 mb 0.00 in0.0 mm 0.00 in0.0 mm 0.00 in0.0 mm
02:21 AM 42.0°F5.6°C 35.6°F2.0°C 78% 6.0 mph NNE9.7 kmh NNE 9.0 mph14.5 kmh 30.23 in1023.7 mb 0.00 in0.0 mm 0.00 in0.0 mm 0.00 in0.0 mm
02:22 AM 42.0°F5.6°C 35.6°F2.0°C 78% 3.5 mph NNE5.6 kmh NNE 9.0 mph14.5 kmh 30.23 in1023.7 mb 0.00 in0.0 mm 0.00 in0.0 mm 0.00 in0.0 mm
02:23 AM 42.0°F5.6°C 35.6°F2.0°C 78% 3.1 mph NNE5.0 kmh NNE 5.0 mph8.0 kmh 30.24 in1024.0 mb 0.00 in0.0 mm 0.00 in0.0 mm 0.00 in0.0 mm
02:24 AM 42.0°F5.6°C 35.6°F2.0°C 78% 2.3 mph NNE3.7 kmh NNE 5.0 mph8.0 kmh 30.24 in1024.0 mb 0.00 in0.0 mm 0.00 in0.0 mm 0.00 in0.0 mm
02:25 AM 42.0°F5.6°C 35.6°F2.0°C 78% 3.3 mph NNE5.3 kmh NNE 5.0 mph8.0 kmh 30.24 in1024.0 mb 0.00 in0.0 mm 0.00 in0.0 mm 0.00 in0.0 mm
02:26 AM 42.0°F5.6°C 35.6°F2.0°C 78% 4.0 mph NNE6.4 kmh NNE 7.0 mph11.3 kmh 30.24 in1024.0 mb 0.00 in0.0 mm 0.00 in0.0 mm 0.00 in0.0 mm
02:27 AM 42.0°F5.6°C 35.6°F2.0°C 78% 5.6 mph NNE9.0 kmh NNE 7.0 mph11.3 kmh 30.24 in1024.0 mb 0.00 in0.0 mm 0.00 in0.0 mm 0.00 in0.0 mm
02:28 AM 41.9°F5.5°C 35.5°F1.9°C 78% 6.9 mph NNE11.1 kmh NNE 9.0 mph14.5 kmh 30.24 in1024.0 mb 0.00 in0.0 mm 0.00 in0.0 mm 0.00 in0.0 mm
02:29 AM 41.9°F5.5°C 35.5°F1.9°C 78% 4.2 mph NNE6.8 kmh NNE 9.0 mph14.5 kmh 30.24 in1024.0 mb 0.00 in0.0 mm 0.00 in0.0 mm 0.00 in0.0 mm
02:30 AM 41.9°F5.5°C 35.5°F1.9°C 78% 5.3 mph NNE8.5 kmh NNE 8.0 mph12.9 kmh 30.24 in1024.0 mb 0.00 in0.0 mm 0.00 in0.0 mm 0.00 in0.0 mm
02:31 AM 41.9°F5.5°C 35.5°F1.9°C 78% 6.7 mph NNE10.8 kmh NNE 8.0 mph12.9 kmh 30.24 in1024.0 mb 0.00 in0.0 mm 0.00 in0.0 mm 0.00 in0.0 mm
02:32 AM 41.9°F5.5°C 35.5°F1.9°C 78% 3.1 mph NNE5.0 kmh NNE 8.0 mph12.9 kmh 30.24 in1024.0 mb 0.00 in0.0 mm 0.00 in0.0 mm 0.00 in0.0 mm
02:33 AM 41.8°F5.4°C 35.5°F1.9°C 78% 6.2 mph NNE10.0 kmh NNE 8.0 mph12.9 kmh 30.24 in1024.0 mb 0.00 in0.0 mm 0.00 in0.0 mm 0.00 in0.0 mm
02:34 AM 41.8°F5.4°C 35.5°F1.9°C 78% 5.5 mph NNE8.9 kmh NNE 8.0 mph12.9 kmh 30.24 in1024.0 mb 0.00 in0.0 mm 0.00 in0.0 mm 0.00 in0.0 mm
02:35 AM 41.8°F5.4°C 35.5°F1.9°C 78% 6.3 mph NNE10.1 kmh NNE 8.0 mph12.9 kmh 30.24 in1024.0 mb 0.00 in0.0 mm 0.00 in0.0 mm 0.00 in0.0 mm
02:36 AM 41.8°F5.4°C 35.5°F1.9°C 78% 7.0 mph NNE11.3 kmh NNE 9.0 mph14.5 kmh 30.24 in1024.0 mb 0.00 in0.0 mm 0.00 in0.0 mm 0.00 in0.0 mm
02:37 AM 41.8°F5.4°C 35.5°F1.9°C 78% 4.8 mph NNE7.7 kmh NNE 10.0 mph16.1 kmh 30.24 in1024.0 mb 0.00 in0.0 mm 0.00 in0.0 mm 0.00 in0.0 mm
02:38 AM 41.7°F5.4°C 35.4°F1.9°C 78% 5.7 mph NNE9.2 kmh NNE 10.0 mph16.1 kmh 30.24 in1024.0 mb 0.00 in0.0 mm 0.00 in0.0 mm 0.00 in0.0 mm
02:39 AM 41.7°F5.4°C 35.4°F1.9°C 78% 6.6 mph NNE10.6 kmh NNE 9.0 mph14.5 kmh 30.24 in1024.0 mb 0.00 in0.0 mm 0.00 in0.0 mm 0.00 in0.0 mm
02:40 AM 41.7°F5.4°C 35.7°F2.1°C 79% 5.1 mph NNE8.2 kmh NNE 9.0 mph14.5 kmh 30.24 in1024.0 mb 0.00 in0.0 mm 0.00 in0.0 mm 0.00 in0.0 mm
02:41 AM 41.7°F5.4°C 35.7°F2.1°C 79% 4.6 mph NNE7.4 kmh NNE 8.0 mph12.9 kmh 30.24 in1024.0 mb 0.00 in0.0 mm 0.00 in0.0 mm 0.00 in0.0 mm
02:42 AM 41.7°F5.4°C 35.4°F1.9°C 78% 4.0 mph NNE6.4 kmh NNE 7.0 mph11.3 kmh 30.24 in1024.0 mb 0.00 in0.0 mm 0.00 in0.0 mm 0.00 in0.0 mm
02:43 AM 41.6°F5.3°C 35.3°F1.8°C 78% 5.6 mph NNE9.0 kmh NNE 8.0 mph12.9 kmh 30.24 in1024.0 mb 0.00 in0.0 mm 0.00 in0.0 mm 0.00 in0.0 mm
02:44 AM 41.6°F5.3°C 35.3°F1.8°C 78% 7.5 mph NNE12.1 kmh NNE 10.0 mph16.1 kmh 30.24 in1024.0 mb 0.00 in0.0 mm 0.00 in0.0 mm 0.00 in0.0 mm
02:45 AM 41.6°F5.3°C 35.6°F2.0°C 79% 5.3 mph N8.5 kmh N 10.0 mph16.1 kmh 30.24 in1024.0 mb 0.00 in0.0 mm 0.00 in0.0 mm 0.00 in0.0 mm
02:46 AM 41.6°F5.3°C 35.6°F2.0°C 79% 4.2 mph NNE6.8 kmh NNE 9.0 mph14.5 kmh 30.24 in1024.0 mb 0.00 in0.0 mm 0.00 in0.0 mm 0.00 in0.0 mm
02:47 AM 41.6°F5.3°C 35.6°F2.0°C 79% 5.3 mph NNE8.5 kmh NNE 9.0 mph14.5 kmh 30.24 in1024.0 mb 0.00 in0.0 mm 0.00 in0.0 mm 0.00 in0.0 mm
02:48 AM 41.5°F5.3°C 35.5°F1.9°C 79% 6.5 mph NNE10.5 kmh NNE 9.0 mph14.5 kmh 30.24 in1024.0 mb 0.00 in0.0 mm 0.00 in0.0 mm 0.00 in0.0 mm
02:49 AM 41.5°F5.3°C 35.5°F1.9°C 79% 6.4 mph NNE10.3 kmh NNE 9.0 mph14.5 kmh 30.24 in1024.0 mb 0.00 in0.0 mm 0.00 in0.0 mm 0.00 in0.0 mm
02:50 AM 41.5°F5.3°C 35.5°F1.9°C 79% 6.3 mph NNE10.1 kmh NNE 9.0 mph14.5 kmh 30.24 in1024.0 mb 0.00 in0.0 mm 0.00 in0.0 mm 0.00 in0.0 mm
02:51 AM 41.4°F5.2°C 35.4°F1.9°C 79% 6.2 mph NNE10.0 kmh NNE 9.0 mph14.5 kmh 30.24 in1024.0 mb 0.00 in0.0 mm 0.00 in0.0 mm 0.00 in0.0 mm
02:52 AM 41.4°F5.2°C 35.4°F1.9°C 79% 6.2 mph N10.0 kmh N 9.0 mph14.5 kmh 30.24 in1024.0 mb 0.00 in0.0 mm 0.00 in0.0 mm 0.00 in0.0 mm
02:53 AM 41.3°F5.2°C 35.3°F1.8°C 79% 5.6 mph N9.0 kmh N 9.0 mph14.5 kmh 30.24 in1024.0 mb 0.00 in0.0 mm 0.00 in0.0 mm 0.00 in0.0 mm
02:54 AM 41.3°F5.2°C 35.3°F1.8°C 79% 3.8 mph N6.1 kmh N 9.0 mph14.5 kmh 30.24 in1024.0 mb 0.00 in0.0 mm 0.00 in0.0 mm 0.00 in0.0 mm
02:55 AM 41.3°F5.2°C 35.3°F1.8°C 79% 5.6 mph N9.0 kmh N 9.0 mph14.5 kmh 30.24 in1024.0 mb 0.00 in0.0 mm 0.00 in0.0 mm 0.00 in0.0 mm
02:56 AM 41.2°F5.1°C 35.2°F1.8°C 79% 3.5 mph N5.6 kmh N 9.0 mph14.5 kmh 30.24 in1024.0 mb 0.00 in0.0 mm 0.00 in0.0 mm 0.00 in0.0 mm
02:57 AM 41.2°F5.1°C 35.2°F1.8°C 79% 3.3 mph N5.3 kmh N 5.0 mph8.0 kmh 30.24 in1024.0 mb 0.00 in0.0 mm 0.00 in0.0 mm 0.00 in0.0 mm
02:58 AM 41.2°F5.1°C 35.2°F1.8°C 79% 5.4 mph N8.7 kmh N 8.0 mph12.9 kmh 30.24 in1024.0 mb 0.00 in0.0 mm 0.00 in0.0 mm 0.00 in0.0 mm
02:59 AM 41.2°F5.1°C 35.2°F1.8°C 79% 7.0 mph NNE11.3 kmh NNE 8.0 mph12.9 kmh 30.24 in1024.0 mb 0.00 in0.0 mm 0.00 in0.0 mm 0.00 in0.0 mm
03:00 AM 41.1°F5.1°C 35.1°F1.7°C 79% 4.6 mph NNE7.4 kmh NNE 8.0 mph12.9 kmh 30.24 in1024.0 mb 0.00 in0.0 mm 0.00 in0.0 mm 0.00 in0.0 mm
03:01 AM 41.1°F5.1°C 35.1°F1.7°C 79% 5.3 mph NNE8.5 kmh NNE 8.0 mph12.9 kmh 30.24 in1024.0 mb 0.00 in0.0 mm 0.00 in0.0 mm 0.00 in0.0 mm
03:02 AM 41.1°F5.1°C 35.1°F1.7°C 79% 6.0 mph NNE9.7 kmh NNE 8.0 mph12.9 kmh 30.24 in1024.0 mb 0.00 in0.0 mm 0.00 in0.0 mm 0.00 in0.0 mm
03:03 AM 41.1°F5.1°C 35.4°F1.9°C 80% 5.0 mph NNE8.0 kmh NNE 8.0 mph12.9 kmh 30.24 in1024.0 mb 0.00 in0.0 mm 0.00 in0.0 mm 0.00 in0.0 mm
03:04 AM 41.1°F5.1°C 35.4°F1.9°C 80% 3.0 mph NNE4.8 kmh NNE 7.0 mph11.3 kmh 30.24 in1024.0 mb 0.00 in0.0 mm 0.00 in0.0 mm 0.00 in0.0 mm
03:05 AM 41.1°F5.1°C 35.4°F1.9°C 80% 1.1 mph NNE1.8 kmh NNE 5.0 mph8.0 kmh 30.24 in1024.0 mb 0.00 in0.0 mm 0.00 in0.0 mm 0.00 in0.0 mm
03:06 AM 41.1°F5.1°C 35.4°F1.9°C 80% 3.4 mph NNE5.5 kmh NNE 5.0 mph8.0 kmh 30.24 in1024.0 mb 0.00 in0.0 mm 0.00 in0.0 mm 0.00 in0.0 mm
03:07 AM 41.1°F5.1°C 35.4°F1.9°C 80% 2.1 mph NNE3.4 kmh NNE 4.0 mph6.4 kmh 30.24 in1024.0 mb 0.00 in0.0 mm 0.00 in0.0 mm 0.00 in0.0 mm
03:08 AM 41.1°F5.1°C 35.4°F1.9°C 80% 2.2 mph NE3.5 kmh NE 4.0 mph6.4 kmh 30.24 in1024.0 mb 0.00 in0.0 mm 0.00 in0.0 mm 0.00 in0.0 mm
03:09 AM 41.1°F5.1°C 35.4°F1.9°C 80% 2.3 mph NE3.7 kmh NE 6.0 mph9.7 kmh 30.24 in1024.0 mb 0.00 in0.0 mm 0.00 in0.0 mm 0.00 in0.0 mm
03:10 AM 41.1°F5.1°C 35.4°F1.9°C 80% 2.4 mph ENE3.9 kmh ENE 8.0 mph12.9 kmh 30.24 in1024.0 mb 0.00 in0.0 mm 0.00 in0.0 mm 0.00 in0.0 mm
03:11 AM 41.2°F5.1°C 35.5°F1.9°C 80% 5.3 mph E8.5 kmh E 9.0 mph14.5 kmh 30.24 in1024.0 mb 0.00 in0.0 mm 0.00 in0.0 mm 0.00 in0.0 mm
03:12 AM 41.3°F5.2°C 35.3°F1.8°C 79% 6.0 mph E9.7 kmh E 9.0 mph14.5 kmh 30.24 in1024.0 mb 0.00 in0.0 mm 0.00 in0.0 mm 0.00 in0.0 mm
03:13 AM 41.3°F5.2°C 35.3°F1.8°C 79% 2.8 mph E4.5 kmh E 9.0 mph14.5 kmh 30.24 in1024.0 mb 0.00 in0.0 mm 0.00 in0.0 mm 0.00 in0.0 mm
03:14 AM 41.4°F5.2°C 35.4°F1.9°C 79% 6.0 mph E9.7 kmh E 10.0 mph16.1 kmh 30.24 in1024.0 mb 0.00 in0.0 mm 0.00 in0.0 mm 0.00 in0.0 mm
03:15 AM 41.5°F5.3°C 35.2°F1.8°C 78% 3.3 mph E5.3 kmh E 10.0 mph16.1 kmh 30.24 in1024.0 mb 0.00 in0.0 mm 0.00 in0.0 mm 0.00 in0.0 mm
03:16 AM 41.5°F5.3°C 35.2°F1.8°C 78% 3.0 mph E4.8 kmh E 7.0 mph11.3 kmh 30.24 in1024.0 mb 0.00 in0.0 mm 0.00 in0.0 mm 0.00 in0.0 mm
03:17 AM 41.6°F5.3°C 35.3°F1.8°C 78% 2.2 mph E3.5 kmh E 5.0 mph8.0 kmh 30.24 in1024.0 mb 0.00 in0.0 mm 0.00 in0.0 mm 0.00 in0.0 mm
03:18 AM 41.6°F5.3°C 35.3°F1.8°C 78% 4.8 mph E7.7 kmh E 8.0 mph12.9 kmh 30.24 in1024.0 mb 0.00 in0.0 mm 0.00 in0.0 mm 0.00 in0.0 mm
03:19 AM 41.6°F5.3°C 35.3°F1.8°C 78% 4.8 mph E7.7 kmh E 8.0 mph12.9 kmh 30.24 in1024.0 mb 0.00 in0.0 mm 0.00 in0.0 mm 0.00 in0.0 mm
03:20 AM 41.6°F5.3°C 35.3°F1.8°C 78% 4.9 mph E7.9 kmh E 8.0 mph12.9 kmh 30.24 in1024.0 mb 0.00 in0.0 mm 0.00 in0.0 mm 0.00 in0.0 mm
03:21 AM 41.6°F5.3°C 34.9°F1.6°C 77% 3.3 mph E5.3 kmh E 8.0 mph12.9 kmh 30.24 in1024.0 mb 0.00 in0.0 mm 0.00 in0.0 mm 0.00 in0.0 mm
03:22 AM 41.7°F5.4°C 35.0°F1.7°C 77% 2.1 mph E3.4 kmh E 5.0 mph8.0 kmh 30.24 in1024.0 mb 0.00 in0.0 mm 0.00 in0.0 mm 0.00 in0.0 mm
03:23 AM 41.7°F5.4°C 35.0°F1.7°C 77% 3.2 mph E5.1 kmh E 5.0 mph8.0 kmh 30.24 in1024.0 mb 0.00 in0.0 mm 0.00 in0.0 mm 0.00 in0.0 mm
03:24 AM 41.7°F5.4°C 35.0°F1.7°C 77% 2.2 mph E3.5 kmh E 5.0 mph8.0 kmh 30.25 in1024.4 mb 0.00 in0.0 mm 0.00 in0.0 mm 0.00 in0.0 mm
03:25 AM 41.6°F5.3°C 34.9°F1.6°C 77% 0.6 mph E1.0 kmh E 4.0 mph6.4 kmh 30.24 in1024.0 mb 0.00 in0.0 mm 0.00 in0.0 mm 0.00 in0.0 mm
03:26 AM 41.6°F5.3°C 34.9°F1.6°C 77% 3.5 mph E5.6 kmh E 5.0 mph8.0 kmh 30.24 in1024.0 mb 0.00 in0.0 mm 0.00 in0.0 mm 0.00 in0.0 mm
03:27 AM 41.6°F5.3°C 34.9°F1.6°C 77% 3.5 mph E5.6 kmh E 5.0 mph8.0 kmh 30.24 in1024.0 mb 0.00 in0.0 mm 0.00 in0.0 mm 0.00 in0.0 mm
03:28 AM 41.6°F5.3°C 34.9°F1.6°C 77% 3.5 mph E5.6 kmh E 5.0 mph8.0 kmh 30.24 in1024.0 mb 0.00 in0.0 mm 0.00 in0.0 mm 0.00 in0.0 mm
03:29 AM 41.6°F5.3°C 34.9°F1.6°C 77% 5.0 mph E8.0 kmh E 7.0 mph11.3 kmh 30.25 in1024.4 mb 0.00 in0.0 mm 0.00 in0.0 mm 0.00 in0.0 mm
03:30 AM 41.6°F5.3°C 34.9°F1.6°C 77% 3.8 mph E6.1 kmh E 7.0 mph11.3 kmh 30.25 in1024.4 mb 0.00 in0.0 mm 0.00 in0.0 mm 0.00 in0.0 mm
03:31 AM 41.5°F5.3°C 34.8°F1.6°C 77% 2.4 mph E3.9 kmh E 7.0 mph11.3 kmh 30.25 in1024.4 mb 0.00 in0.0 mm 0.00 in0.0 mm 0.00 in0.0 mm
03:32 AM 41.5°F5.3°C 34.2°F1.2°C 75% 4.2 mph E6.8 kmh E 5.0 mph8.0 kmh 30.25 in1024.4 mb 0.00 in0.0 mm 0.00 in0.0 mm 0.00 in0.0 mm
03:33 AM 41.5°F5.3°C 34.2°F1.2°C 75% 4.3 mph E6.9 kmh E 8.0 mph12.9 kmh 30.25 in1024.4 mb 0.00 in0.0 mm 0.00 in0.0 mm 0.00 in0.0 mm
03:34 AM 41.5°F5.3°C 34.2°F1.2°C 75% 4.7 mph E7.6 kmh E 8.0 mph12.9 kmh 30.25 in1024.4 mb 0.00 in0.0 mm 0.00 in0.0 mm 0.00 in0.0 mm
03:35 AM 41.5°F5.3°C 34.2°F1.2°C 75% 3.2 mph E5.1 kmh E 7.0 mph11.3 kmh 30.25 in1024.4 mb 0.00 in0.0 mm 0.00 in0.0 mm 0.00 in0.0 mm
03:36 AM 41.5°F5.3°C 34.2°F1.2°C 75% 3.4 mph E5.5 kmh E 5.0 mph8.0 kmh 30.25 in1024.4 mb 0.00 in0.0 mm 0.00 in0.0 mm 0.00 in0.0 mm
03:37 AM 41.4°F5.2°C 34.1°F1.2°C 75% 3.1 mph E5.0 kmh E 5.0 mph8.0 kmh 30.25 in1024.4 mb 0.00 in0.0 mm 0.00 in0.0 mm 0.00 in0.0 mm
03:38 AM 41.4°F5.2°C 34.1°F1.2°C 75% 2.6 mph E4.2 kmh E 5.0 mph8.0 kmh 30.25 in1024.4 mb 0.00 in0.0 mm 0.00 in0.0 mm 0.00 in0.0 mm
03:39 AM 41.3°F5.2°C 34.0°F1.1°C 75% 2.3 mph E3.7 kmh E 5.0 mph8.0 kmh 30.25 in1024.4 mb 0.00 in0.0 mm 0.00 in0.0 mm 0.00 in0.0 mm
03:40 AM 41.3°F5.2°C 34.0°F1.1°C 75% 4.5 mph E7.2 kmh E 8.0 mph12.9 kmh 30.25 in1024.4 mb 0.00 in0.0 mm 0.00 in0.0 mm 0.00 in0.0 mm
03:41 AM 41.3°F5.2°C 34.0°F1.1°C 75% 4.4 mph E7.1 kmh E 8.0 mph12.9 kmh 30.25 in1024.4 mb 0.00 in0.0 mm 0.00 in0.0 mm 0.00 in0.0 mm
03:42 AM 41.3°F5.2°C 34.0°F1.1°C 75% 3.5 mph E5.6 kmh E 5.0 mph8.0 kmh 30.25 in1024.4 mb 0.00 in0.0 mm 0.00 in0.0 mm 0.00 in0.0 mm
03:43 AM 41.2°F5.1°C 33.9°F1.1°C 75% 2.5 mph E4.0 kmh E 5.0 mph8.0 kmh 30.24 in1024.0 mb 0.00 in0.0 mm 0.00 in0.0 mm 0.00 in0.0 mm
03:44 AM 41.2°F5.1°C 33.6°F0.9°C 74% 2.2 mph E3.5 kmh E 5.0 mph8.0 kmh 30.25 in1024.4 mb 0.00 in0.0 mm 0.00 in0.0 mm 0.00 in0.0 mm
03:45 AM 41.1°F5.1°C 33.5°F0.8°C 74% 4.0 mph E6.4 kmh E 5.0 mph8.0 kmh 30.25 in1024.4 mb 0.00 in0.0 mm 0.00 in0.0 mm 0.00 in0.0 mm
03:46 AM 41.1°F5.1°C 33.5°F0.8°C 74% 4.2 mph E6.8 kmh E 9.0 mph14.5 kmh 30.25 in1024.4 mb 0.00 in0.0 mm 0.00 in0.0 mm 0.00 in0.0 mm
03:47 AM 41.1°F5.1°C 33.1°F0.6°C 73% 3.6 mph E5.8 kmh E 9.0 mph14.5 kmh 30.25 in1024.4 mb 0.00 in0.0 mm 0.00 in0.0 mm 0.00 in0.0 mm
03:48 AM 41.1°F5.1°C 33.1°F0.6°C 73% 4.3 mph E6.9 kmh E 8.0 mph12.9 kmh 30.25 in1024.4 mb 0.00 in0.0 mm 0.00 in0.0 mm 0.00 in0.0 mm
03:49 AM 41.1°F5.1°C 33.1°F0.6°C 73% 4.6 mph E7.4 kmh E 8.0 mph12.9 kmh 30.25 in1024.4 mb 0.00 in0.0 mm 0.00 in0.0 mm 0.00 in0.0 mm
03:50 AM 41.1°F5.1°C 33.1°F0.6°C 73% 5.6 mph E9.0 kmh E 8.0 mph12.9 kmh 30.25 in1024.4 mb 0.00 in0.0 mm 0.00 in0.0 mm 0.00 in0.0 mm
03:51 AM 41.1°F5.1°C 33.1°F0.6°C 73% 3.7 mph E6.0 kmh E 8.0 mph12.9 kmh 30.25 in1024.4 mb 0.00 in0.0 mm 0.00 in0.0 mm 0.00 in0.0 mm
03:52 AM 41.1°F5.1°C 33.1°F0.6°C 73% 3.8 mph E6.1 kmh E 7.0 mph11.3 kmh 30.25 in1024.4 mb 0.00 in0.0 mm 0.00 in0.0 mm 0.00 in0.0 mm
03:53 AM 41.1°F5.1°C 33.1°F0.6°C 73% 4.6 mph E7.4 kmh E 8.0 mph12.9 kmh 30.25 in1024.4 mb 0.00 in0.0 mm 0.00 in0.0 mm 0.00 in0.0 mm
03:54 AM 41.1°F5.1°C 33.1°F0.6°C 73% 4.6 mph E7.4 kmh E 8.0 mph12.9 kmh 30.25 in1024.4 mb 0.00 in0.0 mm 0.00 in0.0 mm 0.00 in0.0 mm
03:55 AM 41.1°F5.1°C 33.1°F0.6°C 73% 3.4 mph E5.5 kmh E 7.0 mph11.3 kmh 30.25 in1024.4 mb 0.00 in0.0 mm 0.00 in0.0 mm 0.00 in0.0 mm
03:56 AM 41.1°F5.1°C 33.1°F0.6°C 73% 0.9 mph E1.4 kmh E 7.0 mph11.3 kmh 30.25 in1024.4 mb 0.00 in0.0 mm 0.00 in0.0 mm 0.00 in0.0 mm
03:57 AM 41.1°F5.1°C 33.5°F0.8°C 74% 1.2 mph E1.9 kmh E 3.0 mph4.8 kmh 30.25 in1024.4 mb 0.00 in0.0 mm 0.00 in0.0 mm 0.00 in0.0 mm
03:58 AM 41.1°F5.1°C 33.5°F0.8°C 74% 2.3 mph E3.7 kmh E 7.0 mph11.3 kmh 30.25 in1024.4 mb 0.00 in0.0 mm 0.00 in0.0 mm 0.00 in0.0 mm
03:59 AM 41.0°F5.0°C 33.4°F0.8°C 74% 1.7 mph E2.7 kmh E 7.0 mph11.3 kmh 30.25 in1024.4 mb 0.00 in0.0 mm 0.00 in0.0 mm 0.00 in0.0 mm
04:00 AM 41.0°F5.0°C 33.4°F0.8°C 74% 1.8 mph ENE2.9 kmh ENE 5.0 mph8.0 kmh 30.25 in1024.4 mb 0.00 in0.0 mm 0.00 in0.0 mm 0.00 in0.0 mm
04:01 AM 41.0°F5.0°C 33.7°F0.9°C 75% 4.4 mph ENE7.1 kmh ENE 6.0 mph9.7 kmh 30.25 in1024.4 mb 0.00 in0.0 mm 0.00 in0.0 mm 0.00 in0.0 mm
04:02 AM 40.9°F4.9°C 33.6°F0.9°C 75% 2.9 mph ENE4.7 kmh ENE 6.0 mph9.7 kmh 30.25 in1024.4 mb 0.00 in0.0 mm 0.00 in0.0 mm 0.00 in0.0 mm
04:03 AM 40.9°F4.9°C 33.6°F0.9°C 75% 2.7 mph ENE4.3 kmh ENE 5.0 mph8.0 kmh 30.25 in1024.4 mb 0.00 in0.0 mm 0.00 in0.0 mm 0.00 in0.0 mm
04:04 AM 40.8°F4.9°C 33.5°F0.8°C 75% 0.4 mph ENE0.6 kmh ENE 4.0 mph6.4 kmh 30.25 in1024.4 mb 0.00 in0.0 mm 0.00 in0.0 mm 0.00 in0.0 mm
04:05 AM 40.8°F4.9°C 33.5°F0.8°C 75% 0.8 mph ENE1.3 kmh ENE 3.0 mph4.8 kmh 30.25 in1024.4 mb 0.00 in0.0 mm 0.00 in0.0 mm 0.00 in0.0 mm
04:06 AM 40.8°F4.9°C 33.5°F0.8°C 75% 2.8 mph ENE4.5 kmh ENE 4.0 mph6.4 kmh 30.25 in1024.4 mb 0.00 in0.0 mm 0.00 in0.0 mm 0.00 in0.0 mm
04:07 AM 40.7°F4.8°C 34.1°F1.2°C 77% 1.7 mph ENE2.7 kmh ENE 4.0 mph6.4 kmh 30.25 in1024.4 mb 0.00 in0.0 mm 0.00 in0.0 mm 0.00 in0.0 mm
04:08 AM 40.7°F4.8°C 34.1°F1.2°C 77% 0.7 mph ENE1.1 kmh ENE 4.0 mph6.4 kmh 30.25 in1024.4 mb 0.00 in0.0 mm 0.00 in0.0 mm 0.00 in0.0 mm
04:09 AM 40.7°F4.8°C 34.4°F1.3°C 78% Calm Calm 3.0 mph4.8 kmh 30.25 in1024.4 mb 0.00 in0.0 mm 0.00 in0.0 mm 0.00 in0.0 mm
04:10 AM 40.6°F4.8°C 34.3°F1.3°C 78% Calm Calm -- 30.25 in1024.4 mb 0.00 in0.0 mm 0.00 in0.0 mm 0.00 in0.0 mm
04:11 AM 40.6°F4.8°C 34.3°F1.3°C 78% Calm Calm -- 30.25 in1024.4 mb 0.00 in0.0 mm 0.00 in0.0 mm 0.00 in0.0 mm
04:12 AM 40.5°F4.7°C 34.2°F1.2°C 78% 1.5 mph ENE2.4 kmh ENE 4.0 mph6.4 kmh 30.25 in1024.4 mb 0.00 in0.0 mm 0.00 in0.0 mm 0.00 in0.0 mm
04:13 AM 40.5°F4.7°C 34.2°F1.2°C 78% 2.7 mph ENE4.3 kmh ENE 5.0 mph8.0 kmh 30.25 in1024.4 mb 0.00 in0.0 mm 0.00 in0.0 mm 0.00 in0.0 mm
04:14 AM 40.5°F4.7°C 34.2°F1.2°C 78% Calm Calm 5.0 mph8.0 kmh 30.25 in1024.4 mb 0.00 in0.0 mm 0.00 in0.0 mm 0.00 in0.0 mm
04:15 AM 40.4°F4.7°C 34.4°F1.3°C 79% 0.6 mph ENE1.0 kmh ENE 3.0 mph4.8 kmh 30.25 in1024.4 mb 0.00 in0.0 mm 0.00 in0.0 mm 0.00 in0.0 mm
04:16 AM 40.3°F4.6°C 34.3°F1.3°C 79% 1.5 mph ENE2.4 kmh ENE 3.0 mph4.8 kmh 30.25 in1024.4 mb 0.00 in0.0 mm 0.00 in0.0 mm 0.00 in0.0 mm
04:17 AM 40.2°F4.6°C 34.2°F1.2°C 79% 0.6 mph ENE1.0 kmh ENE 3.0 mph4.8 kmh 30.25 in1024.4 mb 0.00 in0.0 mm 0.00 in0.0 mm 0.00 in0.0 mm
04:18 AM 40.2°F4.6°C 34.2°F1.2°C 79% Calm Calm 3.0 mph4.8 kmh 30.25 in1024.4 mb 0.00 in0.0 mm 0.00 in0.0 mm 0.00 in0.0 mm
04:19 AM 40.1°F4.5°C 33.8°F1.0°C 78% 3.0 mph ENE4.8 kmh ENE 6.0 mph9.7 kmh 30.25 in1024.4 mb 0.00 in0.0 mm 0.00 in0.0 mm 0.00 in0.0 mm
04:20 AM 40.1°F4.5°C 33.5°F0.8°C 77% 3.7 mph ENE6.0 kmh ENE 6.0 mph9.7 kmh 30.25 in1024.4 mb 0.00 in0.0 mm 0.00 in0.0 mm 0.00 in0.0 mm
04:21 AM 40.1°F4.5°C 33.5°F0.8°C 77% 2.0 mph ENE3.2 kmh ENE 5.0 mph8.0 kmh 30.25 in1024.4 mb 0.00 in0.0 mm 0.00 in0.0 mm 0.00 in0.0 mm
04:22 AM 40.1°F4.5°C 33.5°F0.8°C 77% 5.3 mph ENE8.5 kmh ENE 8.0 mph12.9 kmh 30.25 in1024.4 mb 0.00 in0.0 mm 0.00 in0.0 mm 0.00 in0.0 mm
04:23 AM 40.1°F4.5°C 33.2°F0.7°C 76% 3.7 mph ENE6.0 kmh ENE 8.0 mph12.9 kmh 30.25 in1024.4 mb 0.00 in0.0 mm 0.00 in0.0 mm 0.00 in0.0 mm
04:24 AM 40.1°F4.5°C 32.8°F0.4°C 75% 3.9 mph ENE6.3 kmh ENE 7.0 mph11.3 kmh 30.25 in1024.4 mb 0.00 in0.0 mm 0.00 in0.0 mm 0.00 in0.0 mm
04:25 AM 40.1°F4.5°C 32.8°F0.4°C 75% 5.4 mph E8.7 kmh E 9.0 mph14.5 kmh 30.25 in1024.4 mb 0.00 in0.0 mm 0.00 in0.0 mm 0.00 in0.0 mm
04:26 AM 40.1°F4.5°C 32.5°F0.3°C 74% 4.2 mph E6.8 kmh E 9.0 mph14.5 kmh 30.25 in1024.4 mb 0.00 in0.0 mm 0.00 in0.0 mm 0.00 in0.0 mm
04:27 AM 40.1°F4.5°C 32.5°F0.3°C 74% 6.2 mph E10.0 kmh E 9.0 mph14.5 kmh 30.26 in1024.7 mb 0.00 in0.0 mm 0.00 in0.0 mm 0.00 in0.0 mm
04:28 AM 40.1°F4.5°C 32.2°F0.1°C 73% 4.0 mph E6.4 kmh E 10.0 mph16.1 kmh 30.25 in1024.4 mb 0.00 in0.0 mm 0.00 in0.0 mm 0.00 in0.0 mm
04:29 AM 40.1°F4.5°C 32.2°F0.1°C 73% 6.6 mph E10.6 kmh E 10.0 mph16.1 kmh 30.25 in1024.4 mb 0.00 in0.0 mm 0.00 in0.0 mm 0.00 in0.0 mm
04:30 AM 40.1°F4.5°C 31.8°F-0.1°C 72% 6.6 mph E10.6 kmh E 11.0 mph17.7 kmh 30.25 in1024.4 mb 0.00 in0.0 mm 0.00 in0.0 mm 0.00 in0.0 mm
04:31 AM 40.1°F4.5°C 31.8°F-0.1°C 72% 6.0 mph E9.7 kmh E 11.0 mph17.7 kmh 30.25 in1024.4 mb 0.00 in0.0 mm 0.00 in0.0 mm 0.00 in0.0 mm
04:32 AM 40.1°F4.5°C 31.5°F-0.3°C 71% 7.9 mph E12.7 kmh E 10.0 mph16.1 kmh 30.26 in1024.7 mb 0.00 in0.0 mm 0.00 in0.0 mm 0.00 in0.0 mm
04:33 AM 40.1°F4.5°C 31.5°F-0.3°C 71% 3.5 mph E5.6 kmh E 10.0 mph16.1 kmh 30.26 in1024.7 mb 0.00 in0.0 mm 0.00 in0.0 mm 0.00 in0.0 mm
04:34 AM 40.1°F4.5°C 31.5°F-0.3°C 71% 6.4 mph E10.3 kmh E 14.0 mph22.5 kmh 30.25 in1024.4 mb 0.00 in0.0 mm 0.00 in0.0 mm 0.00 in0.0 mm
04:35 AM 40.0°F4.4°C 31.0°F-0.6°C 70% 5.5 mph E8.9 kmh E 14.0 mph22.5 kmh 30.26 in1024.7 mb 0.00 in0.0 mm 0.00 in0.0 mm 0.00 in0.0 mm
04:36 AM 40.0°F4.4°C 31.0°F-0.6°C 70% 6.6 mph E10.6 kmh E 9.0 mph14.5 kmh 30.26 in1024.7 mb 0.00 in0.0 mm 0.00 in0.0 mm 0.00 in0.0 mm
04:37 AM 40.0°F4.4°C 31.0°F-0.6°C 70% 6.3 mph E10.1 kmh E 10.0 mph16.1 kmh 30.26 in1024.7 mb 0.00 in0.0 mm 0.00 in0.0 mm 0.00 in0.0 mm
04:38 AM 40.0°F4.4°C 31.0°F-0.6°C 70% 7.4 mph E11.9 kmh E 11.0 mph17.7 kmh 30.26 in1024.7 mb 0.00 in0.0 mm 0.00 in0.0 mm 0.00 in0.0 mm
04:39 AM 39.9°F4.4°C 30.6°F-0.8°C 69% 5.7 mph E9.2 kmh E 11.0 mph17.7 kmh 30.26 in1024.7 mb 0.00 in0.0 mm 0.00 in0.0 mm 0.00 in0.0 mm
04:40 AM 39.9°F4.4°C 30.6°F-0.8°C 69% 6.2 mph E10.0 kmh E 10.0 mph16.1 kmh 30.26 in1024.7 mb 0.00 in0.0 mm 0.00 in0.0 mm 0.00 in0.0 mm
04:41 AM 39.9°F4.4°C 30.6°F-0.8°C 69% 4.7 mph E7.6 kmh E 9.0 mph14.5 kmh 30.26 in1024.7 mb 0.00 in0.0 mm 0.00 in0.0 mm 0.00 in0.0 mm
04:42 AM 39.9°F4.4°C 30.6°F-0.8°C 69% 2.1 mph E3.4 kmh E 8.0 mph12.9 kmh 30.26 in1024.7 mb 0.00 in0.0 mm 0.00 in0.0 mm 0.00 in0.0 mm
04:43 AM 39.8°F4.3°C 30.5°F-0.8°C 69% 4.0 mph E6.4 kmh E 9.0 mph14.5 kmh 30.26 in1024.7 mb 0.00 in0.0 mm 0.00 in0.0 mm 0.00 in0.0 mm
04:44 AM 39.8°F4.3°C 30.5°F-0.8°C 69% 5.6 mph E9.0 kmh E 9.0 mph14.5 kmh 30.26 in1024.7 mb 0.00 in0.0 mm 0.00 in0.0 mm 0.00 in0.0 mm
04:45 AM 39.8°F4.3°C 30.1°F-1.1°C 68% 5.0 mph E8.0 kmh E 8.0 mph12.9 kmh 30.26 in1024.7 mb 0.00 in0.0 mm 0.00 in0.0 mm 0.00 in0.0 mm
04:46 AM 39.7°F4.3°C 30.0°F-1.1°C 68% 3.9 mph E6.3 kmh E 8.0 mph12.9 kmh 30.26 in1024.7 mb 0.00 in0.0 mm 0.00 in0.0 mm 0.00 in0.0 mm
04:47 AM 39.7°F4.3°C 30.0°F-1.1°C 68% 7.1 mph E11.4 kmh E 10.0 mph16.1 kmh 30.26 in1024.7 mb 0.00 in0.0 mm 0.00 in0.0 mm 0.00 in0.0 mm
04:48 AM 39.7°F4.3°C 30.0°F-1.1°C 68% 3.5 mph E5.6 kmh E 10.0 mph16.1 kmh 30.26 in1024.7 mb 0.00 in0.0 mm 0.00 in0.0 mm 0.00 in0.0 mm
04:49 AM 39.7°F4.3°C 30.0°F-1.1°C 68% 2.2 mph E3.5 kmh E 5.0 mph8.0 kmh 30.26 in1024.7 mb 0.00 in0.0 mm 0.00 in0.0 mm 0.00 in0.0 mm
04:50 AM 39.6°F4.2°C 29.9°F-1.2°C 68% 2.3 mph E3.7 kmh E 5.0 mph8.0 kmh 30.26 in1024.7 mb 0.00 in0.0 mm 0.00 in0.0 mm 0.00 in0.0 mm
04:51 AM 39.6°F4.2°C 29.9°F-1.2°C 68% 1.4 mph E2.3 kmh E 4.0 mph6.4 kmh 30.26 in1024.7 mb 0.00 in0.0 mm 0.00 in0.0 mm 0.00 in0.0 mm
04:52 AM 39.6°F4.2°C 31.3°F-0.4°C 72% 3.4 mph E5.5 kmh E 5.0 mph8.0 kmh 30.26 in1024.7 mb 0.00 in0.0 mm 0.00 in0.0 mm 0.00 in0.0 mm
04:53 AM 39.5°F4.2°C 29.8°F-1.2°C 68% 2.0 mph E3.2 kmh E 5.0 mph8.0 kmh 30.26 in1024.7 mb 0.00 in0.0 mm 0.00 in0.0 mm 0.00 in0.0 mm
04:54 AM 39.5°F4.2°C 29.8°F-1.2°C 68% 1.2 mph E1.9 kmh E 5.0 mph8.0 kmh 30.26 in1024.7 mb 0.00 in0.0 mm 0.00 in0.0 mm 0.00 in0.0 mm
04:55 AM 39.5°F4.2°C 29.8°F-1.2°C 68% 3.8 mph E6.1 kmh E 7.0 mph11.3 kmh 30.26 in1024.7 mb 0.00 in0.0 mm 0.00 in0.0 mm 0.00 in0.0 mm
04:56 AM 39.4°F4.1°C 29.7°F-1.3°C 68% 2.1 mph E3.4 kmh E 7.0 mph11.3 kmh 30.26 in1024.7 mb 0.00 in0.0 mm 0.00 in0.0 mm 0.00 in0.0 mm
04:57 AM 39.4°F4.1°C 29.7°F-1.3°C 68% 1.5 mph E2.4 kmh E 5.0 mph8.0 kmh 30.26 in1024.7 mb 0.00 in0.0 mm 0.00 in0.0 mm 0.00 in0.0 mm
04:58 AM 39.3°F4.1°C 29.6°F-1.3°C 68% 3.0 mph E4.8 kmh E 5.0 mph8.0 kmh 30.26 in1024.7 mb 0.00 in0.0 mm 0.00 in0.0 mm 0.00 in0.0 mm
04:59 AM 39.3°F4.1°C 30.0°F-1.1°C 69% 3.0 mph E4.8 kmh E 5.0 mph8.0 kmh 30.26 in1024.7 mb 0.00 in0.0 mm 0.00 in0.0 mm 0.00 in0.0 mm
05:00 AM 39.3°F4.1°C 30.0°F-1.1°C 69% 1.3 mph E2.1 kmh E 5.0 mph8.0 kmh 30.26 in1024.7 mb 0.00 in0.0 mm 0.00 in0.0 mm 0.00 in0.0 mm
05:01 AM 39.2°F4.0°C 29.9°F-1.2°C 69% 2.2 mph E3.5 kmh E 5.0 mph8.0 kmh 30.26 in1024.7 mb 0.00 in0.0 mm 0.00 in0.0 mm 0.00 in0.0 mm
05:02 AM 39.2°F4.0°C 29.9°F-1.2°C 69% 2.4 mph E3.9 kmh E 5.0 mph8.0 kmh 30.26 in1024.7 mb 0.00 in0.0 mm 0.00 in0.0 mm 0.00 in0.0 mm
05:03 AM 39.2°F4.0°C 29.9°F-1.2°C 69% 1.2 mph E1.9 kmh E 5.0 mph8.0 kmh 30.26 in1024.7 mb 0.00 in0.0 mm 0.00 in0.0 mm 0.00 in0.0 mm
05:04 AM 39.1°F3.9°C 29.8°F-1.2°C 69% 1.0 mph E1.6 kmh E 4.0 mph6.4 kmh 30.26 in1024.7 mb 0.00 in0.0 mm 0.00 in0.0 mm 0.00 in0.0 mm
05:05 AM 39.1°F3.9°C 30.2°F-1.0°C 70% 0.1 mph E0.2 kmh E 2.0 mph3.2 kmh 30.26 in1024.7 mb 0.00 in0.0 mm 0.00 in0.0 mm 0.00 in0.0 mm
05:06 AM 39.1°F3.9°C 30.2°F-1.0°C 70% 0.3 mph E0.5 kmh E 2.0 mph3.2 kmh 30.26 in1024.7 mb 0.00 in0.0 mm 0.00 in0.0 mm 0.00 in0.0 mm
05:07 AM 39.1°F3.9°C 30.2°F-1.0°C 70% 2.0 mph E3.2 kmh E 4.0 mph6.4 kmh 30.26 in1024.7 mb 0.00 in0.0 mm 0.00 in0.0 mm 0.00 in0.0 mm
05:08 AM 39.0°F3.9°C 30.1°F-1.1°C 70% 1.1 mph E1.8 kmh E 4.0 mph6.4 kmh 30.27 in1025.1 mb 0.00 in0.0 mm 0.00 in0.0 mm 0.00 in0.0 mm
05:09 AM 39.0°F3.9°C 30.1°F-1.1°C 70% 2.1 mph E3.4 kmh E 3.0 mph4.8 kmh 30.26 in1024.7 mb 0.00 in0.0 mm 0.00 in0.0 mm 0.00 in0.0 mm
05:10 AM 38.9°F3.8°C 30.0°F-1.1°C 70% 0.2 mph E0.3 kmh E 3.0 mph4.8 kmh 30.26 in1024.7 mb 0.00 in0.0 mm 0.00 in0.0 mm 0.00 in0.0 mm
05:11 AM 38.9°F3.8°C 30.3°F-0.9°C 71% 0.1 mph E0.2 kmh E 1.0 mph1.6 kmh 30.26 in1024.7 mb 0.00 in0.0 mm 0.00 in0.0 mm 0.00 in0.0 mm
05:12 AM 38.9°F3.8°C 30.3°F-0.9°C 71% 0.2 mph E0.3 kmh E 1.0 mph1.6 kmh 30.26 in1024.7 mb 0.00 in0.0 mm 0.00 in0.0 mm 0.00 in0.0 mm
05:13 AM 38.9°F3.8°C 30.7°F-0.7°C 72% 1.2 mph E1.9 kmh E 3.0 mph4.8 kmh 30.26 in1024.7 mb 0.00 in0.0 mm 0.00 in0.0 mm 0.00 in0.0 mm
05:14 AM 38.9°F3.8°C 30.7°F-0.7°C 72% 1.5 mph E2.4 kmh E 3.0 mph4.8 kmh 30.27 in1025.1 mb 0.00 in0.0 mm 0.00 in0.0 mm 0.00 in0.0 mm
05:15 AM 38.9°F3.8°C 30.7°F-0.7°C 72% Calm Calm 3.0 mph4.8 kmh 30.26 in1024.7 mb 0.00 in0.0 mm 0.00 in0.0 mm 0.00 in0.0 mm
05:16 AM 38.9°F3.8°C 31.0°F-0.6°C 73% Calm Calm -- 30.27 in1025.1 mb 0.00 in0.0 mm 0.00 in0.0 mm 0.00 in0.0 mm
05:17 AM 38.9°F3.8°C 31.0°F-0.6°C 73% Calm Calm -- 30.26 in1024.7 mb 0.00 in0.0 mm 0.00 in0.0 mm 0.00 in0.0 mm
05:18 AM 38.8°F3.8°C 30.9°F-0.6°C 73% Calm Calm -- 30.27 in1025.1 mb 0.00 in0.0 mm 0.00 in0.0 mm 0.00 in0.0 mm
05:19 AM 38.8°F3.8°C 30.9°F-0.6°C 73% Calm Calm -- 30.27 in1025.1 mb 0.00 in0.0 mm 0.00 in0.0 mm 0.00 in0.0 mm
05:20 AM 38.8°F3.8°C 30.9°F-0.6°C 73% Calm Calm -- 30.27 in1025.1 mb 0.00 in0.0 mm 0.00 in0.0 mm 0.00 in0.0 mm
05:21 AM 38.8°F3.8°C 30.9°F-0.6°C 73% 1.2 mph E1.9 kmh E 4.0 mph6.4 kmh 30.26 in1024.7 mb 0.00 in0.0 mm 0.00 in0.0 mm 0.00 in0.0 mm
05:22 AM 38.8°F3.8°C 30.9°F-0.6°C 73% 1.5 mph E2.4 kmh E 4.0 mph6.4 kmh 30.27 in1025.1 mb 0.00 in0.0 mm 0.00 in0.0 mm 0.00 in0.0 mm
05:23 AM 38.8°F3.8°C 30.9°F-0.6°C 73% 2.3 mph E3.7 kmh E 5.0 mph8.0 kmh 30.27 in1025.1 mb 0.00 in0.0 mm 0.00 in0.0 mm 0.00 in0.0 mm
05:24 AM 38.7°F3.7°C 30.5°F-0.8°C 72% 3.3 mph E5.3 kmh E 5.0 mph8.0 kmh 30.27 in1025.1 mb 0.00 in0.0 mm 0.00 in0.0 mm 0.00 in0.0 mm
05:25 AM 38.7°F3.7°C 30.5°F-0.8°C 72% 4.0 mph E6.4 kmh E 7.0 mph11.3 kmh 30.27 in1025.1 mb 0.00 in0.0 mm 0.00 in0.0 mm 0.00 in0.0 mm
05:26 AM 38.7°F3.7°C 30.5°F-0.8°C 72% 4.5 mph E7.2 kmh E 7.0 mph11.3 kmh 30.27 in1025.1 mb 0.00 in0.0 mm 0.00 in0.0 mm 0.00 in0.0 mm
05:27 AM 38.7°F3.7°C 30.1°F-1.1°C 71% 3.9 mph E6.3 kmh E 9.0 mph14.5 kmh 30.27 in1025.1 mb 0.00 in0.0 mm 0.00 in0.0 mm 0.00 in0.0 mm
05:28 AM 38.7°F3.7°C 29.8°F-1.2°C 70% 1.9 mph E3.1 kmh E 9.0 mph14.5 kmh 30.27 in1025.1 mb 0.00 in0.0 mm 0.00 in0.0 mm 0.00 in0.0 mm
05:29 AM 38.7°F3.7°C 29.8°F-1.2°C 70% 2.3 mph E3.7 kmh E 7.0 mph11.3 kmh 30.27 in1025.1 mb 0.00 in0.0 mm 0.00 in0.0 mm 0.00 in0.0 mm
05:30 AM 38.7°F3.7°C 29.8°F-1.2°C 70% 3.1 mph E5.0 kmh E 7.0 mph11.3 kmh 30.27 in1025.1 mb 0.00 in0.0 mm 0.00 in0.0 mm 0.00 in0.0 mm
05:31 AM 38.7°F3.7°C 29.8°F-1.2°C 70% 3.6 mph E5.8 kmh E 7.0 mph11.3 kmh 30.27 in1025.1 mb 0.00 in0.0 mm 0.00 in0.0 mm 0.00 in0.0 mm
05:32 AM 38.7°F3.7°C 29.4°F-1.4°C 69% 1.5 mph E2.4 kmh E 7.0 mph11.3 kmh 30.27 in1025.1 mb 0.00 in0.0 mm 0.00 in0.0 mm 0.00 in0.0 mm
05:33 AM 38.8°F3.8°C 29.5°F-1.4°C 69% 1.8 mph E2.9 kmh E 7.0 mph11.3 kmh 30.27 in1025.1 mb 0.00 in0.0 mm 0.00 in0.0 mm 0.00 in0.0 mm
05:34 AM 38.7°F3.7°C 29.4°F-1.4°C 69% 1.7 mph E2.7 kmh E 4.0 mph6.4 kmh 30.27 in1025.1 mb 0.00 in0.0 mm 0.00 in0.0 mm 0.00 in0.0 mm
05:35 AM 38.7°F3.7°C 29.4°F-1.4°C 69% 3.1 mph E5.0 kmh E 5.0 mph8.0 kmh 30.27 in1025.1 mb 0.00 in0.0 mm 0.00 in0.0 mm 0.00 in0.0 mm
05:36 AM 38.7°F3.7°C 29.4°F-1.4°C 69% 4.5 mph E7.2 kmh E 8.0 mph12.9 kmh 30.27 in1025.1 mb 0.00 in0.0 mm 0.00 in0.0 mm 0.00 in0.0 mm
05:37 AM 38.7°F3.7°C 29.1°F-1.6°C 68% 1.4 mph E2.3 kmh E 8.0 mph12.9 kmh 30.27 in1025.1 mb 0.00 in0.0 mm 0.00 in0.0 mm 0.00 in0.0 mm
05:38 AM 38.7°F3.7°C 29.1°F-1.6°C 68% 3.6 mph E5.8 kmh E 6.0 mph9.7 kmh 30.27 in1025.1 mb 0.00 in0.0 mm 0.00 in0.0 mm 0.00 in0.0 mm
05:39 AM 38.7°F3.7°C 29.1°F-1.6°C 68% 3.0 mph E4.8 kmh E 7.0 mph11.3 kmh 30.27 in1025.1 mb 0.00 in0.0 mm 0.00 in0.0 mm 0.00 in0.0 mm
05:40 AM 38.7°F3.7°C 29.1°F-1.6°C 68% 3.3 mph E5.3 kmh E 7.0 mph11.3 kmh 30.27 in1025.1 mb 0.00 in0.0 mm 0.00 in0.0 mm 0.00 in0.0 mm
05:41 AM 38.7°F3.7°C 29.1°F-1.6°C 68% 1.3 mph E2.1 kmh E 7.0 mph11.3 kmh 30.27 in1025.1 mb 0.00 in0.0 mm 0.00 in0.0 mm 0.00 in0.0 mm
05:42 AM 38.7°F3.7°C 29.1°F-1.6°C 68% 0.5 mph E0.8 kmh E 3.0 mph4.8 kmh 30.27 in1025.1 mb 0.00 in0.0 mm 0.00 in0.0 mm 0.00 in0.0 mm
05:43 AM 38.7°F3.7°C 28.7°F-1.8°C 67% 0.7 mph E1.1 kmh E 3.0 mph4.8 kmh 30.27 in1025.1 mb 0.00 in0.0 mm 0.00 in0.0 mm 0.00 in0.0 mm
05:44 AM 38.7°F3.7°C 28.7°F-1.8°C 67% 1.1 mph E1.8 kmh E 4.0 mph6.4 kmh 30.27 in1025.1 mb 0.00 in0.0 mm 0.00 in0.0 mm 0.00 in0.0 mm
05:45 AM 38.7°F3.7°C 28.7°F-1.8°C 67% 2.8 mph E4.5 kmh E 6.0 mph9.7 kmh 30.27 in1025.1 mb 0.00 in0.0 mm 0.00 in0.0 mm 0.00 in0.0 mm
05:46 AM 38.7°F3.7°C 28.7°F-1.8°C 67% 2.0 mph E3.2 kmh E 6.0 mph9.7 kmh 30.27 in1025.1 mb 0.00 in0.0 mm 0.00 in0.0 mm 0.00 in0.0 mm
05:47 AM 38.7°F3.7°C 28.7°F-1.8°C 67% 3.9 mph E6.3 kmh E 7.0 mph11.3 kmh 30.27 in1025.1 mb 0.00 in0.0 mm 0.00 in0.0 mm 0.00 in0.0 mm
05:48 AM 38.6°F3.7°C 28.6°F-1.9°C 67% 0.7 mph E1.1 kmh E 7.0 mph11.3 kmh 30.27 in1025.1 mb 0.00 in0.0 mm 0.00 in0.0 mm 0.00 in0.0 mm
05:49 AM 38.7°F3.7°C 28.7°F-1.8°C 67% 1.8 mph E2.9 kmh E 6.0 mph9.7 kmh 30.27 in1025.1 mb 0.00 in0.0 mm 0.00 in0.0 mm 0.00 in0.0 mm
05:50 AM 38.6°F3.7°C 28.6°F-1.9°C 67% 2.5 mph E4.0 kmh E 6.0 mph9.7 kmh 30.27 in1025.1 mb 0.00 in0.0 mm 0.00 in0.0 mm 0.00 in0.0 mm
05:51 AM 38.6°F3.7°C 28.2°F-2.1°C 66% 2.3 mph E3.7 kmh E 4.0 mph6.4 kmh 30.27 in1025.1 mb 0.00 in0.0 mm 0.00 in0.0 mm 0.00 in0.0 mm
05:52 AM 38.7°F3.7°C 28.3°F-2.1°C 66% 4.0 mph E6.4 kmh E 7.0 mph11.3 kmh 30.27 in1025.1 mb 0.00 in0.0 mm 0.00 in0.0 mm 0.00 in0.0 mm
05:53 AM 38.6°F3.7°C 28.2°F-2.1°C 66% 1.9 mph E3.1 kmh E 7.0 mph11.3 kmh 30.27 in1025.1 mb 0.00 in0.0 mm 0.00 in0.0 mm 0.00 in0.0 mm
05:54 AM 38.7°F3.7°C 28.3°F-2.1°C 66% 1.8 mph E2.9 kmh E 5.0 mph8.0 kmh 30.27 in1025.1 mb 0.00 in0.0 mm 0.00 in0.0 mm 0.00 in0.0 mm
05:55 AM 38.6°F3.7°C 28.2°F-2.1°C 66% 3.3 mph E5.3 kmh E 5.0 mph8.0 kmh 30.27 in1025.1 mb 0.00 in0.0 mm 0.00 in0.0 mm 0.00 in0.0 mm
05:56 AM 38.7°F3.7°C 28.3°F-2.1°C 66% 2.5 mph E4.0 kmh E 5.0 mph8.0 kmh 30.27 in1025.1 mb 0.00 in0.0 mm 0.00 in0.0 mm 0.00 in0.0 mm
05:57 AM 38.7°F3.7°C 28.3°F-2.1°C 66% 2.6 mph E4.2 kmh E 5.0 mph8.0 kmh 30.27 in1025.1 mb 0.00 in0.0 mm 0.00 in0.0 mm 0.00 in0.0 mm
05:58 AM 38.7°F3.7°C 28.3°F-2.1°C 66% 2.1 mph E3.4 kmh E 5.0 mph8.0 kmh 30.27 in1025.1 mb 0.00 in0.0 mm 0.00 in0.0 mm 0.00 in0.0 mm
05:59 AM 38.6°F3.7°C 28.2°F-2.1°C 66% 2.1 mph E3.4 kmh E 5.0 mph8.0 kmh 30.27 in1025.1 mb 0.00 in0.0 mm 0.00 in0.0 mm 0.00 in0.0 mm
06:00 AM 38.7°F3.7°C 28.3°F-2.1°C 66% 1.2 mph E1.9 kmh E 7.0 mph11.3 kmh 30.27 in1025.1 mb 0.00 in0.0 mm 0.00 in0.0 mm 0.00 in0.0 mm
06:01 AM 38.7°F3.7°C 28.3°F-2.1°C 66% 4.2 mph E6.8 kmh E 8.0 mph12.9 kmh 30.27 in1025.1 mb 0.00 in0.0 mm 0.00 in0.0 mm 0.00 in0.0 mm
06:02 AM 38.7°F3.7°C 28.0°F-2.2°C 65% 4.0 mph E6.4 kmh E 8.0 mph12.9 kmh 30.27 in1025.1 mb 0.00 in0.0 mm 0.00 in0.0 mm 0.00 in0.0 mm
06:03 AM 38.7°F3.7°C 28.0°F-2.2°C 65% 0.3 mph E0.5 kmh E 8.0 mph12.9 kmh 30.27 in1025.1 mb 0.00 in0.0 mm 0.00 in0.0 mm 0.00 in0.0 mm
06:04 AM 38.7°F3.7°C 28.0°F-2.2°C 65% 3.1 mph E5.0 kmh E 7.0 mph11.3 kmh 30.27 in1025.1 mb 0.00 in0.0 mm 0.00 in0.0 mm 0.00 in0.0 mm
06:05 AM 38.7°F3.7°C 28.0°F-2.2°C 65% 1.0 mph E1.6 kmh E 7.0 mph11.3 kmh 30.27 in1025.1 mb 0.00 in0.0 mm 0.00 in0.0 mm 0.00 in0.0 mm
06:06 AM 38.7°F3.7°C 28.0°F-2.2°C 65% 2.8 mph E4.5 kmh E 7.0 mph11.3 kmh 30.27 in1025.1 mb 0.00 in0.0 mm 0.00 in0.0 mm 0.00 in0.0 mm
06:07 AM 38.7°F3.7°C 28.0°F-2.2°C 65% 3.7 mph E6.0 kmh E 7.0 mph11.3 kmh 30.28 in1025.4 mb 0.00 in0.0 mm 0.00 in0.0 mm 0.00 in0.0 mm
06:08 AM 38.8°F3.8°C 28.1°F-2.2°C 65% 4.1 mph E6.6 kmh E 7.0 mph11.3 kmh 30.27 in1025.1 mb 0.00 in0.0 mm 0.00 in0.0 mm 0.00 in0.0 mm
06:09 AM 38.8°F3.8°C 28.1°F-2.2°C 65% 2.4 mph E3.9 kmh E 9.0 mph14.5 kmh 30.28 in1025.4 mb 0.00 in0.0 mm 0.00 in0.0 mm 0.00 in0.0 mm
06:10 AM 38.8°F3.8°C 28.1°F-2.2°C 65% 4.6 mph E7.4 kmh E 9.0 mph14.5 kmh 30.27 in1025.1 mb 0.00 in0.0 mm 0.00 in0.0 mm 0.00 in0.0 mm
06:11 AM 38.8°F3.8°C 28.1°F-2.2°C 65% 4.0 mph E6.4 kmh E 7.0 mph11.3 kmh 30.27 in1025.1 mb 0.00 in0.0 mm 0.00 in0.0 mm 0.00 in0.0 mm
06:12 AM 38.8°F3.8°C 28.1°F-2.2°C 65% 4.0 mph E6.4 kmh E 7.0 mph11.3 kmh 30.27 in1025.1 mb 0.00 in0.0 mm 0.00 in0.0 mm 0.00 in0.0 mm
06:13 AM 38.8°F3.8°C 28.1°F-2.2°C 65% 2.9 mph E4.7 kmh E 7.0 mph11.3 kmh 30.27 in1025.1 mb 0.00 in0.0 mm 0.00 in0.0 mm 0.00 in0.0 mm
06:14 AM 38.9°F3.8°C 28.2°F-2.1°C 65% 3.5 mph E5.6 kmh E 7.0 mph11.3 kmh 30.27 in1025.1 mb 0.00 in0.0 mm 0.00 in0.0 mm 0.00 in0.0 mm
06:15 AM 38.9°F3.8°C 27.8°F-2.3°C 64% 3.3 mph E5.3 kmh E 7.0 mph11.3 kmh 30.28 in1025.4 mb 0.00 in0.0 mm 0.00 in0.0 mm 0.00 in0.0 mm
06:16 AM 38.9°F3.8°C 27.8°F-2.3°C 64% 5.7 mph E9.2 kmh E 9.0 mph14.5 kmh 30.27 in1025.1 mb 0.00 in0.0 mm 0.00 in0.0 mm 0.00 in0.0 mm
06:17 AM 38.9°F3.8°C 27.8°F-2.3°C 64% 3.4 mph E5.5 kmh E 9.0 mph14.5 kmh 30.28 in1025.4 mb 0.00 in0.0 mm 0.00 in0.0 mm 0.00 in0.0 mm
06:18 AM 38.9°F3.8°C 27.8°F-2.3°C 64% 3.5 mph E5.6 kmh E 7.0 mph11.3 kmh 30.28 in1025.4 mb 0.00 in0.0 mm 0.00 in0.0 mm 0.00 in0.0 mm
06:19 AM 38.9°F3.8°C 27.8°F-2.3°C 64% 4.9 mph E7.9 kmh E 12.0 mph19.3 kmh 30.28 in1025.4 mb 0.00 in0.0 mm 0.00 in0.0 mm 0.00 in0.0 mm
06:20 AM 38.9°F3.8°C 27.8°F-2.3°C 64% 4.2 mph E6.8 kmh E 12.0 mph19.3 kmh 30.28 in1025.4 mb 0.00 in0.0 mm 0.00 in0.0 mm 0.00 in0.0 mm
06:21 AM 39.0°F3.9°C 27.9°F-2.3°C 64% 3.5 mph E5.6 kmh E 8.0 mph12.9 kmh 30.28 in1025.4 mb 0.00 in0.0 mm 0.00 in0.0 mm 0.00 in0.0 mm
06:22 AM 39.0°F3.9°C 27.9°F-2.3°C 64% 5.4 mph E8.7 kmh E 10.0 mph16.1 kmh 30.28 in1025.4 mb 0.00 in0.0 mm 0.00 in0.0 mm 0.00 in0.0 mm
06:23 AM 39.0°F3.9°C 27.9°F-2.3°C 64% 6.9 mph E11.1 kmh E 11.0 mph17.7 kmh 30.28 in1025.4 mb 0.00 in0.0 mm 0.00 in0.0 mm 0.00 in0.0 mm
06:24 AM 39.0°F3.9°C 27.9°F-2.3°C 64% 6.7 mph E10.8 kmh E 11.0 mph17.7 kmh 30.28 in1025.4 mb 0.00 in0.0 mm 0.00 in0.0 mm 0.00 in0.0 mm
06:25 AM 39.0°F3.9°C 27.9°F-2.3°C 64% 3.0 mph E4.8 kmh E 8.0 mph12.9 kmh 30.28 in1025.4 mb 0.00 in0.0 mm 0.00 in0.0 mm 0.00 in0.0 mm
06:26 AM 39.0°F3.9°C 27.9°F-2.3°C 64% 4.0 mph E6.4 kmh E 7.0 mph11.3 kmh 30.28 in1025.4 mb 0.00 in0.0 mm 0.00 in0.0 mm 0.00 in0.0 mm
06:27 AM 39.1°F3.9°C 28.0°F-2.2°C 64% 3.6 mph E5.8 kmh E 7.0 mph11.3 kmh 30.28 in1025.4 mb 0.00 in0.0 mm 0.00 in0.0 mm 0.00 in0.0 mm
06:28 AM 39.1°F3.9°C 28.0°F-2.2°C 64% 3.8 mph E6.1 kmh E 7.0 mph11.3 kmh 30.28 in1025.4 mb 0.00 in0.0 mm 0.00 in0.0 mm 0.00 in0.0 mm
06:29 AM 39.1°F3.9°C 28.0°F-2.2°C 64% 1.0 mph E1.6 kmh E 7.0 mph11.3 kmh 30.28 in1025.4 mb 0.00 in0.0 mm 0.00 in0.0 mm 0.00 in0.0 mm
06:30 AM 39.1°F3.9°C 28.0°F-2.2°C 64% 2.8 mph E4.5 kmh E 6.0 mph9.7 kmh 30.28 in1025.4 mb 0.00 in0.0 mm 0.00 in0.0 mm 0.00 in0.0 mm
06:31 AM 39.1°F3.9°C 28.0°F-2.2°C 64% 3.7 mph E6.0 kmh E 6.0 mph9.7 kmh 30.28 in1025.4 mb 0.00 in0.0 mm 0.00 in0.0 mm 0.00 in0.0 mm
06:32 AM 39.1°F3.9°C 28.0°F-2.2°C 64% 4.7 mph E7.6 kmh E 8.0 mph12.9 kmh 30.28 in1025.4 mb 0.00 in0.0 mm 0.00 in0.0 mm 0.00 in0.0 mm
06:33 AM 39.1°F3.9°C 28.0°F-2.2°C 64% 3.5 mph E5.6 kmh E 8.0 mph12.9 kmh 30.28 in1025.4 mb 0.00 in0.0 mm 0.00 in0.0 mm 0.00 in0.0 mm
06:34 AM 39.1°F3.9°C 28.0°F-2.2°C 64% 3.2 mph E5.1 kmh E 7.0 mph11.3 kmh 30.28 in1025.4 mb 0.00 in0.0 mm 0.00 in0.0 mm 0.00 in0.0 mm
06:35 AM 39.1°F3.9°C 28.0°F-2.2°C 64% 2.6 mph E4.2 kmh E 7.0 mph11.3 kmh 30.28 in1025.4 mb 0.00 in0.0 mm 0.00 in0.0 mm 0.00 in0.0 mm
06:36 AM 39.2°F4.0°C 28.1°F-2.2°C 64% 2.6 mph E4.2 kmh E 7.0 mph11.3 kmh 30.28 in1025.4 mb 0.00 in0.0 mm 0.00 in0.0 mm 0.00 in0.0 mm
06:37 AM 39.2°F4.0°C 28.1°F-2.2°C 64% 2.9 mph E4.7 kmh E 8.0 mph12.9 kmh 30.28 in1025.4 mb 0.00 in0.0 mm 0.00 in0.0 mm 0.00 in0.0 mm
06:38 AM 39.2°F4.0°C 28.1°F-2.2°C 64% 0.3 mph E0.5 kmh E 8.0 mph12.9 kmh 30.28 in1025.4 mb 0.00 in0.0 mm 0.00 in0.0 mm 0.00 in0.0 mm
06:39 AM 39.2°F4.0°C 28.1°F-2.2°C 64% 2.7 mph E4.3 kmh E 5.0 mph8.0 kmh 30.28 in1025.4 mb 0.00 in0.0 mm 0.00 in0.0 mm 0.00 in0.0 mm
06:40 AM 39.2°F4.0°C 28.1°F-2.2°C 64% 4.3 mph E6.9 kmh E 9.0 mph14.5 kmh 30.28 in1025.4 mb 0.00 in0.0 mm 0.00 in0.0 mm 0.00 in0.0 mm
06:41 AM 39.2°F4.0°C 28.1°F-2.2°C 64% 2.3 mph ENE3.7 kmh ENE 9.0 mph14.5 kmh 30.28 in1025.4 mb 0.00 in0.0 mm 0.00 in0.0 mm 0.00 in0.0 mm
06:42 AM 39.2°F4.0°C 28.1°F-2.2°C 64% 3.0 mph ENE4.8 kmh ENE 8.0 mph12.9 kmh 30.28 in1025.4 mb 0.00 in0.0 mm 0.00 in0.0 mm 0.00 in0.0 mm
06:43 AM 39.2°F4.0°C 28.1°F-2.2°C 64% 2.8 mph ENE4.5 kmh ENE 8.0 mph12.9 kmh 30.28 in1025.4 mb 0.00 in0.0 mm 0.00 in0.0 mm 0.00 in0.0 mm
06:44 AM 39.2°F4.0°C 28.1°F-2.2°C 64% 3.3 mph ENE5.3 kmh ENE 8.0 mph12.9 kmh 30.28 in1025.4 mb 0.00 in0.0 mm 0.00 in0.0 mm 0.00 in0.0 mm
06:45 AM 39.2°F4.0°C 28.1°F-2.2°C 64% 3.8 mph ENE6.1 kmh ENE 8.0 mph12.9 kmh 30.28 in1025.4 mb 0.00 in0.0 mm 0.00 in0.0 mm 0.00 in0.0 mm
06:46 AM 39.2°F4.0°C 28.1°F-2.2°C 64% 1.0 mph ENE1.6 kmh ENE 5.0 mph8.0 kmh 30.28 in1025.4 mb 0.00 in0.0 mm 0.00 in0.0 mm 0.00 in0.0 mm
06:47 AM 39.3°F4.1°C 28.2°F-2.1°C 64% 3.2 mph ENE5.1 kmh ENE 6.0 mph9.7 kmh 30.28 in1025.4 mb 0.00 in0.0 mm 0.00 in0.0 mm 0.00 in0.0 mm
06:48 AM 39.2°F4.0°C 28.1°F-2.2°C 64% 5.6 mph ENE9.0 kmh ENE 9.0 mph14.5 kmh 30.28 in1025.4 mb 0.00 in0.0 mm 0.00 in0.0 mm 0.00 in0.0 mm
06:49 AM 39.3°F4.1°C 28.2°F-2.1°C 64% 2.0 mph ENE3.2 kmh ENE 9.0 mph14.5 kmh 30.28 in1025.4 mb 0.00 in0.0 mm 0.00 in0.0 mm 0.00 in0.0 mm
06:50 AM 39.2°F4.0°C 28.1°F-2.2°C 64% 4.3 mph E6.9 kmh E 8.0 mph12.9 kmh 30.28 in1025.4 mb 0.00 in0.0 mm 0.00 in0.0 mm 0.00 in0.0 mm
06:51 AM 39.3°F4.1°C 28.2°F-2.1°C 64% 2.0 mph E3.2 kmh E 8.0 mph12.9 kmh 30.28 in1025.4 mb 0.00 in0.0 mm 0.00 in0.0 mm 0.00 in0.0 mm
06:52 AM 39.3°F4.1°C 28.2°F-2.1°C 64% 3.9 mph E6.3 kmh E 7.0 mph11.3 kmh 30.28 in1025.4 mb 0.00 in0.0 mm 0.00 in0.0 mm 0.00 in0.0 mm
06:53 AM 39.3°F4.1°C 28.2°F-2.1°C 64% 3.5 mph E5.6 kmh E 7.0 mph11.3 kmh 30.28 in1025.4 mb 0.00 in0.0 mm 0.00 in0.0 mm 0.00 in0.0 mm
06:54 AM 39.3°F4.1°C 28.2°F-2.1°C 64% 4.5 mph E7.2 kmh E 8.0 mph12.9 kmh 30.28 in1025.4 mb 0.00 in0.0 mm 0.00 in0.0 mm 0.00 in0.0 mm
06:55 AM 39.3°F4.1°C 28.2°F-2.1°C 64% 6.6 mph E10.6 kmh E 9.0 mph14.5 kmh 30.28 in1025.4 mb 0.00 in0.0 mm 0.00 in0.0 mm 0.00 in0.0 mm
06:56 AM 39.3°F4.1°C 28.2°F-2.1°C 64% 3.6 mph ENE5.8 kmh ENE 9.0 mph14.5 kmh 30.28 in1025.4 mb 0.00 in0.0 mm 0.00 in0.0 mm 0.00 in0.0 mm
06:57 AM 39.3°F4.1°C 27.8°F-2.3°C 63% 6.1 mph E9.8 kmh E 10.0 mph16.1 kmh 30.28 in1025.4 mb 0.00 in0.0 mm 0.00 in0.0 mm 0.00 in0.0 mm
06:58 AM 39.3°F4.1°C 27.8°F-2.3°C 63% 5.9 mph E9.5 kmh E 10.0 mph16.1 kmh 30.28 in1025.4 mb 0.00 in0.0 mm 0.00 in0.0 mm 0.00 in0.0 mm
06:59 AM 39.3°F4.1°C 28.2°F-2.1°C 64% 3.5 mph E5.6 kmh E 10.0 mph16.1 kmh 30.28 in1025.4 mb 0.00 in0.0 mm 0.00 in0.0 mm 0.00 in0.0 mm
07:00 AM 39.3°F4.1°C 28.2°F-2.1°C 64% 3.2 mph E5.1 kmh E 9.0 mph14.5 kmh 30.28 in1025.4 mb 0.00 in0.0 mm 0.00 in0.0 mm 0.00 in0.0 mm
07:01 AM 39.3°F4.1°C 28.2°F-2.1°C 64% 5.8 mph E9.3 kmh E 9.0 mph14.5 kmh 30.28 in1025.4 mb 0.00 in0.0 mm 0.00 in0.0 mm 0.00 in0.0 mm
07:02 AM 39.3°F4.1°C 28.2°F-2.1°C 64% 5.3 mph E8.5 kmh E 9.0 mph14.5 kmh 30.28 in1025.4 mb 0.00 in0.0 mm 0.00 in0.0 mm 0.00 in0.0 mm
07:03 AM 39.4°F4.1°C 28.3°F-2.1°C 64% 4.1 mph E6.6 kmh E 9.0 mph14.5 kmh 30.28 in1025.4 mb 0.00 in0.0 mm 0.00 in0.0 mm 0.00 in0.0 mm
07:04 AM 39.4°F4.1°C 28.3°F-2.1°C 64% 6.8 mph E10.9 kmh E 9.0 mph14.5 kmh 30.28 in1025.4 mb 0.00 in0.0 mm 0.00 in0.0 mm 0.00 in0.0 mm
07:05 AM 39.4°F4.1°C 28.3°F-2.1°C 64% 3.5 mph E5.6 kmh E 9.0 mph14.5 kmh 30.28 in1025.4 mb 0.00 in0.0 mm 0.00 in0.0 mm 0.00 in0.0 mm
07:06 AM 39.4°F4.1°C 28.3°F-2.1°C 64% 3.4 mph E5.5 kmh E 7.0 mph11.3 kmh 30.28 in1025.4 mb 0.00 in0.0 mm 0.00 in0.0 mm 0.00 in0.0 mm
07:07 AM 39.4°F4.1°C 28.3°F-2.1°C 64% 3.7 mph ENE6.0 kmh ENE 9.0 mph14.5 kmh 30.28 in1025.4 mb 0.00 in0.0 mm 0.00 in0.0 mm 0.00 in0.0 mm
07:08 AM 39.4°F4.1°C 28.3°F-2.1°C 64% 5.5 mph E8.9 kmh E 11.0 mph17.7 kmh 30.28 in1025.4 mb 0.00 in0.0 mm 0.00 in0.0 mm 0.00 in0.0 mm
07:09 AM 39.4°F4.1°C 27.9°F-2.3°C 63% 8.3 mph E13.4 kmh E 11.0 mph17.7 kmh 30.28 in1025.4 mb 0.00 in0.0 mm 0.00 in0.0 mm 0.00 in0.0 mm
07:10 AM 39.4°F4.1°C 27.9°F-2.3°C 63% 6.2 mph E10.0 kmh E 11.0 mph17.7 kmh 30.28 in1025.4 mb 0.00 in0.0 mm 0.00 in0.0 mm 0.00 in0.0 mm
07:11 AM 39.4°F4.1°C 28.3°F-2.1°C 64% 4.4 mph E7.1 kmh E 10.0 mph16.1 kmh 30.28 in1025.4 mb 0.00 in0.0 mm 0.00 in0.0 mm 0.00 in0.0 mm
07:12 AM 39.4°F4.1°C 28.3°F-2.1°C 64% 2.4 mph E3.9 kmh E 7.0 mph11.3 kmh 30.28 in1025.4 mb 0.00 in0.0 mm 0.00 in0.0 mm 0.00 in0.0 mm
07:13 AM 39.4°F4.1°C 28.3°F-2.1°C 64% 3.6 mph E5.8 kmh E 7.0 mph11.3 kmh 30.28 in1025.4 mb 0.00 in0.0 mm 0.00 in0.0 mm 0.00 in0.0 mm
07:14 AM 39.5°F4.2°C 28.3°F-2.1°C 64% 3.6 mph E5.8 kmh E 7.0 mph11.3 kmh 30.28 in1025.4 mb 0.00 in0.0 mm 0.00 in0.0 mm 0.00 in0.0 mm
07:15 AM 39.5°F4.2°C 28.3°F-2.1°C 64% 2.3 mph E3.7 kmh E 5.0 mph8.0 kmh 30.28 in1025.4 mb 0.00 in0.0 mm 0.00 in0.0 mm 0.00 in0.0 mm
07:16 AM 39.5°F4.2°C 28.3°F-2.1°C 64% 3.6 mph E5.8 kmh E 8.0 mph12.9 kmh 30.28 in1025.4 mb 0.00 in0.0 mm 0.00 in0.0 mm 0.00 in0.0 mm
07:17 AM 39.5°F4.2°C 28.3°F-2.1°C 64% 6.4 mph E10.3 kmh E 10.0 mph16.1 kmh 30.28 in1025.4 mb 0.00 in0.0 mm 0.00 in0.0 mm 0.00 in0.0 mm
07:18 AM 39.6°F4.2°C 28.4°F-2.0°C 64% 4.1 mph E6.6 kmh E 10.0 mph16.1 kmh 30.28 in1025.4 mb 0.00 in0.0 mm 0.00 in0.0 mm 0.00 in0.0 mm
07:19 AM 39.6°F4.2°C 28.4°F-2.0°C 64% 2.9 mph E4.7 kmh E 8.0 mph12.9 kmh 30.28 in1025.4 mb 0.00 in0.0 mm 0.00 in0.0 mm 0.00 in0.0 mm
07:20 AM 39.6°F4.2°C 28.4°F-2.0°C 64% 5.6 mph E9.0 kmh E 9.0 mph14.5 kmh 30.28 in1025.4 mb 0.00 in0.0 mm 0.00 in0.0 mm 0.00 in0.0 mm
07:21 AM 39.6°F4.2°C 28.4°F-2.0°C 64% 6.1 mph E9.8 kmh E 9.0 mph14.5 kmh 30.28 in1025.4 mb 0.00 in0.0 mm 0.00 in0.0 mm 0.00 in0.0 mm
07:22 AM 39.6°F4.2°C 28.1°F-2.2°C 63% 3.7 mph ENE6.0 kmh ENE 9.0 mph14.5 kmh 30.28 in1025.4 mb 0.00 in0.0 mm 0.00 in0.0 mm 0.00 in0.0 mm
07:23 AM 39.6°F4.2°C 28.1°F-2.2°C 63% 3.6 mph E5.8 kmh E 8.0 mph12.9 kmh 30.28 in1025.4 mb 0.00 in0.0 mm 0.00 in0.0 mm 0.00 in0.0 mm
07:24 AM 39.7°F4.3°C 28.2°F-2.1°C 63% 2.0 mph E3.2 kmh E 8.0 mph12.9 kmh 30.28 in1025.4 mb 0.00 in0.0 mm 0.00 in0.0 mm 0.00 in0.0 mm
07:25 AM 39.7°F4.3°C 28.5°F-1.9°C 64% 4.0 mph E6.4 kmh E 7.0 mph11.3 kmh 30.28 in1025.4 mb 0.00 in0.0 mm 0.00 in0.0 mm 0.00 in0.0 mm
07:26 AM 39.7°F4.3°C 28.5°F-1.9°C 64% 4.3 mph E6.9 kmh E 9.0 mph14.5 kmh 30.28 in1025.4 mb 0.00 in0.0 mm 0.00 in0.0 mm 0.00 in0.0 mm
07:27 AM 39.7°F4.3°C 28.2°F-2.1°C 63% 4.3 mph E6.9 kmh E 9.0 mph14.5 kmh 30.29 in1025.7 mb 0.00 in0.0 mm 0.00 in0.0 mm 0.00 in0.0 mm
07:28 AM 39.8°F4.3°C 28.2°F-2.1°C 63% 4.2 mph E6.8 kmh E 8.0 mph12.9 kmh 30.29 in1025.7 mb 0.00 in0.0 mm 0.00 in0.0 mm 0.00 in0.0 mm
07:29 AM 39.8°F4.3°C 28.6°F-1.9°C 64% 4.1 mph E6.6 kmh E 7.0 mph11.3 kmh 30.28 in1025.4 mb 0.00 in0.0 mm 0.00 in0.0 mm 0.00 in0.0 mm
07:30 AM 39.8°F4.3°C 28.2°F-2.1°C 63% 2.5 mph E4.0 kmh E 7.0 mph11.3 kmh 30.29 in1025.7 mb 0.00 in0.0 mm 0.00 in0.0 mm 0.00 in0.0 mm
07:31 AM 39.8°F4.3°C 28.6°F-1.9°C 64% 3.1 mph E5.0 kmh E 8.0 mph12.9 kmh 30.29 in1025.7 mb 0.00 in0.0 mm 0.00 in0.0 mm 0.00 in0.0 mm
07:32 AM 39.8°F4.3°C 28.6°F-1.9°C 64% 2.5 mph E4.0 kmh E 8.0 mph12.9 kmh 30.29 in1025.7 mb 0.00 in0.0 mm 0.00 in0.0 mm 0.00 in0.0 mm
07:33 AM 39.9°F4.4°C 28.7°F-1.8°C 64% 1.7 mph E2.7 kmh E 7.0 mph11.3 kmh 30.28 in1025.4 mb 0.00 in0.0 mm 0.00 in0.0 mm 0.00 in0.0 mm
07:34 AM 40.0°F4.4°C 28.8°F-1.8°C 64% 2.4 mph E3.9 kmh E 4.0 mph6.4 kmh 30.29 in1025.7 mb 0.00 in0.0 mm 0.00 in0.0 mm 0.00 in0.0 mm
07:35 AM 40.0°F4.4°C 28.8°F-1.8°C 64% 3.9 mph E6.3 kmh E 7.0 mph11.3 kmh 30.29 in1025.7 mb 0.00 in0.0 mm 0.00 in0.0 mm 0.00 in0.0 mm
07:36 AM 40.1°F4.5°C 28.5°F-1.9°C 63% 3.1 mph E5.0 kmh E 8.0 mph12.9 kmh 30.29 in1025.7 mb 0.00 in0.0 mm 0.00 in0.0 mm 0.00 in0.0 mm
07:37 AM 40.1°F4.5°C 28.5°F-1.9°C 63% 3.0 mph E4.8 kmh E 8.0 mph12.9 kmh 30.29 in1025.7 mb 0.00 in0.0 mm 0.00 in0.0 mm 0.00 in0.0 mm
07:38 AM 40.2°F4.6°C 28.6°F-1.9°C 63% 3.4 mph E5.5 kmh E 7.0 mph11.3 kmh 30.29 in1025.7 mb 0.00 in0.0 mm 0.00 in0.0 mm 0.00 in0.0 mm
07:39 AM 40.3°F4.6°C 28.7°F-1.8°C 63% 6.2 mph E10.0 kmh E 9.0 mph14.5 kmh 30.29 in1025.7 mb 0.00 in0.0 mm 0.00 in0.0 mm 0.00 in0.0 mm
07:40 AM 40.3°F4.6°C 28.7°F-1.8°C 63% 2.6 mph E4.2 kmh E 9.0 mph14.5 kmh 30.29 in1025.7 mb 0.00 in0.0 mm 0.00 in0.0 mm 0.00 in0.0 mm
07:41 AM 40.4°F4.7°C 28.8°F-1.8°C 63% 1.9 mph E3.1 kmh E 6.0 mph9.7 kmh 30.29 in1025.7 mb 0.00 in0.0 mm 0.00 in0.0 mm 0.00 in0.0 mm
07:42 AM 40.4°F4.7°C 28.8°F-1.8°C 63% 3.8 mph E6.1 kmh E 8.0 mph12.9 kmh 30.29 in1025.7 mb 0.00 in0.0 mm 0.00 in0.0 mm 0.00 in0.0 mm
07:43 AM 40.5°F4.7°C 28.9°F-1.7°C 63% 2.8 mph E4.5 kmh E 8.0 mph12.9 kmh 30.29 in1025.7 mb 0.00 in0.0 mm 0.00 in0.0 mm 0.00 in0.0 mm
07:44 AM 40.6°F4.8°C 28.6°F-1.9°C 62% 5.1 mph E8.2 kmh E 9.0 mph14.5 kmh 30.28 in1025.4 mb 0.00 in0.0 mm 0.00 in0.0 mm 0.00 in0.0 mm
07:45 AM 40.6°F4.8°C 28.6°F-1.9°C 62% 3.8 mph E6.1 kmh E 9.0 mph14.5 kmh 30.29 in1025.7 mb 0.00 in0.0 mm 0.00 in0.0 mm 0.00 in0.0 mm
07:46 AM 40.6°F4.8°C 28.6°F-1.9°C 62% 2.5 mph E4.0 kmh E 9.0 mph14.5 kmh 30.29 in1025.7 mb 0.00 in0.0 mm 0.00 in0.0 mm 0.00 in0.0 mm
07:47 AM 40.7°F4.8°C 28.7°F-1.8°C 62% 1.2 mph E1.9 kmh E 7.0 mph11.3 kmh 30.29 in1025.7 mb 0.00 in0.0 mm 0.00 in0.0 mm 0.00 in0.0 mm
07:48 AM 40.7°F4.8°C 28.7°F-1.8°C 62% 1.7 mph E2.7 kmh E 7.0 mph11.3 kmh 30.29 in1025.7 mb 0.00 in0.0 mm 0.00 in0.0 mm 0.00 in0.0 mm
07:49 AM 40.7°F4.8°C 28.7°F-1.8°C 62% 3.8 mph E6.1 kmh E 7.0 mph11.3 kmh 30.29 in1025.7 mb 0.00 in0.0 mm 0.00 in0.0 mm 0.00 in0.0 mm
07:50 AM 40.8°F4.9°C 28.8°F-1.8°C 62% 2.5 mph E4.0 kmh E 7.0 mph11.3 kmh 30.29 in1025.7 mb 0.00 in0.0 mm 0.00 in0.0 mm 0.00 in0.0 mm
07:51 AM 40.7°F4.8°C 28.7°F-1.8°C 62% 5.5 mph ENE8.9 kmh ENE 11.0 mph17.7 kmh 30.28 in1025.4 mb 0.00 in0.0 mm 0.00 in0.0 mm 0.00 in0.0 mm
07:52 AM 40.8°F4.9°C 28.8°F-1.8°C 62% 4.7 mph NE7.6 kmh NE 11.0 mph17.7 kmh 30.29 in1025.7 mb 0.00 in0.0 mm 0.00 in0.0 mm 0.00 in0.0 mm
07:53 AM 40.7°F4.8°C 28.7°F-1.8°C 62% 4.5 mph E7.2 kmh E 11.0 mph17.7 kmh 30.29 in1025.7 mb 0.00 in0.0 mm 0.00 in0.0 mm 0.00 in0.0 mm
07:54 AM 40.7°F4.8°C 28.7°F-1.8°C 62% 3.9 mph E6.3 kmh E 8.0 mph12.9 kmh 30.29 in1025.7 mb 0.00 in0.0 mm 0.00 in0.0 mm 0.00 in0.0 mm
07:55 AM 40.7°F4.8°C 28.7°F-1.8°C 62% 2.4 mph E3.9 kmh E 8.0 mph12.9 kmh 30.29 in1025.7 mb 0.00 in0.0 mm 0.00 in0.0 mm 0.00 in0.0 mm
07:56 AM 40.7°F4.8°C 28.7°F-1.8°C 62% 2.1 mph E3.4 kmh E 8.0 mph12.9 kmh 30.29 in1025.7 mb 0.00 in0.0 mm 0.00 in0.0 mm 0.00 in0.0 mm
07:57 AM 40.7°F4.8°C 28.3°F-2.1°C 61% 3.8 mph E6.1 kmh E 7.0 mph11.3 kmh 30.29 in1025.7 mb 0.00 in0.0 mm 0.00 in0.0 mm 0.00 in0.0 mm
07:58 AM 40.7°F4.8°C 28.3°F-2.1°C 61% 3.8 mph E6.1 kmh E 8.0 mph12.9 kmh 30.29 in1025.7 mb 0.00 in0.0 mm 0.00 in0.0 mm 0.00 in0.0 mm
07:59 AM 40.7°F4.8°C 28.3°F-2.1°C 61% 5.7 mph ENE9.2 kmh ENE 9.0 mph14.5 kmh 30.29 in1025.7 mb 0.00 in0.0 mm 0.00 in0.0 mm 0.00 in0.0 mm
08:00 AM 40.7°F4.8°C 28.7°F-1.8°C 62% 1.9 mph ENE3.1 kmh ENE 9.0 mph14.5 kmh 30.28 in1025.4 mb 0.00 in0.0 mm 0.00 in0.0 mm 0.00 in0.0 mm
08:01 AM 40.7°F4.8°C 28.7°F-1.8°C 62% 3.4 mph ENE5.5 kmh ENE 8.0 mph12.9 kmh 30.29 in1025.7 mb 0.00 in0.0 mm 0.00 in0.0 mm 0.00 in0.0 mm
08:02 AM 40.7°F4.8°C 28.7°F-1.8°C 62% 1.6 mph ENE2.6 kmh ENE 6.0 mph9.7 kmh 30.29 in1025.7 mb 0.00 in0.0 mm 0.00 in0.0 mm 0.00 in0.0 mm
08:03 AM 40.7°F4.8°C 28.7°F-1.8°C 62% 4.3 mph ENE6.9 kmh ENE 6.0 mph9.7 kmh 30.29 in1025.7 mb 0.00 in0.0 mm 0.00 in0.0 mm 0.00 in0.0 mm
08:04 AM 40.7°F4.8°C 28.7°F-1.8°C 62% 5.4 mph E8.7 kmh E 8.0 mph12.9 kmh 30.29 in1025.7 mb 0.00 in0.0 mm 0.00 in0.0 mm 0.00 in0.0 mm
08:05 AM 40.7°F4.8°C 28.7°F-1.8°C 62% 5.0 mph E8.0 kmh E 9.0 mph14.5 kmh 30.29 in1025.7 mb 0.00 in0.0 mm 0.00 in0.0 mm 0.00 in0.0 mm
08:06 AM 40.6°F4.8°C 28.6°F-1.9°C 62% 6.5 mph E10.5 kmh E 10.0 mph16.1 kmh 30.29 in1025.7 mb 0.00 in0.0 mm 0.00 in0.0 mm 0.00 in0.0 mm
08:07 AM 40.6°F4.8°C 28.6°F-1.9°C 62% 3.7 mph E6.0 kmh E 10.0 mph16.1 kmh 30.29 in1025.7 mb 0.00 in0.0 mm 0.00 in0.0 mm 0.00 in0.0 mm
08:08 AM 40.6°F4.8°C 28.6°F-1.9°C 62% 5.5 mph E8.9 kmh E 8.0 mph12.9 kmh 30.29 in1025.7 mb 0.00 in0.0 mm 0.00 in0.0 mm 0.00 in0.0 mm
08:09 AM 40.6°F4.8°C 28.6°F-1.9°C 62% 3.2 mph E5.1 kmh E 8.0 mph12.9 kmh 30.29 in1025.7 mb 0.00 in0.0 mm 0.00 in0.0 mm 0.00 in0.0 mm
08:10 AM 40.6°F4.8°C 28.6°F-1.9°C 62% 5.1 mph E8.2 kmh E 9.0 mph14.5 kmh 30.29 in1025.7 mb 0.00 in0.0 mm 0.00 in0.0 mm 0.00 in0.0 mm
08:11 AM 40.7°F4.8°C 28.7°F-1.8°C 62% 7.0 mph E11.3 kmh E 9.0 mph14.5 kmh 30.29 in1025.7 mb 0.00 in0.0 mm 0.00 in0.0 mm 0.00 in0.0 mm
08:12 AM 40.6°F4.8°C 28.6°F-1.9°C 62% 6.5 mph E10.5 kmh E 9.0 mph14.5 kmh 30.29 in1025.7 mb 0.00 in0.0 mm 0.00 in0.0 mm 0.00 in0.0 mm
08:13 AM 40.7°F4.8°C 28.7°F-1.8°C 62% 5.1 mph E8.2 kmh E 9.0 mph14.5 kmh 30.29 in1025.7 mb 0.00 in0.0 mm 0.00 in0.0 mm 0.00 in0.0 mm
08:14 AM 40.7°F4.8°C 28.7°F-1.8°C 62% 4.9 mph E7.9 kmh E 8.0 mph12.9 kmh 30.29 in1025.7 mb 0.00 in0.0 mm 0.00 in0.0 mm 0.00 in0.0 mm
08:15 AM 40.7°F4.8°C 28.7°F-1.8°C 62% 5.5 mph E8.9 kmh E 10.0 mph16.1 kmh 30.29 in1025.7 mb 0.00 in0.0 mm 0.00 in0.0 mm 0.00 in0.0 mm
08:16 AM 40.7°F4.8°C 28.7°F-1.8°C 62% 4.5 mph E7.2 kmh E 10.0 mph16.1 kmh 30.29 in1025.7 mb 0.00 in0.0 mm 0.00 in0.0 mm 0.00 in0.0 mm
08:17 AM 40.7°F4.8°C 28.7°F-1.8°C 62% 4.8 mph E7.7 kmh E 8.0 mph12.9 kmh 30.29 in1025.7 mb 0.00 in0.0 mm 0.00 in0.0 mm 0.00 in0.0 mm
08:18 AM 40.7°F4.8°C 28.7°F-1.8°C 62% 4.5 mph E7.2 kmh E 8.0 mph12.9 kmh 30.29 in1025.7 mb 0.00 in0.0 mm 0.00 in0.0 mm 0.00 in0.0 mm
08:19 AM 40.7°F4.8°C 28.7°F-1.8°C 62% 3.1 mph E5.0 kmh E 8.0 mph12.9 kmh 30.29 in1025.7 mb 0.00 in0.0 mm 0.00 in0.0 mm 0.00 in0.0 mm
08:20 AM 40.8°F4.9°C 28.8°F-1.8°C 62% 4.6 mph E7.4 kmh E 8.0 mph12.9 kmh 30.29 in1025.7 mb 0.00 in0.0 mm 0.00 in0.0 mm 0.00 in0.0 mm
08:21 AM 40.9°F4.9°C 28.9°F-1.7°C 62% 1.5 mph E2.4 kmh E 8.0 mph12.9 kmh 30.29 in1025.7 mb 0.00 in0.0 mm 0.00 in0.0 mm 0.00 in0.0 mm
08:22 AM 40.9°F4.9°C 28.9°F-1.7°C 62% 5.0 mph E8.0 kmh E 8.0 mph12.9 kmh 30.29 in1025.7 mb 0.00 in0.0 mm 0.00 in0.0 mm 0.00 in0.0 mm
08:23 AM 41.0°F5.0°C 29.0°F-1.7°C 62% 4.6 mph E7.4 kmh E 9.0 mph14.5 kmh 30.29 in1025.7 mb 0.00 in0.0 mm 0.00 in0.0 mm 0.00 in0.0 mm
08:24 AM 41.1°F5.1°C 29.1°F-1.6°C 62% 4.6 mph ENE7.4 kmh ENE 9.0 mph14.5 kmh 30.29 in1025.7 mb 0.00 in0.0 mm 0.00 in0.0 mm 0.00 in0.0 mm
08:25 AM 41.1°F5.1°C 29.1°F-1.6°C 62% 1.0 mph ENE1.6 kmh ENE 7.0 mph11.3 kmh 30.29 in1025.7 mb 0.00 in0.0 mm 0.00 in0.0 mm 0.00 in0.0 mm
08:26 AM 41.2°F5.1°C 29.2°F-1.6°C 62% 2.2 mph ENE3.5 kmh ENE 5.0 mph8.0 kmh 30.29 in1025.7 mb 0.00 in0.0 mm 0.00 in0.0 mm 0.00 in0.0 mm
08:27 AM 41.3°F5.2°C 29.3°F-1.5°C 62% 1.3 mph ENE2.1 kmh ENE 5.0 mph8.0 kmh 30.29 in1025.7 mb 0.00 in0.0 mm 0.00 in0.0 mm 0.00 in0.0 mm
08:28 AM 41.4°F5.2°C 29.4°F-1.4°C 62% 3.6 mph E5.8 kmh E 7.0 mph11.3 kmh 30.29 in1025.7 mb 0.00 in0.0 mm 0.00 in0.0 mm 0.00 in0.0 mm
08:29 AM 41.5°F5.3°C 29.5°F-1.4°C 62% 4.6 mph E7.4 kmh E 10.0 mph16.1 kmh 30.29 in1025.7 mb 0.00 in0.0 mm 0.00 in0.0 mm 0.00 in0.0 mm
08:30 AM 41.5°F5.3°C 29.1°F-1.6°C 61% 2.5 mph E4.0 kmh E 10.0 mph16.1 kmh 30.29 in1025.7 mb 0.00 in0.0 mm 0.00 in0.0 mm 0.00 in0.0 mm
08:31 AM 41.5°F5.3°C 29.1°F-1.6°C 61% 3.1 mph E5.0 kmh E 5.0 mph8.0 kmh 30.29 in1025.7 mb 0.00 in0.0 mm 0.00 in0.0 mm 0.00 in0.0 mm
08:32 AM 41.6°F5.3°C 29.6°F-1.3°C 62% 2.5 mph E4.0 kmh E 5.0 mph8.0 kmh 30.29 in1025.7 mb 0.00 in0.0 mm 0.00 in0.0 mm 0.00 in0.0 mm
08:33 AM 41.6°F5.3°C 29.6°F-1.3°C 62% 3.3 mph E5.3 kmh E 8.0 mph12.9 kmh 30.29 in1025.7 mb 0.00 in0.0 mm 0.00 in0.0 mm 0.00 in0.0 mm
08:34 AM 41.6°F5.3°C 29.6°F-1.3°C 62% 2.1 mph E3.4 kmh E 8.0 mph12.9 kmh 30.29 in1025.7 mb 0.00 in0.0 mm 0.00 in0.0 mm 0.00 in0.0 mm
08:35 AM 41.7°F5.4°C 29.7°F-1.3°C 62% 0.3 mph E0.5 kmh E 5.0 mph8.0 kmh 30.29 in1025.7 mb 0.00 in0.0 mm 0.00 in0.0 mm 0.00 in0.0 mm
08:36 AM 41.8°F5.4°C 29.4°F-1.4°C 61% 0.7 mph E1.1 kmh E 3.0 mph4.8 kmh 30.29 in1025.7 mb 0.00 in0.0 mm 0.00 in0.0 mm 0.00 in0.0 mm
08:37 AM 41.8°F5.4°C 29.4°F-1.4°C 61% 2.4 mph E3.9 kmh E 5.0 mph8.0 kmh 30.29 in1025.7 mb 0.00 in0.0 mm 0.00 in0.0 mm 0.00 in0.0 mm
08:38 AM 41.9°F5.5°C 29.4°F-1.4°C 61% 1.5 mph E2.4 kmh E 7.0 mph11.3 kmh 30.29 in1025.7 mb 0.00 in0.0 mm 0.00 in0.0 mm 0.00 in0.0 mm
08:39 AM 42.0°F5.6°C 29.5°F-1.4°C 61% 4.8 mph ENE7.7 kmh ENE 9.0 mph14.5 kmh 30.29 in1025.7 mb 0.00 in0.0 mm 0.00 in0.0 mm 0.00 in0.0 mm
08:40 AM 42.0°F5.6°C 29.5°F-1.4°C 61% 3.2 mph ENE5.1 kmh ENE 9.0 mph14.5 kmh 30.29 in1025.7 mb 0.00 in0.0 mm 0.00 in0.0 mm 0.00 in0.0 mm
08:41 AM 42.1°F5.6°C 29.6°F-1.3°C 61% 1.8 mph ENE2.9 kmh ENE 5.0 mph8.0 kmh 30.29 in1025.7 mb 0.00 in0.0 mm 0.00 in0.0 mm 0.00 in0.0 mm
08:42 AM 42.2°F5.7°C 29.7°F-1.3°C 61% 4.1 mph ENE6.6 kmh ENE 6.0 mph9.7 kmh 30.29 in1025.7 mb 0.00 in0.0 mm 0.00 in0.0 mm 0.00 in0.0 mm
08:43 AM 42.2°F5.7°C 29.7°F-1.3°C 61% 2.7 mph ENE4.3 kmh ENE 6.0 mph9.7 kmh 30.29 in1025.7 mb 0.00 in0.0 mm 0.00 in0.0 mm 0.00 in0.0 mm
08:44 AM 42.2°F5.7°C 29.7°F-1.3°C 61% 2.7 mph ENE4.3 kmh ENE 6.0 mph9.7 kmh 30.29 in1025.7 mb 0.00 in0.0 mm 0.00 in0.0 mm 0.00 in0.0 mm
08:45 AM 42.3°F5.7°C 29.8°F-1.2°C 61% 4.2 mph ENE6.8 kmh ENE 11.0 mph17.7 kmh 30.29 in1025.7 mb 0.00 in0.0 mm 0.00 in0.0 mm 0.00 in0.0 mm
08:46 AM 42.3°F5.7°C 29.8°F-1.2°C 61% 5.5 mph ENE8.9 kmh ENE 11.0 mph17.7 kmh 30.29 in1025.7 mb 0.00 in0.0 mm 0.00 in0.0 mm 0.00 in0.0 mm
08:47 AM 42.3°F5.7°C 29.8°F-1.2°C 61% 4.2 mph ENE6.8 kmh ENE 9.0 mph14.5 kmh 30.29 in1025.7 mb 0.00 in0.0 mm 0.00 in0.0 mm 0.00 in0.0 mm
08:48 AM 42.2°F5.7°C 29.7°F-1.3°C 61% 4.5 mph ENE7.2 kmh ENE 9.0 mph14.5 kmh 30.29 in1025.7 mb 0.00 in0.0 mm 0.00 in0.0 mm 0.00 in0.0 mm
08:49 AM 42.2°F5.7°C 29.7°F-1.3°C 61% 2.4 mph E3.9 kmh E 9.0 mph14.5 kmh 30.29 in1025.7 mb 0.00 in0.0 mm 0.00 in0.0 mm 0.00 in0.0 mm
08:50 AM 42.3°F5.7°C 29.8°F-1.2°C 61% 3.5 mph E5.6 kmh E 7.0 mph11.3 kmh 30.29 in1025.7 mb 0.00 in0.0 mm 0.00 in0.0 mm 0.00 in0.0 mm
08:51 AM 42.3°F5.7°C 29.8°F-1.2°C 61% 5.8 mph E9.3 kmh E 10.0 mph16.1 kmh 30.29 in1025.7 mb 0.00 in0.0 mm 0.00 in0.0 mm 0.00 in0.0 mm
08:52 AM 42.3°F5.7°C 29.8°F-1.2°C 61% 3.8 mph E6.1 kmh E 12.0 mph19.3 kmh 30.29 in1025.7 mb 0.00 in0.0 mm 0.00 in0.0 mm 0.00 in0.0 mm
08:53 AM 42.4°F5.8°C 29.9°F-1.2°C 61% 3.0 mph E4.8 kmh E 12.0 mph19.3 kmh 30.29 in1025.7 mb 0.00 in0.0 mm 0.00 in0.0 mm 0.00 in0.0 mm
08:54 AM 42.4°F5.8°C 29.9°F-1.2°C 61% 3.6 mph E5.8 kmh E 8.0 mph12.9 kmh 30.29 in1025.7 mb 0.00 in0.0 mm 0.00 in0.0 mm 0.00 in0.0 mm
08:55 AM 42.4°F5.8°C 29.9°F-1.2°C 61% 5.4 mph ENE8.7 kmh ENE 8.0 mph12.9 kmh 30.29 in1025.7 mb 0.00 in0.0 mm 0.00 in0.0 mm 0.00 in0.0 mm
08:56 AM 42.5°F5.8°C 30.0°F-1.1°C 61% 4.3 mph ENE6.9 kmh ENE 8.0 mph12.9 kmh 30.29 in1025.7 mb 0.00 in0.0 mm 0.00 in0.0 mm 0.00 in0.0 mm
08:57 AM 42.5°F5.8°C 30.0°F-1.1°C 61% 4.8 mph ENE7.7 kmh ENE 8.0 mph12.9 kmh 30.29 in1025.7 mb 0.00 in0.0 mm 0.00 in0.0 mm 0.00 in0.0 mm
08:58 AM 42.5°F5.8°C 30.0°F-1.1°C 61% 1.1 mph ENE1.8 kmh ENE 8.0 mph12.9 kmh 30.29 in1025.7 mb 0.00 in0.0 mm 0.00 in0.0 mm 0.00 in0.0 mm
08:59 AM 42.6°F5.9°C 30.1°F-1.1°C 61% 1.0 mph ENE1.6 kmh ENE 3.0 mph4.8 kmh 30.29 in1025.7 mb 0.00 in0.0 mm 0.00 in0.0 mm 0.00 in0.0 mm
09:00 AM 42.7°F5.9°C 30.2°F-1.0°C 61% 1.9 mph ENE3.1 kmh ENE 4.0 mph6.4 kmh 30.29 in1025.7 mb 0.00 in0.0 mm 0.00 in0.0 mm 0.00 in0.0 mm
09:01 AM 42.7°F5.9°C 30.2°F-1.0°C 61% 1.3 mph ENE2.1 kmh ENE 4.0 mph6.4 kmh 30.29 in1025.7 mb 0.00 in0.0 mm 0.00 in0.0 mm 0.00 in0.0 mm
09:02 AM 42.8°F6.0°C 30.3°F-0.9°C 61% 5.6 mph E9.0 kmh E 11.0 mph17.7 kmh 30.29 in1025.7 mb 0.00 in0.0 mm 0.00 in0.0 mm 0.00 in0.0 mm
09:03 AM 42.8°F6.0°C 29.9°F-1.2°C 60% 8.2 mph ENE13.2 kmh ENE 11.0 mph17.7 kmh 30.29 in1025.7 mb 0.00 in0.0 mm 0.00 in0.0 mm 0.00 in0.0 mm
09:04 AM 42.8°F6.0°C 29.9°F-1.2°C 60% 6.7 mph E10.8 kmh E 11.0 mph17.7 kmh 30.29 in1025.7 mb 0.00 in0.0 mm 0.00 in0.0 mm 0.00 in0.0 mm
09:05 AM 42.7°F5.9°C 30.2°F-1.0°C 61% 1.8 mph E2.9 kmh E 9.0 mph14.5 kmh 30.29 in1025.7 mb 0.00 in0.0 mm 0.00 in0.0 mm 0.00 in0.0 mm
09:06 AM 42.8°F6.0°C 30.3°F-0.9°C 61% 4.0 mph E6.4 kmh E 9.0 mph14.5 kmh 30.29 in1025.7 mb 0.00 in0.0 mm 0.00 in0.0 mm 0.00 in0.0 mm
09:07 AM 42.9°F6.1°C 30.4°F-0.9°C 61% 3.5 mph E5.6 kmh E 9.0 mph14.5 kmh 30.29 in1025.7 mb 0.00 in0.0 mm 0.00 in0.0 mm 0.00 in0.0 mm
09:08 AM 43.0°F6.1°C 30.5°F-0.8°C 61% 1.9 mph E3.1 kmh E 7.0 mph11.3 kmh 30.29 in1025.7 mb 0.00 in0.0 mm 0.00 in0.0 mm 0.00 in0.0 mm
09:09 AM 43.1°F6.2°C 30.6°F-0.8°C 61% 3.7 mph E6.0 kmh E 8.0 mph12.9 kmh 30.29 in1025.7 mb 0.00 in0.0 mm 0.00 in0.0 mm 0.00 in0.0 mm
09:10 AM 43.2°F6.2°C 30.7°F-0.7°C 61% 4.1 mph ENE6.6 kmh ENE 8.0 mph12.9 kmh 30.29 in1025.7 mb 0.00 in0.0 mm 0.00 in0.0 mm 0.00 in0.0 mm
09:11 AM 43.3°F6.3°C 30.8°F-0.7°C 61% 2.0 mph ENE3.2 kmh ENE 3.0 mph4.8 kmh 30.29 in1025.7 mb 0.00 in0.0 mm 0.00 in0.0 mm 0.00 in0.0 mm
09:12 AM 43.3°F6.3°C 30.8°F-0.7°C 61% 3.2 mph ENE5.1 kmh ENE 4.0 mph6.4 kmh 30.29 in1025.7 mb 0.00 in0.0 mm 0.00 in0.0 mm 0.00 in0.0 mm
09:13 AM 43.4°F6.3°C 30.9°F-0.6°C 61% 1.1 mph ENE1.8 kmh ENE 4.0 mph6.4 kmh 30.29 in1025.7 mb 0.00 in0.0 mm 0.00 in0.0 mm 0.00 in0.0 mm
09:14 AM 43.5°F6.4°C 31.0°F-0.6°C 61% 2.5 mph ENE4.0 kmh ENE 5.0 mph8.0 kmh 30.29 in1025.7 mb 0.00 in0.0 mm 0.00 in0.0 mm 0.00 in0.0 mm
09:15 AM 43.6°F6.4°C 30.6°F-0.8°C 60% 3.1 mph ENE5.0 kmh ENE 8.0 mph12.9 kmh 30.29 in1025.7 mb 0.00 in0.0 mm 0.00 in0.0 mm 0.00 in0.0 mm
09:16 AM 43.7°F6.5°C 30.7°F-0.7°C 60% 5.0 mph ENE8.0 kmh ENE 8.0 mph12.9 kmh 30.29 in1025.7 mb 0.00 in0.0 mm 0.00 in0.0 mm 0.00 in0.0 mm
09:17 AM 43.7°F6.5°C 30.7°F-0.7°C 60% 3.3 mph ENE5.3 kmh ENE 8.0 mph12.9 kmh 30.29 in1025.7 mb 0.00 in0.0 mm 0.00 in0.0 mm 0.00 in0.0 mm
09:18 AM 43.7°F6.5°C 30.7°F-0.7°C 60% 2.0 mph ENE3.2 kmh ENE 8.0 mph12.9 kmh 30.29 in1025.7 mb 0.00 in0.0 mm 0.00 in0.0 mm 0.00 in0.0 mm
09:19 AM 43.8°F6.6°C 30.8°F-0.7°C 60% 1.7 mph ENE2.7 kmh ENE 8.0 mph12.9 kmh 30.29 in1025.7 mb 0.00 in0.0 mm 0.00 in0.0 mm 0.00 in0.0 mm
09:20 AM 43.9°F6.6°C 30.9°F-0.6°C 60% 3.8 mph E6.1 kmh E 9.0 mph14.5 kmh 30.29 in1025.7 mb 0.00 in0.0 mm 0.00 in0.0 mm 0.00 in0.0 mm
09:21 AM 44.0°F6.7°C 31.0°F-0.6°C 60% 6.9 mph E11.1 kmh E 10.0 mph16.1 kmh 30.29 in1025.7 mb 0.00 in0.0 mm 0.00 in0.0 mm 0.00 in0.0 mm
09:22 AM 43.9°F6.6°C 30.9°F-0.6°C 60% 4.9 mph E7.9 kmh E 10.0 mph16.1 kmh 30.29 in1025.7 mb 0.00 in0.0 mm 0.00 in0.0 mm 0.00 in0.0 mm
09:23 AM 43.9°F6.6°C 30.9°F-0.6°C 60% 1.9 mph E3.1 kmh E 8.0 mph12.9 kmh 30.29 in1025.7 mb 0.00 in0.0 mm 0.00 in0.0 mm 0.00 in0.0 mm
09:24 AM 44.0°F6.7°C 31.0°F-0.6°C 60% 1.7 mph E2.7 kmh E 5.0 mph8.0 kmh 30.29 in1025.7 mb 0.00 in0.0 mm 0.00 in0.0 mm 0.00 in0.0 mm
09:25 AM 43.9°F6.6°C 30.9°F-0.6°C 60% 4.5 mph E7.2 kmh E 8.0 mph12.9 kmh 30.29 in1025.7 mb 0.00 in0.0 mm 0.00 in0.0 mm 0.00 in0.0 mm
09:26 AM 43.9°F6.6°C 30.9°F-0.6°C 60% 2.0 mph E3.2 kmh E 8.0 mph12.9 kmh 30.29 in1025.7 mb 0.00 in0.0 mm 0.00 in0.0 mm 0.00 in0.0 mm
09:27 AM 43.9°F6.6°C 30.9°F-0.6°C 60% 2.9 mph E4.7 kmh E 7.0 mph11.3 kmh 30.29 in1025.7 mb 0.00 in0.0 mm 0.00 in0.0 mm 0.00 in0.0 mm
09:28 AM 43.9°F6.6°C 30.9°F-0.6°C 60% 5.0 mph ENE8.0 kmh ENE 9.0 mph14.5 kmh 30.29 in1025.7 mb 0.00 in0.0 mm 0.00 in0.0 mm 0.00 in0.0 mm
09:29 AM 43.9°F6.6°C 30.9°F-0.6°C 60% 3.0 mph E4.8 kmh E 9.0 mph14.5 kmh 30.29 in1025.7 mb 0.00 in0.0 mm 0.00 in0.0 mm 0.00 in0.0 mm
09:30 AM 43.9°F6.6°C 30.9°F-0.6°C 60% 4.1 mph E6.6 kmh E 7.0 mph11.3 kmh 30.29 in1025.7 mb 0.00 in0.0 mm 0.00 in0.0 mm 0.00 in0.0 mm
09:31 AM 43.9°F6.6°C 30.9°F-0.6°C 60% 2.9 mph E4.7 kmh E 7.0 mph11.3 kmh 30.29 in1025.7 mb 0.00 in0.0 mm 0.00 in0.0 mm 0.00 in0.0 mm
09:32 AM 43.9°F6.6°C 30.9°F-0.6°C 60% 5.1 mph E8.2 kmh E 8.0 mph12.9 kmh 30.29 in1025.7 mb 0.00 in0.0 mm 0.00 in0.0 mm 0.00 in0.0 mm
09:33 AM 43.9°F6.6°C 30.9°F-0.6°C 60% 4.1 mph E6.6 kmh E 8.0 mph12.9 kmh 30.29 in1025.7 mb 0.00 in0.0 mm 0.00 in0.0 mm 0.00 in0.0 mm
09:34 AM 43.9°F6.6°C 30.9°F-0.6°C 60% 2.1 mph E3.4 kmh E 8.0 mph12.9 kmh 30.29 in1025.7 mb 0.00 in0.0 mm 0.00 in0.0 mm 0.00 in0.0 mm
09:35 AM 43.9°F6.6°C 30.9°F-0.6°C 60% 7.6 mph E12.2 kmh E 12.0 mph19.3 kmh 30.29 in1025.7 mb 0.00 in0.0 mm 0.00 in0.0 mm 0.00 in0.0 mm
09:36 AM 43.8°F6.6°C 30.8°F-0.7°C 60% 9.3 mph E15.0 kmh E 12.0 mph19.3 kmh 30.29 in1025.7 mb 0.00 in0.0 mm 0.00 in0.0 mm 0.00 in0.0 mm
09:37 AM 43.7°F6.5°C 30.7°F-0.7°C 60% 6.6 mph E10.6 kmh E 12.0 mph19.3 kmh 30.29 in1025.7 mb 0.00 in0.0 mm 0.00 in0.0 mm 0.00 in0.0 mm
09:38 AM 43.7°F6.5°C 31.1°F-0.5°C 61% 4.8 mph E7.7 kmh E 10.0 mph16.1 kmh 30.29 in1025.7 mb 0.00 in0.0 mm 0.00 in0.0 mm 0.00 in0.0 mm
09:39 AM 43.7°F6.5°C 31.1°F-0.5°C 61% 3.5 mph E5.6 kmh E 10.0 mph16.1 kmh 30.29 in1025.7 mb 0.00 in0.0 mm 0.00 in0.0 mm 0.00 in0.0 mm
09:40 AM 43.7°F6.5°C 31.1°F-0.5°C 61% 4.6 mph E7.4 kmh E 8.0 mph12.9 kmh 30.29 in1025.7 mb 0.00 in0.0 mm 0.00 in0.0 mm 0.00 in0.0 mm
09:41 AM 43.8°F6.6°C 31.2°F-0.4°C 61% 2.5 mph E4.0 kmh E 8.0 mph12.9 kmh 30.29 in1025.7 mb 0.00 in0.0 mm 0.00 in0.0 mm 0.00 in0.0 mm
09:42 AM 43.9°F6.6°C 30.9°F-0.6°C 60% 5.1 mph E8.2 kmh E 8.0 mph12.9 kmh 30.29 in1025.7 mb 0.00 in0.0 mm 0.00 in0.0 mm 0.00 in0.0 mm
09:43 AM 44.0°F6.7°C 31.0°F-0.6°C 60% 3.2 mph E5.1 kmh E 8.0 mph12.9 kmh 30.29 in1025.7 mb 0.00 in0.0 mm 0.00 in0.0 mm 0.00 in0.0 mm
09:44 AM 44.0°F6.7°C 31.0°F-0.6°C 60% 4.4 mph E7.1 kmh E 8.0 mph12.9 kmh 30.29 in1025.7 mb 0.00 in0.0 mm 0.00 in0.0 mm 0.00 in0.0 mm
09:45 AM 44.1°F6.7°C 31.1°F-0.5°C 60% 1.1 mph E1.8 kmh E 8.0 mph12.9 kmh 30.29 in1025.7 mb 0.00 in0.0 mm 0.00 in0.0 mm 0.00 in0.0 mm
09:46 AM 44.3°F6.8°C 31.3°F-0.4°C 60% 0.6 mph E1.0 kmh E 3.0 mph4.8 kmh 30.29 in1025.7 mb 0.00 in0.0 mm 0.00 in0.0 mm 0.00 in0.0 mm
09:47 AM 44.5°F6.9°C 31.5°F-0.3°C 60% 8.4 mph E13.5 kmh E 13.0 mph20.9 kmh 30.29 in1025.7 mb 0.00 in0.0 mm 0.00 in0.0 mm 0.00 in0.0 mm
09:48 AM 44.6°F7.0°C 31.2°F-0.4°C 59% 8.4 mph E13.5 kmh E 13.0 mph20.9 kmh 30.29 in1025.7 mb 0.00 in0.0 mm 0.00 in0.0 mm 0.00 in0.0 mm
09:49 AM 44.5°F6.9°C 31.1°F-0.5°C 59% 8.3 mph E13.4 kmh E 12.0 mph19.3 kmh 30.29 in1025.7 mb 0.00 in0.0 mm 0.00 in0.0 mm 0.00 in0.0 mm
09:50 AM 44.5°F6.9°C 31.1°F-0.5°C 59% 5.5 mph E8.9 kmh E 11.0 mph17.7 kmh 30.29 in1025.7 mb 0.00 in0.0 mm 0.00 in0.0 mm 0.00 in0.0 mm
09:51 AM 44.5°F6.9°C 31.1°F-0.5°C 59% 5.0 mph E8.0 kmh E 11.0 mph17.7 kmh 30.29 in1025.7 mb 0.00 in0.0 mm 0.00 in0.0 mm 0.00 in0.0 mm
09:52 AM 44.5°F6.9°C 31.1°F-0.5°C 59% 3.9 mph E6.3 kmh E 11.0 mph17.7 kmh 30.29 in1025.7 mb 0.00 in0.0 mm 0.00 in0.0 mm 0.00 in0.0 mm
09:53 AM 44.6°F7.0°C 31.2°F-0.4°C 59% 2.7 mph E4.3 kmh E 10.0 mph16.1 kmh 30.29 in1025.7 mb 0.00 in0.0 mm 0.00 in0.0 mm 0.00 in0.0 mm
09:54 AM 44.7°F7.1°C 31.3°F-0.4°C 59% 4.1 mph E6.6 kmh E 7.0 mph11.3 kmh 30.29 in1025.7 mb 0.00 in0.0 mm 0.00 in0.0 mm 0.00 in0.0 mm
09:55 AM 44.8°F7.1°C 31.4°F-0.3°C 59% 8.1 mph E13.0 kmh E 11.0 mph17.7 kmh 30.29 in1025.7 mb 0.00 in0.0 mm 0.00 in0.0 mm 0.00 in0.0 mm
09:56 AM 44.8°F7.1°C 30.9°F-0.6°C 58% 6.9 mph E11.1 kmh E 11.0 mph17.7 kmh 30.29 in1025.7 mb 0.00 in0.0 mm 0.00 in0.0 mm 0.00 in0.0 mm
09:57 AM 44.8°F7.1°C 30.9°F-0.6°C 58% 8.2 mph E13.2 kmh E 13.0 mph20.9 kmh 30.29 in1025.7 mb 0.00 in0.0 mm 0.00 in0.0 mm 0.00 in0.0 mm
09:58 AM 44.8°F7.1°C 30.9°F-0.6°C 58% 8.4 mph E13.5 kmh E 13.0 mph20.9 kmh 30.29 in1025.7 mb 0.00 in0.0 mm 0.00 in0.0 mm 0.00 in0.0 mm
09:59 AM 44.8°F7.1°C 30.9°F-0.6°C 58% 10.5 mph E16.9 kmh E 13.0 mph20.9 kmh 30.29 in1025.7 mb 0.00 in0.0 mm 0.00 in0.0 mm 0.00 in0.0 mm
10:00 AM 44.7°F7.1°C 32.1°F0.1°C 61% 5.0 mph E8.0 kmh E 13.0 mph20.9 kmh 30.29 in1025.7 mb 0.00 in0.0 mm 0.00 in0.0 mm 0.00 in0.0 mm
10:01 AM 44.8°F7.1°C 30.9°F-0.6°C 58% 6.1 mph E9.8 kmh E 13.0 mph20.9 kmh 30.28 in1025.4 mb 0.00 in0.0 mm 0.00 in0.0 mm 0.00 in0.0 mm
10:02 AM 44.9°F7.2°C 31.0°F-0.6°C 58% 4.4 mph E7.1 kmh E 13.0 mph20.9 kmh 30.29 in1025.7 mb 0.00 in0.0 mm 0.00 in0.0 mm 0.00 in0.0 mm
10:03 AM 44.9°F7.2°C 31.0°F-0.6°C 58% 5.7 mph E9.2 kmh E 12.0 mph19.3 kmh 30.29 in1025.7 mb 0.00 in0.0 mm 0.00 in0.0 mm 0.00 in0.0 mm
10:04 AM 44.9°F7.2°C 31.0°F-0.6°C 58% 2.8 mph E4.5 kmh E 12.0 mph19.3 kmh 30.29 in1025.7 mb 0.00 in0.0 mm 0.00 in0.0 mm 0.00 in0.0 mm
10:05 AM 45.0°F7.2°C 31.1°F-0.5°C 58% 4.4 mph E7.1 kmh E 10.0 mph16.1 kmh 30.29 in1025.7 mb 0.00 in0.0 mm 0.00 in0.0 mm 0.00 in0.0 mm
10:06 AM 45.0°F7.2°C 31.1°F-0.5°C 58% 3.2 mph ENE5.1 kmh ENE 10.0 mph16.1 kmh 30.29 in1025.7 mb 0.00 in0.0 mm 0.00 in0.0 mm 0.00 in0.0 mm
10:07 AM 45.2°F7.3°C 31.3°F-0.4°C 58% 4.7 mph E7.6 kmh E 10.0 mph16.1 kmh 30.29 in1025.7 mb 0.00 in0.0 mm 0.00 in0.0 mm 0.00 in0.0 mm
10:08 AM 45.3°F7.4°C 31.4°F-0.3°C 58% 4.8 mph E7.7 kmh E 10.0 mph16.1 kmh 30.29 in1025.7 mb 0.00 in0.0 mm 0.00 in0.0 mm 0.00 in0.0 mm
10:09 AM 45.4°F7.4°C 31.1°F-0.5°C 57% 5.6 mph ENE9.0 kmh ENE 10.0 mph16.1 kmh 30.29 in1025.7 mb 0.00 in0.0 mm 0.00 in0.0 mm 0.00 in0.0 mm
10:10 AM 45.5°F7.5°C 31.2°F-0.4°C 57% 3.7 mph ENE6.0 kmh ENE 10.0 mph16.1 kmh 30.29 in1025.7 mb 0.00 in0.0 mm 0.00 in0.0 mm 0.00 in0.0 mm
10:11 AM 45.5°F7.5°C 31.2°F-0.4°C 57% 8.3 mph E13.4 kmh E 14.0 mph22.5 kmh 30.29 in1025.7 mb 0.00 in0.0 mm 0.00 in0.0 mm 0.00 in0.0 mm
10:12 AM 45.4°F7.4°C 31.1°F-0.5°C 57% 9.4 mph E15.1 kmh E 14.0 mph22.5 kmh 30.29 in1025.7 mb 0.00 in0.0 mm 0.00 in0.0 mm 0.00 in0.0 mm
10:13 AM 45.4°F7.4°C 31.1°F-0.5°C 57% 8.0 mph E12.9 kmh E 12.0 mph19.3 kmh 30.29 in1025.7 mb 0.00 in0.0 mm 0.00 in0.0 mm 0.00 in0.0 mm
10:14 AM 45.4°F7.4°C 31.1°F-0.5°C 57% 4.7 mph E7.6 kmh E 12.0 mph19.3 kmh 30.29 in1025.7 mb 0.00 in0.0 mm 0.00 in0.0 mm 0.00 in0.0 mm
10:15 AM 45.4°F7.4°C 31.1°F-0.5°C 57% 4.4 mph E7.1 kmh E 10.0 mph16.1 kmh 30.29 in1025.7 mb 0.00 in0.0 mm 0.00 in0.0 mm 0.00 in0.0 mm
10:16 AM 45.5°F7.5°C 31.2°F-0.4°C 57% 2.6 mph E4.2 kmh E 8.0 mph12.9 kmh 30.29 in1025.7 mb 0.00 in0.0 mm 0.00 in0.0 mm 0.00 in0.0 mm
10:17 AM 45.6°F7.6°C 31.3°F-0.4°C 57% 3.1 mph E5.0 kmh E 7.0 mph11.3 kmh 30.28 in1025.4 mb 0.00 in0.0 mm 0.00 in0.0 mm 0.00 in0.0 mm
10:18 AM 45.7°F7.6°C 31.8°F-0.1°C 58% 0.9 mph E1.4 kmh E 7.0 mph11.3 kmh 30.28 in1025.4 mb 0.00 in0.0 mm 0.00 in0.0 mm 0.00 in0.0 mm
10:19 AM 45.9°F7.7°C 32.0°F0.0°C 58% 5.1 mph E8.2 kmh E 10.0 mph16.1 kmh 30.28 in1025.4 mb 0.00 in0.0 mm 0.00 in0.0 mm 0.00 in0.0 mm
10:20 AM 46.0°F7.8°C 31.6°F-0.2°C 57% 5.7 mph E9.2 kmh E 10.0 mph16.1 kmh 30.28 in1025.4 mb 0.00 in0.0 mm 0.00 in0.0 mm 0.00 in0.0 mm
10:21 AM 46.1°F7.8°C 31.3°F-0.4°C 56% 6.6 mph NE10.6 kmh NE 10.0 mph16.1 kmh 30.28 in1025.4 mb 0.00 in0.0 mm 0.00 in0.0 mm 0.00 in0.0 mm
10:22 AM 46.1°F7.8°C 31.3°F-0.4°C 56% 4.0 mph ENE6.4 kmh ENE 10.0 mph16.1 kmh 30.28 in1025.4 mb 0.00 in0.0 mm 0.00 in0.0 mm 0.00 in0.0 mm
10:23 AM 46.1°F7.8°C 31.7°F-0.2°C 57% 2.7 mph ENE4.3 kmh ENE 8.0 mph12.9 kmh 30.28 in1025.4 mb 0.00 in0.0 mm 0.00 in0.0 mm 0.00 in0.0 mm
10:24 AM 46.2°F7.9°C 31.8°F-0.1°C 57% 4.3 mph E6.9 kmh E 12.0 mph19.3 kmh 30.28 in1025.4 mb 0.00 in0.0 mm 0.00 in0.0 mm 0.00 in0.0 mm
10:25 AM 46.2°F7.9°C 31.4°F-0.3°C 56% 5.7 mph E9.2 kmh E 12.0 mph19.3 kmh 30.28 in1025.4 mb 0.00 in0.0 mm 0.00 in0.0 mm 0.00 in0.0 mm
10:26 AM 46.2°F7.9°C 31.4°F-0.3°C 56% 5.0 mph E8.0 kmh E 10.0 mph16.1 kmh 30.28 in1025.4 mb 0.00 in0.0 mm 0.00 in0.0 mm 0.00 in0.0 mm
10:27 AM 46.3°F7.9°C 31.9°F-0.1°C 57% 3.4 mph E5.5 kmh E 10.0 mph16.1 kmh 30.28 in1025.4 mb 0.00 in0.0 mm 0.00 in0.0 mm 0.00 in0.0 mm
10:28 AM 46.4°F8.0°C 32.0°F0.0°C 57% 4.3 mph E6.9 kmh E 10.0 mph16.1 kmh 30.28 in1025.4 mb 0.00 in0.0 mm 0.00 in0.0 mm 0.00 in0.0 mm
10:29 AM 46.5°F8.1°C 32.1°F0.1°C 57% 2.6 mph E4.2 kmh E 8.0 mph12.9 kmh 30.28 in1025.4 mb 0.00 in0.0 mm 0.00 in0.0 mm 0.00 in0.0 mm
10:30 AM 46.6°F8.1°C 32.2°F0.1°C 57% 5.9 mph E9.5 kmh E 9.0 mph14.5 kmh 30.28 in1025.4 mb 0.00 in0.0 mm 0.00 in0.0 mm 0.00 in0.0 mm
10:31 AM 46.6°F8.1°C 31.8°F-0.1°C 56% 8.4 mph E13.5 kmh E 12.0 mph19.3 kmh 30.28 in1025.4 mb 0.00 in0.0 mm 0.00 in0.0 mm 0.00 in0.0 mm
10:32 AM 46.6°F8.1°C 31.8°F-0.1°C 56% 6.0 mph ENE9.7 kmh ENE 12.0 mph19.3 kmh 30.28 in1025.4 mb 0.00 in0.0 mm 0.00 in0.0 mm 0.00 in0.0 mm
10:33 AM 46.5°F8.1°C 31.7°F-0.2°C 56% 6.8 mph ENE10.9 kmh ENE 12.0 mph19.3 kmh 30.28 in1025.4 mb 0.00 in0.0 mm 0.00 in0.0 mm 0.00 in0.0 mm
10:34 AM 46.4°F8.0°C 31.6°F-0.2°C 56% 10.1 mph E16.3 kmh E 16.0 mph25.7 kmh 30.28 in1025.4 mb 0.00 in0.0 mm 0.00 in0.0 mm 0.00 in0.0 mm
10:35 AM 46.3°F7.9°C 31.5°F-0.3°C 56% 8.3 mph E13.4 kmh E 16.0 mph25.7 kmh 30.28 in1025.4 mb 0.00 in0.0 mm 0.00 in0.0 mm 0.00 in0.0 mm
10:36 AM 46.3°F7.9°C 31.5°F-0.3°C 56% 7.9 mph E12.7 kmh E 16.0 mph25.7 kmh 30.28 in1025.4 mb 0.00 in0.0 mm 0.00 in0.0 mm 0.00 in0.0 mm
10:37 AM 46.2°F7.9°C 31.4°F-0.3°C 56% 8.5 mph E13.7 kmh E 12.0 mph19.3 kmh 30.28 in1025.4 mb 0.00 in0.0 mm 0.00 in0.0 mm 0.00 in0.0 mm
10:38 AM 46.1°F7.8°C 31.3°F-0.4°C 56% 6.4 mph E10.3 kmh E 12.0 mph19.3 kmh 30.28 in1025.4 mb 0.00 in0.0 mm 0.00 in0.0 mm 0.00 in0.0 mm
10:39 AM 46.2°F7.9°C 31.8°F-0.1°C 57% 2.2 mph E3.5 kmh E 12.0 mph19.3 kmh 30.28 in1025.4 mb 0.00 in0.0 mm 0.00 in0.0 mm 0.00 in0.0 mm
10:40 AM 46.2°F7.9°C 31.8°F-0.1°C 57% 2.7 mph E4.3 kmh E 5.0 mph8.0 kmh 30.28 in1025.4 mb 0.00 in0.0 mm 0.00 in0.0 mm 0.00 in0.0 mm
10:41 AM 46.3°F7.9°C 31.9°F-0.1°C 57% 4.9 mph E7.9 kmh E 12.0 mph19.3 kmh 30.28 in1025.4 mb 0.00 in0.0 mm 0.00 in0.0 mm 0.00 in0.0 mm
10:42 AM 46.4°F8.0°C 32.0°F0.0°C 57% 6.4 mph E10.3 kmh E 12.0 mph19.3 kmh 30.28 in1025.4 mb 0.00 in0.0 mm 0.00 in0.0 mm 0.00 in0.0 mm
10:43 AM 46.4°F8.0°C 32.0°F0.0°C 57% 4.9 mph E7.9 kmh E 10.0 mph16.1 kmh 30.28 in1025.4 mb 0.00 in0.0 mm 0.00 in0.0 mm 0.00 in0.0 mm
10:44 AM 46.5°F8.1°C 32.1°F0.1°C 57% 3.1 mph E5.0 kmh E 10.0 mph16.1 kmh 30.28 in1025.4 mb 0.00 in0.0 mm 0.00 in0.0 mm 0.00 in0.0 mm
10:45 AM 46.6°F8.1°C 32.2°F0.1°C 57% 4.0 mph E6.4 kmh E 10.0 mph16.1 kmh 30.28 in1025.4 mb 0.00 in0.0 mm 0.00 in0.0 mm 0.00 in0.0 mm
10:46 AM 46.7°F8.2°C 32.3°F0.2°C 57% 8.5 mph E13.7 kmh E 12.0 mph19.3 kmh 30.28 in1025.4 mb 0.00 in0.0 mm 0.00 in0.0 mm 0.00 in0.0 mm
10:47 AM 46.8°F8.2°C 32.4°F0.2°C 57% 5.5 mph ENE8.9 kmh ENE 12.0 mph19.3 kmh 30.28 in1025.4 mb 0.00 in0.0 mm 0.00 in0.0 mm 0.00 in0.0 mm
10:48 AM 46.9°F8.3°C 32.5°F0.3°C 57% 7.7 mph ENE12.4 kmh ENE 11.0 mph17.7 kmh 30.28 in1025.4 mb 0.00 in0.0 mm 0.00 in0.0 mm 0.00 in0.0 mm
10:49 AM 46.9°F8.3°C 32.0°F0.0°C 56% 9.8 mph E15.8 kmh E 16.0 mph25.7 kmh 30.28 in1025.4 mb 0.00 in0.0 mm 0.00 in0.0 mm 0.00 in0.0 mm
10:50 AM 47.0°F8.3°C 32.1°F0.1°C 56% 9.7 mph E15.6 kmh E 16.0 mph25.7 kmh 30.28 in1025.4 mb 0.00 in0.0 mm 0.00 in0.0 mm 0.00 in0.0 mm
10:51 AM 46.9°F8.3°C 32.0°F0.0°C 56% 9.3 mph E15.0 kmh E 16.0 mph25.7 kmh 30.28 in1025.4 mb 0.00 in0.0 mm 0.00 in0.0 mm 0.00 in0.0 mm
10:52 AM 46.9°F8.3°C 32.0°F0.0°C 56% 6.6 mph E10.6 kmh E 16.0 mph25.7 kmh 30.28 in1025.4 mb 0.00 in0.0 mm 0.00 in0.0 mm 0.00 in0.0 mm
10:53 AM 46.9°F8.3°C 32.0°F0.0°C 56% 7.5 mph ENE12.1 kmh ENE 10.0 mph16.1 kmh 30.28 in1025.4 mb 0.00 in0.0 mm 0.00 in0.0 mm 0.00 in0.0 mm
10:54 AM 46.9°F8.3°C 32.0°F0.0°C 56% 5.0 mph ENE8.0 kmh ENE 10.0 mph16.1 kmh 30.28 in1025.4 mb 0.00 in0.0 mm 0.00 in0.0 mm 0.00 in0.0 mm
10:55 AM 46.9°F8.3°C 32.0°F0.0°C 56% 3.2 mph E5.1 kmh E 9.0 mph14.5 kmh 30.27 in1025.1 mb 0.00 in0.0 mm 0.00 in0.0 mm 0.00 in0.0 mm
10:56 AM 47.0°F8.3°C 32.1°F0.1°C 56% 8.0 mph E12.9 kmh E 14.0 mph22.5 kmh 30.27 in1025.1 mb 0.00 in0.0 mm 0.00 in0.0 mm 0.00 in0.0 mm
10:57 AM 47.1°F8.4°C 32.2°F0.1°C 56% 4.5 mph E7.2 kmh E 14.0 mph22.5 kmh 30.28 in1025.4 mb 0.00 in0.0 mm 0.00 in0.0 mm 0.00 in0.0 mm
10:58 AM 47.2°F8.4°C 32.3°F0.2°C 56% 2.8 mph E4.5 kmh E 9.0 mph14.5 kmh 30.28 in1025.4 mb 0.00 in0.0 mm 0.00 in0.0 mm 0.00 in0.0 mm
10:59 AM 47.3°F8.5°C 32.4°F0.2°C 56% 8.4 mph E13.5 kmh E 13.0 mph20.9 kmh 30.27 in1025.1 mb 0.00 in0.0 mm 0.00 in0.0 mm 0.00 in0.0 mm
11:00 AM 47.2°F8.4°C 31.9°F-0.1°C 55% 10.0 mph E16.1 kmh E 14.0 mph22.5 kmh 30.28 in1025.4 mb 0.00 in0.0 mm 0.00 in0.0 mm 0.00 in0.0 mm
11:01 AM 47.2°F8.4°C 31.9°F-0.1°C 55% 4.9 mph E7.9 kmh E 14.0 mph22.5 kmh 30.28 in1025.4 mb 0.00 in0.0 mm 0.00 in0.0 mm 0.00 in0.0 mm
11:02 AM 47.2°F8.4°C 31.9°F-0.1°C 55% 5.4 mph E8.7 kmh E 10.0 mph16.1 kmh 30.27 in1025.1 mb 0.00 in0.0 mm 0.00 in0.0 mm 0.00 in0.0 mm
11:03 AM 47.2°F8.4°C 32.3°F0.2°C 56% 6.7 mph ENE10.8 kmh ENE 11.0 mph17.7 kmh 30.27 in1025.1 mb 0.00 in0.0 mm 0.00 in0.0 mm 0.00 in0.0 mm
11:04 AM 47.2°F8.4°C 32.3°F0.2°C 56% 7.5 mph E12.1 kmh E 12.0 mph19.3 kmh 30.27 in1025.1 mb 0.00 in0.0 mm 0.00 in0.0 mm 0.00 in0.0 mm
11:05 AM 47.2°F8.4°C 32.3°F0.2°C 56% 1.3 mph E2.1 kmh E 12.0 mph19.3 kmh 30.27 in1025.1 mb 0.00 in0.0 mm 0.00 in0.0 mm 0.00 in0.0 mm
11:06 AM 47.3°F8.5°C 32.4°F0.2°C 56% 4.1 mph E6.6 kmh E 8.0 mph12.9 kmh 30.27 in1025.1 mb 0.00 in0.0 mm 0.00 in0.0 mm 0.00 in0.0 mm
11:07 AM 47.5°F8.6°C 32.6°F0.3°C 56% 1.9 mph E3.1 kmh E 8.0 mph12.9 kmh 30.27 in1025.1 mb 0.00 in0.0 mm 0.00 in0.0 mm 0.00 in0.0 mm
11:08 AM 47.7°F8.7°C 32.8°F0.4°C 56% 6.4 mph E10.3 kmh E 11.0 mph17.7 kmh 30.27 in1025.1 mb 0.00 in0.0 mm 0.00 in0.0 mm 0.00 in0.0 mm
11:09 AM 47.9°F8.8°C 32.5°F0.3°C 55% 4.4 mph ENE7.1 kmh ENE 11.0 mph17.7 kmh 30.27 in1025.1 mb 0.00 in0.0 mm 0.00 in0.0 mm 0.00 in0.0 mm
11:10 AM 48.0°F8.9°C 32.6°F0.3°C 55% 2.9 mph E4.7 kmh E 10.0 mph16.1 kmh 30.27 in1025.1 mb 0.00 in0.0 mm 0.00 in0.0 mm 0.00 in0.0 mm
11:11 AM 48.1°F8.9°C 32.7°F0.4°C 55% 4.2 mph E6.8 kmh E 12.0 mph19.3 kmh 30.27 in1025.1 mb 0.00 in0.0 mm 0.00 in0.0 mm 0.00 in0.0 mm
11:12 AM 48.1°F8.9°C 32.7°F0.4°C 55% 7.6 mph ENE12.2 kmh ENE 12.0 mph19.3 kmh 30.27 in1025.1 mb 0.00 in0.0 mm 0.00 in0.0 mm 0.00 in0.0 mm
11:13 AM 48.1°F8.9°C 32.7°F0.4°C 55% 6.5 mph E10.5 kmh E 11.0 mph17.7 kmh 30.27 in1025.1 mb 0.00 in0.0 mm 0.00 in0.0 mm 0.00 in0.0 mm
11:14 AM 48.1°F8.9°C 32.7°F0.4°C 55% 4.5 mph E7.2 kmh E 11.0 mph17.7 kmh 30.27 in1025.1 mb 0.00 in0.0 mm 0.00 in0.0 mm 0.00 in0.0 mm
11:15 AM 48.1°F8.9°C 32.7°F0.4°C 55% 4.9 mph E7.9 kmh E 9.0 mph14.5 kmh 30.27 in1025.1 mb 0.00 in0.0 mm 0.00 in0.0 mm 0.00 in0.0 mm
11:16 AM 48.1°F8.9°C 32.7°F0.4°C 55% 5.1 mph E8.2 kmh E 9.0 mph14.5 kmh 30.27 in1025.1 mb 0.00 in0.0 mm 0.00 in0.0 mm 0.00 in0.0 mm
11:17 AM 48.2°F9.0°C 32.8°F0.4°C 55% 3.6 mph E5.8 kmh E 9.0 mph14.5 kmh 30.27 in1025.1 mb 0.00 in0.0 mm 0.00 in0.0 mm 0.00 in0.0 mm
11:18 AM 48.2°F9.0°C 32.8°F0.4°C 55% 4.1 mph E6.6 kmh E 9.0 mph14.5 kmh 30.27 in1025.1 mb 0.00 in0.0 mm 0.00 in0.0 mm 0.00 in0.0 mm
11:19 AM 48.3°F9.1°C 32.9°F0.5°C 55% 2.7 mph E4.3 kmh E 8.0 mph12.9 kmh 30.27 in1025.1 mb 0.00 in0.0 mm 0.00 in0.0 mm 0.00 in0.0 mm
11:20 AM 48.4°F9.1°C 33.0°F0.6°C 55% 1.6 mph E2.6 kmh E 6.0 mph9.7 kmh 30.27 in1025.1 mb 0.00 in0.0 mm 0.00 in0.0 mm 0.00 in0.0 mm
11:21 AM 48.5°F9.2°C 33.1°F0.6°C 55% 3.8 mph SE6.1 kmh SE 10.0 mph16.1 kmh 30.27 in1025.1 mb 0.00 in0.0 mm 0.00 in0.0 mm 0.00 in0.0 mm
11:22 AM 48.7°F9.3°C 33.3°F0.7°C 55% 3.8 mph E6.1 kmh E 10.0 mph16.1 kmh 30.27 in1025.1 mb 0.00 in0.0 mm 0.00 in0.0 mm 0.00 in0.0 mm
11:23 AM 48.8°F9.3°C 32.9°F0.5°C 54% 3.8 mph E6.1 kmh E 9.0 mph14.5 kmh 30.27 in1025.1 mb 0.00 in0.0 mm 0.00 in0.0 mm 0.00 in0.0 mm
11:24 AM 48.9°F9.4°C 33.0°F0.6°C 54% 5.2 mph E8.4 kmh E 13.0 mph20.9 kmh 30.27 in1025.1 mb 0.00 in0.0 mm 0.00 in0.0 mm 0.00 in0.0 mm
11:25 AM 48.9°F9.4°C 33.0°F0.6°C 54% 9.1 mph ENE14.6 kmh ENE 13.0 mph20.9 kmh 30.27 in1025.1 mb 0.00 in0.0 mm 0.00 in0.0 mm 0.00 in0.0 mm
11:26 AM 48.8°F9.3°C 32.9°F0.5°C 54% 6.1 mph ENE9.8 kmh ENE 10.0 mph16.1 kmh 30.27 in1025.1 mb 0.00 in0.0 mm 0.00 in0.0 mm 0.00 in0.0 mm
11:27 AM 48.7°F9.3°C 32.8°F0.4°C 54% 2.0 mph NE3.2 kmh NE 9.0 mph14.5 kmh 30.27 in1025.1 mb 0.00 in0.0 mm 0.00 in0.0 mm 0.00 in0.0 mm
11:28 AM 48.7°F9.3°C 32.8°F0.4°C 54% 0.6 mph NE1.0 kmh NE 5.0 mph8.0 kmh 30.27 in1025.1 mb 0.00 in0.0 mm 0.00 in0.0 mm 0.00 in0.0 mm
11:29 AM 48.7°F9.3°C 33.3°F0.7°C 55% 1.6 mph NE2.6 kmh NE 3.0 mph4.8 kmh 30.27 in1025.1 mb 0.00 in0.0 mm 0.00 in0.0 mm 0.00 in0.0 mm
11:30 AM 48.8°F9.3°C 33.4°F0.8°C 55% 3.6 mph ENE5.8 kmh ENE 11.0 mph17.7 kmh 30.27 in1025.1 mb 0.00 in0.0 mm 0.00 in0.0 mm 0.00 in0.0 mm
11:31 AM 48.9°F9.4°C 33.0°F0.6°C 54% 5.7 mph E9.2 kmh E 11.0 mph17.7 kmh 30.27 in1025.1 mb 0.00 in0.0 mm 0.00 in0.0 mm 0.00 in0.0 mm
11:32 AM 49.0°F9.4°C 33.1°F0.6°C 54% 5.9 mph E9.5 kmh E 11.0 mph17.7 kmh 30.27 in1025.1 mb 0.00 in0.0 mm 0.00 in0.0 mm 0.00 in0.0 mm
11:33 AM 49.1°F9.5°C 33.2°F0.7°C 54% 5.7 mph ENE9.2 kmh ENE 11.0 mph17.7 kmh 30.27 in1025.1 mb 0.00 in0.0 mm 0.00 in0.0 mm 0.00 in0.0 mm
11:34 AM 49.2°F9.6°C 33.3°F0.7°C 54% 2.5 mph E4.0 kmh E 9.0 mph14.5 kmh 30.27 in1025.1 mb 0.00 in0.0 mm 0.00 in0.0 mm 0.00 in0.0 mm
11:35 AM 49.2°F9.6°C 33.3°F0.7°C 54% 4.7 mph ENE7.6 kmh ENE 9.0 mph14.5 kmh 30.27 in1025.1 mb 0.00 in0.0 mm 0.00 in0.0 mm 0.00 in0.0 mm
11:36 AM 49.2°F9.6°C 33.3°F0.7°C 54% 3.8 mph E6.1 kmh E 9.0 mph14.5 kmh 30.27 in1025.1 mb 0.00 in0.0 mm 0.00 in0.0 mm 0.00 in0.0 mm
11:37 AM 49.4°F9.7°C 33.0°F0.6°C 53% 4.3 mph E6.9 kmh E 8.0 mph12.9 kmh 30.27 in1025.1 mb 0.00 in0.0 mm 0.00 in0.0 mm 0.00 in0.0 mm
11:38 AM 49.4°F9.7°C 33.0°F0.6°C 53% 5.3 mph E8.5 kmh E 11.0 mph17.7 kmh 30.27 in1025.1 mb 0.00 in0.0 mm 0.00 in0.0 mm 0.00 in0.0 mm
11:39 AM 49.3°F9.6°C 32.9°F0.5°C 53% 5.7 mph E9.2 kmh E 11.0 mph17.7 kmh 30.26 in1024.7 mb 0.00 in0.0 mm 0.00 in0.0 mm 0.00 in0.0 mm
11:40 AM 49.2°F9.6°C 32.8°F0.4°C 53% 4.8 mph E7.7 kmh E 9.0 mph14.5 kmh 30.27 in1025.1 mb 0.00 in0.0 mm 0.00 in0.0 mm 0.00 in0.0 mm
11:41 AM 49.0°F9.4°C 32.6°F0.3°C 53% 2.0 mph E3.2 kmh E 8.0 mph12.9 kmh 30.26 in1024.7 mb 0.00 in0.0 mm 0.00 in0.0 mm 0.00 in0.0 mm
11:42 AM 49.0°F9.4°C 32.6°F0.3°C 53% 1.7 mph E2.7 kmh E 3.0 mph4.8 kmh 30.27 in1025.1 mb 0.00 in0.0 mm 0.00 in0.0 mm 0.00 in0.0 mm
11:43 AM 49.1°F9.5°C 33.2°F0.7°C 54% 2.0 mph E3.2 kmh E 4.0 mph6.4 kmh 30.26 in1024.7 mb 0.00 in0.0 mm 0.00 in0.0 mm 0.00 in0.0 mm
11:44 AM 49.2°F9.6°C 33.3°F0.7°C 54% 3.4 mph E5.5 kmh E 7.0 mph11.3 kmh 30.27 in1025.1 mb 0.00 in0.0 mm 0.00 in0.0 mm 0.00 in0.0 mm
11:45 AM 49.3°F9.6°C 32.9°F0.5°C 53% 2.5 mph E4.0 kmh E 7.0 mph11.3 kmh 30.27 in1025.1 mb 0.00 in0.0 mm 0.00 in0.0 mm 0.00 in0.0 mm
11:46 AM 49.4°F9.7°C 33.0°F0.6°C 53% 3.8 mph ESE6.1 kmh ESE 10.0 mph16.1 kmh 30.27 in1025.1 mb 0.00 in0.0 mm 0.00 in0.0 mm 0.00 in0.0 mm
11:47 AM 49.6°F9.8°C 33.2°F0.7°C 53% 4.4 mph SE7.1 kmh SE 13.0 mph20.9 kmh 30.26 in1024.7 mb 0.00 in0.0 mm 0.00 in0.0 mm 0.00 in0.0 mm
11:48 AM 49.7°F9.8°C 33.3°F0.7°C 53% 1.6 mph ESE2.6 kmh ESE 13.0 mph20.9 kmh 30.26 in1024.7 mb 0.00 in0.0 mm 0.00 in0.0 mm 0.00 in0.0 mm
11:49 AM 49.8°F9.9°C 33.4°F0.8°C 53% 2.0 mph ESE3.2 kmh ESE 4.0 mph6.4 kmh 30.26 in1024.7 mb 0.00 in0.0 mm 0.00 in0.0 mm 0.00 in0.0 mm
11:50 AM 50.0°F10.0°C 33.5°F0.8°C 53% 5.0 mph SE8.0 kmh SE 9.0 mph14.5 kmh 30.26 in1024.7 mb 0.00 in0.0 mm 0.00 in0.0 mm 0.00 in0.0 mm
11:51 AM 50.2°F10.1°C 33.7°F0.9°C 53% 3.1 mph E5.0 kmh E 9.0 mph14.5 kmh 30.26 in1024.7 mb 0.00 in0.0 mm 0.00 in0.0 mm 0.00 in0.0 mm
11:52 AM 50.3°F10.2°C 33.4°F0.8°C 52% 2.7 mph E4.3 kmh E 10.0 mph16.1 kmh 30.26 in1024.7 mb 0.00 in0.0 mm 0.00 in0.0 mm 0.00 in0.0 mm
11:53 AM 50.3°F10.2°C 33.4°F0.8°C 52% 7.8 mph ENE12.6 kmh ENE 16.0 mph25.7 kmh 30.26 in1024.7 mb 0.00 in0.0 mm 0.00 in0.0 mm 0.00 in0.0 mm
11:54 AM 50.2°F10.1°C 32.8°F0.4°C 51% 6.6 mph E10.6 kmh E 16.0 mph25.7 kmh 30.27 in1025.1 mb 0.00 in0.0 mm 0.00 in0.0 mm 0.00 in0.0 mm
11:55 AM 50.1°F10.1°C 32.7°F0.4°C 51% 4.9 mph E7.9 kmh E 11.0 mph17.7 kmh 30.27 in1025.1 mb 0.00 in0.0 mm 0.00 in0.0 mm 0.00 in0.0 mm
11:56 AM 50.0°F10.0°C 32.6°F0.3°C 51% 3.1 mph E5.0 kmh E 10.0 mph16.1 kmh 30.27 in1025.1 mb 0.00 in0.0 mm 0.00 in0.0 mm 0.00 in0.0 mm
11:57 AM 49.9°F9.9°C 32.5°F0.3°C 51% 2.9 mph E4.7 kmh E 7.0 mph11.3 kmh 30.27 in1025.1 mb 0.00 in0.0 mm 0.00 in0.0 mm 0.00 in0.0 mm
11:58 AM 49.9°F9.9°C 32.5°F0.3°C 51% 4.7 mph ENE7.6 kmh ENE 8.0 mph12.9 kmh 30.27 in1025.1 mb 0.00 in0.0 mm 0.00 in0.0 mm 0.00 in0.0 mm
11:59 AM 49.8°F9.9°C 32.4°F0.2°C 51% 4.7 mph ENE7.6 kmh ENE 9.0 mph14.5 kmh 30.27 in1025.1 mb 0.00 in0.0 mm 0.00 in0.0 mm 0.00 in0.0 mm
12:00 PM 49.7°F9.8°C 32.3°F0.2°C 51% 5.5 mph E8.9 kmh E 10.0 mph16.1 kmh 30.27 in1025.1 mb 0.00 in0.0 mm 0.00 in0.0 mm 0.00 in0.0 mm
12:01 PM 49.7°F9.8°C 31.8°F-0.1°C 50% 4.9 mph E7.9 kmh E 12.0 mph19.3 kmh 30.27 in1025.1 mb 0.00 in0.0 mm 0.00 in0.0 mm 0.00 in0.0 mm
12:02 PM 49.7°F9.8°C 31.8°F-0.1°C 50% 5.5 mph E8.9 kmh E 12.0 mph19.3 kmh 30.27 in1025.1 mb 0.00 in0.0 mm 0.00 in0.0 mm 0.00 in0.0 mm
12:03 PM 49.6°F9.8°C 31.7°F-0.2°C 50% 4.7 mph E7.6 kmh E 10.0 mph16.1 kmh 30.26 in1024.7 mb 0.00 in0.0 mm 0.00 in0.0 mm 0.00 in0.0 mm
12:04 PM 49.6°F9.8°C 31.7°F-0.2°C 50% 8.4 mph ENE13.5 kmh ENE 14.0 mph22.5 kmh 30.26 in1024.7 mb 0.00 in0.0 mm 0.00 in0.0 mm 0.00 in0.0 mm
12:05 PM 49.6°F9.8°C 31.7°F-0.2°C 50% 9.2 mph ENE14.8 kmh ENE 14.0 mph22.5 kmh 30.27 in1025.1 mb 0.00 in0.0 mm 0.00 in0.0 mm 0.00 in0.0 mm
12:06 PM 49.5°F9.7°C 32.1°F0.1°C 51% 4.8 mph ENE7.7 kmh ENE 14.0 mph22.5 kmh 30.26 in1024.7 mb 0.00 in0.0 mm 0.00 in0.0 mm 0.00 in0.0 mm
12:07 PM 49.5°F9.7°C 32.1°F0.1°C 51% 3.8 mph E6.1 kmh E 9.0 mph14.5 kmh 30.26 in1024.7 mb 0.00 in0.0 mm 0.00 in0.0 mm 0.00 in0.0 mm
12:08 PM 49.5°F9.7°C 32.1°F0.1°C 51% 4.4 mph E7.1 kmh E 8.0 mph12.9 kmh 30.26 in1024.7 mb 0.00 in0.0 mm 0.00 in0.0 mm 0.00 in0.0 mm
12:09 PM 49.5°F9.7°C 32.1°F0.1°C 51% 3.9 mph E6.3 kmh E 8.0 mph12.9 kmh 30.26 in1024.7 mb 0.00 in0.0 mm 0.00 in0.0 mm 0.00 in0.0 mm
12:10 PM 49.5°F9.7°C 31.6°F-0.2°C 50% 4.3 mph E6.9 kmh E 8.0 mph12.9 kmh 30.26 in1024.7 mb 0.00 in0.0 mm 0.00 in0.0 mm 0.00 in0.0 mm
12:11 PM 49.5°F9.7°C 31.6°F-0.2°C 50% 2.0 mph E3.2 kmh E 8.0 mph12.9 kmh 30.26 in1024.7 mb 0.00 in0.0 mm 0.00 in0.0 mm 0.00 in0.0 mm
12:12 PM 49.6°F9.8°C 31.7°F-0.2°C 50% 2.9 mph E4.7 kmh E 6.0 mph9.7 kmh 30.26 in1024.7 mb 0.00 in0.0 mm 0.00 in0.0 mm 0.00 in0.0 mm
12:13 PM 49.6°F9.8°C 31.7°F-0.2°C 50% 5.6 mph NE9.0 kmh NE 12.0 mph19.3 kmh 30.26 in1024.7 mb 0.00 in0.0 mm 0.00 in0.0 mm 0.00 in0.0 mm
12:14 PM 49.7°F9.8°C 31.8°F-0.1°C 50% 6.8 mph ESE10.9 kmh ESE 14.0 mph22.5 kmh 30.26 in1024.7 mb 0.00 in0.0 mm 0.00 in0.0 mm 0.00 in0.0 mm
12:15 PM 49.8°F9.9°C 31.9°F-0.1°C 50% 6.9 mph E11.1 kmh E 14.0 mph22.5 kmh 30.26 in1024.7 mb 0.00 in0.0 mm 0.00 in0.0 mm 0.00 in0.0 mm
12:16 PM 49.9°F9.9°C 32.0°F0.0°C 50% 5.6 mph E9.0 kmh E 12.0 mph19.3 kmh 30.26 in1024.7 mb 0.00 in0.0 mm 0.00 in0.0 mm 0.00 in0.0 mm
12:17 PM 49.9°F9.9°C 31.5°F-0.3°C 49% 6.7 mph E10.8 kmh E 12.0 mph19.3 kmh 30.26 in1024.7 mb 0.00 in0.0 mm 0.00 in0.0 mm 0.00 in0.0 mm
12:18 PM 49.9°F9.9°C 30.5°F-0.8°C 47% 7.4 mph E11.9 kmh E 13.0 mph20.9 kmh 30.26 in1024.7 mb 0.00 in0.0 mm 0.00 in0.0 mm 0.00 in0.0 mm
12:19 PM 49.9°F9.9°C 30.5°F-0.8°C 47% 4.2 mph E6.8 kmh E 13.0 mph20.9 kmh 30.26 in1024.7 mb 0.00 in0.0 mm 0.00 in0.0 mm 0.00 in0.0 mm
12:20 PM 50.0°F10.0°C 30.6°F-0.8°C 47% 1.4 mph E2.3 kmh E 8.0 mph12.9 kmh 30.26 in1024.7 mb 0.00 in0.0 mm 0.00 in0.0 mm 0.00 in0.0 mm
12:21 PM 50.1°F10.1°C 30.7°F-0.7°C 47% 3.9 mph ENE6.3 kmh ENE 6.0 mph9.7 kmh 30.26 in1024.7 mb 0.00 in0.0 mm 0.00 in0.0 mm 0.00 in0.0 mm
12:22 PM 50.1°F10.1°C 30.7°F-0.7°C 47% 2.0 mph E3.2 kmh E 6.0 mph9.7 kmh 30.26 in1024.7 mb 0.00 in0.0 mm 0.00 in0.0 mm 0.00 in0.0 mm
12:23 PM 50.2°F10.1°C 30.8°F-0.7°C 47% 3.0 mph E4.8 kmh E 11.0 mph17.7 kmh 30.26 in1024.7 mb 0.00 in0.0 mm 0.00 in0.0 mm 0.00 in0.0 mm
12:24 PM 50.2°F10.1°C 29.7°F-1.3°C 45% 7.3 mph E11.7 kmh E 14.0 mph22.5 kmh 30.26 in1024.7 mb 0.00 in0.0 mm 0.00 in0.0 mm 0.00 in0.0 mm
12:25 PM 50.1°F10.1°C 29.6°F-1.3°C 45% 6.0 mph E9.7 kmh E 14.0 mph22.5 kmh 30.26 in1024.7 mb 0.00 in0.0 mm 0.00 in0.0 mm 0.00 in0.0 mm
12:26 PM 50.1°F10.1°C 29.6°F-1.3°C 45% 2.5 mph E4.0 kmh E 11.0 mph17.7 kmh 30.26 in1024.7 mb 0.00 in0.0 mm 0.00 in0.0 mm 0.00 in0.0 mm
12:27 PM 50.1°F10.1°C 29.6°F-1.3°C 45% 2.3 mph E3.7 kmh E 6.0 mph9.7 kmh 30.26 in1024.7 mb 0.00 in0.0 mm 0.00 in0.0 mm 0.00 in0.0 mm
12:28 PM 50.1°F10.1°C 29.6°F-1.3°C 45% 3.8 mph E6.1 kmh E 8.0 mph12.9 kmh 30.26 in1024.7 mb 0.00 in0.0 mm 0.00 in0.0 mm 0.00 in0.0 mm
12:29 PM 50.1°F10.1°C 29.6°F-1.3°C 45% 5.5 mph E8.9 kmh E 10.0 mph16.1 kmh 30.25 in1024.4 mb 0.00 in0.0 mm 0.00 in0.0 mm 0.00 in0.0 mm
12:30 PM 50.2°F10.1°C 29.7°F-1.3°C 45% 3.3 mph E5.3 kmh E 10.0 mph16.1 kmh 30.25 in1024.4 mb 0.00 in0.0 mm 0.00 in0.0 mm 0.00 in0.0 mm
12:31 PM 50.3°F10.2°C 29.8°F-1.2°C 45% 3.8 mph E6.1 kmh E 8.0 mph12.9 kmh 30.26 in1024.7 mb 0.00 in0.0 mm 0.00 in0.0 mm 0.00 in0.0 mm
12:32 PM 50.4°F10.2°C 29.3°F-1.5°C 44% 4.0 mph ENE6.4 kmh ENE 8.0 mph12.9 kmh 30.25 in1024.4 mb 0.00 in0.0 mm 0.00 in0.0 mm 0.00 in0.0 mm
12:33 PM 50.4°F10.2°C 29.3°F-1.5°C 44% 6.4 mph ENE10.3 kmh ENE 11.0 mph17.7 kmh 30.25 in1024.4 mb 0.00 in0.0 mm 0.00 in0.0 mm 0.00 in0.0 mm
12:34 PM 50.5°F10.3°C 29.4°F-1.4°C 44% 2.7 mph E4.3 kmh E 11.0 mph17.7 kmh 30.25 in1024.4 mb 0.00 in0.0 mm 0.00 in0.0 mm 0.00 in0.0 mm
12:35 PM 50.6°F10.3°C 29.5°F-1.4°C 44% 4.1 mph E6.6 kmh E 8.0 mph12.9 kmh 30.25 in1024.4 mb 0.00 in0.0 mm 0.00 in0.0 mm 0.00 in0.0 mm
12:36 PM 50.6°F10.3°C 29.5°F-1.4°C 44% 3.7 mph E6.0 kmh E 8.0 mph12.9 kmh 30.25 in1024.4 mb 0.00 in0.0 mm 0.00 in0.0 mm 0.00 in0.0 mm
12:37 PM 50.7°F10.4°C 29.6°F-1.3°C 44% 2.3 mph E3.7 kmh E 7.0 mph11.3 kmh 30.25 in1024.4 mb 0.00 in0.0 mm 0.00 in0.0 mm 0.00 in0.0 mm
12:38 PM 50.8°F10.4°C 29.7°F-1.3°C 44% 5.1 mph E8.2 kmh E 9.0 mph14.5 kmh 30.25 in1024.4 mb 0.00 in0.0 mm 0.00 in0.0 mm 0.00 in0.0 mm
12:39 PM 50.8°F10.4°C 29.7°F-1.3°C 44% 5.3 mph E8.5 kmh E 9.0 mph14.5 kmh 30.25 in1024.4 mb 0.00 in0.0 mm 0.00 in0.0 mm 0.00 in0.0 mm
12:40 PM 50.8°F10.4°C 29.7°F-1.3°C 44% 3.6 mph E5.8 kmh E 7.0 mph11.3 kmh 30.25 in1024.4 mb 0.00 in0.0 mm 0.00 in0.0 mm 0.00 in0.0 mm
12:41 PM 50.9°F10.5°C 30.3°F-0.9°C 45% 4.0 mph ENE6.4 kmh ENE 9.0 mph14.5 kmh 30.25 in1024.4 mb 0.00 in0.0 mm 0.00 in0.0 mm 0.00 in0.0 mm
12:42 PM 50.9°F10.5°C 30.3°F-0.9°C 45% 3.7 mph ENE6.0 kmh ENE 9.0 mph14.5 kmh 30.25 in1024.4 mb 0.00 in0.0 mm 0.00 in0.0 mm 0.00 in0.0 mm
12:43 PM 51.0°F10.6°C 29.9°F-1.2°C 44% 4.4 mph ENE7.1 kmh ENE 11.0 mph17.7 kmh 30.25 in1024.4 mb 0.00 in0.0 mm 0.00 in0.0 mm 0.00 in0.0 mm
12:44 PM 51.0°F10.6°C 30.4°F-0.9°C 45% 3.6 mph E5.8 kmh E 11.0 mph17.7 kmh 30.25 in1024.4 mb 0.00 in0.0 mm 0.00 in0.0 mm 0.00 in0.0 mm
12:45 PM 51.1°F10.6°C 30.5°F-0.8°C 45% 2.8 mph E4.5 kmh E 8.0 mph12.9 kmh 30.25 in1024.4 mb 0.00 in0.0 mm 0.00 in0.0 mm 0.00 in0.0 mm
12:46 PM 51.2°F10.7°C 30.6°F-0.8°C 45% 3.4 mph E5.5 kmh E 9.0 mph14.5 kmh 30.25 in1024.4 mb 0.00 in0.0 mm 0.00 in0.0 mm 0.00 in0.0 mm
12:47 PM 51.2°F10.7°C 30.6°F-0.8°C 45% 4.5 mph ENE7.2 kmh ENE 10.0 mph16.1 kmh 30.25 in1024.4 mb 0.00 in0.0 mm 0.00 in0.0 mm 0.00 in0.0 mm
12:48 PM 51.3°F10.7°C 30.7°F-0.7°C 45% 8.3 mph E13.4 kmh E 17.0 mph27.4 kmh 30.25 in1024.4 mb 0.00 in0.0 mm 0.00 in0.0 mm 0.00 in0.0 mm
12:49 PM 51.2°F10.7°C 30.6°F-0.8°C 45% 5.1 mph ENE8.2 kmh ENE 17.0 mph27.4 kmh 30.25 in1024.4 mb 0.00 in0.0 mm 0.00 in0.0 mm 0.00 in0.0 mm
12:50 PM 51.1°F10.6°C 30.5°F-0.8°C 45% 3.0 mph E4.8 kmh E 11.0 mph17.7 kmh 30.25 in1024.4 mb 0.00 in0.0 mm 0.00 in0.0 mm 0.00 in0.0 mm
12:51 PM 51.0°F10.6°C 30.4°F-0.9°C 45% 4.4 mph E7.1 kmh E 10.0 mph16.1 kmh 30.25 in1024.4 mb 0.00 in0.0 mm 0.00 in0.0 mm 0.00 in0.0 mm
12:52 PM 51.0°F10.6°C 29.9°F-1.2°C 44% 0.9 mph E1.4 kmh E 10.0 mph16.1 kmh 30.25 in1024.4 mb 0.00 in0.0 mm 0.00 in0.0 mm 0.00 in0.0 mm
12:53 PM 51.0°F10.6°C 29.3°F-1.5°C 43% 5.5 mph E8.9 kmh E 12.0 mph19.3 kmh 30.25 in1024.4 mb 0.00 in0.0 mm 0.00 in0.0 mm 0.00 in0.0 mm
12:54 PM 51.0°F10.6°C 28.7°F-1.8°C 42% 9.1 mph E14.6 kmh E 12.0 mph19.3 kmh 30.25 in1024.4 mb 0.00 in0.0 mm 0.00 in0.0 mm 0.00 in0.0 mm
12:55 PM 50.9°F10.5°C 28.0°F-2.2°C 41% 4.8 mph ESE7.7 kmh ESE 12.0 mph19.3 kmh 30.24 in1024.0 mb 0.00 in0.0 mm 0.00 in0.0 mm 0.00 in0.0 mm
12:56 PM 50.9°F10.5°C 28.0°F-2.2°C 41% 3.5 mph E5.6 kmh E 9.0 mph14.5 kmh 30.25 in1024.4 mb 0.00 in0.0 mm 0.00 in0.0 mm 0.00 in0.0 mm
12:57 PM 50.9°F10.5°C 28.6°F-1.9°C 42% 5.8 mph E9.3 kmh E 13.0 mph20.9 kmh 30.25 in1024.4 mb 0.00 in0.0 mm 0.00 in0.0 mm 0.00 in0.0 mm
12:58 PM 50.9°F10.5°C 28.6°F-1.9°C 42% 6.3 mph E10.1 kmh E 13.0 mph20.9 kmh 30.25 in1024.4 mb 0.00 in0.0 mm 0.00 in0.0 mm 0.00 in0.0 mm
12:59 PM 50.9°F10.5°C 28.6°F-1.9°C 42% 4.3 mph E6.9 kmh E 9.0 mph14.5 kmh 30.25 in1024.4 mb 0.00 in0.0 mm 0.00 in0.0 mm 0.00 in0.0 mm
01:00 PM 50.9°F10.5°C 29.2°F-1.6°C 43% 2.1 mph E3.4 kmh E 8.0 mph12.9 kmh 30.24 in1024.0 mb 0.00 in0.0 mm 0.00 in0.0 mm 0.00 in0.0 mm
01:01 PM 50.9°F10.5°C 29.2°F-1.6°C 43% 3.1 mph E5.0 kmh E 7.0 mph11.3 kmh 30.24 in1024.0 mb 0.00 in0.0 mm 0.00 in0.0 mm 0.00 in0.0 mm
01:02 PM 50.9°F10.5°C 29.2°F-1.6°C 43% 2.9 mph E4.7 kmh E 8.0 mph12.9 kmh 30.24 in1024.0 mb 0.00 in0.0 mm 0.00 in0.0 mm 0.00 in0.0 mm
01:03 PM 51.0°F10.6°C 29.3°F-1.5°C 43% 1.5 mph E2.4 kmh E 8.0 mph12.9 kmh 30.24 in1024.0 mb 0.00 in0.0 mm 0.00 in0.0 mm 0.00 in0.0 mm
01:04 PM 51.1°F10.6°C 30.0°F-1.1°C 44% 3.4 mph E5.5 kmh E 7.0 mph11.3 kmh 30.24 in1024.0 mb 0.00 in0.0 mm 0.00 in0.0 mm 0.00 in0.0 mm
01:05 PM 51.2°F10.7°C 30.0°F-1.1°C 44% 2.7 mph E4.3 kmh E 7.0 mph11.3 kmh 30.24 in1024.0 mb 0.00 in0.0 mm 0.00 in0.0 mm 0.00 in0.0 mm
01:06 PM 51.2°F10.7°C 30.0°F-1.1°C 44% 2.9 mph E4.7 kmh E 8.0 mph12.9 kmh 30.24 in1024.0 mb 0.00 in0.0 mm 0.00 in0.0 mm 0.00 in0.0 mm
01:07 PM 51.4°F10.8°C 30.2°F-1.0°C 44% 3.2 mph E5.1 kmh E 8.0 mph12.9 kmh 30.24 in1024.0 mb 0.00 in0.0 mm 0.00 in0.0 mm 0.00 in0.0 mm
01:08 PM 51.4°F10.8°C 29.7°F-1.3°C 43% 4.8 mph E7.7 kmh E 8.0 mph12.9 kmh 30.24 in1024.0 mb 0.00 in0.0 mm 0.00 in0.0 mm 0.00 in0.0 mm
01:09 PM 51.5°F10.8°C 29.2°F-1.6°C 42% 2.8 mph E4.5 kmh E 9.0 mph14.5 kmh 30.24 in1024.0 mb 0.00 in0.0 mm 0.00 in0.0 mm 0.00 in0.0 mm
01:10 PM 51.5°F10.8°C 29.8°F-1.2°C 43% 7.3 mph E11.7 kmh E 13.0 mph20.9 kmh 30.24 in1024.0 mb 0.00 in0.0 mm 0.00 in0.0 mm 0.00 in0.0 mm
01:11 PM 51.5°F10.8°C 29.8°F-1.2°C 43% 4.5 mph ENE7.2 kmh ENE 13.0 mph20.9 kmh 30.24 in1024.0 mb 0.00 in0.0 mm 0.00 in0.0 mm 0.00 in0.0 mm
01:12 PM 51.5°F10.8°C 29.8°F-1.2°C 43% 1.9 mph ENE3.1 kmh ENE 10.0 mph16.1 kmh 30.24 in1024.0 mb 0.00 in0.0 mm 0.00 in0.0 mm 0.00 in0.0 mm
01:13 PM 51.5°F10.8°C 29.8°F-1.2°C 43% 2.6 mph ENE4.2 kmh ENE 8.0 mph12.9 kmh 30.24 in1024.0 mb 0.00 in0.0 mm 0.00 in0.0 mm 0.00 in0.0 mm
01:14 PM 51.5°F10.8°C 29.8°F-1.2°C 43% 5.8 mph ENE9.3 kmh ENE 11.0 mph17.7 kmh 30.24 in1024.0 mb 0.00 in0.0 mm 0.00 in0.0 mm 0.00 in0.0 mm
01:15 PM 51.5°F10.8°C 29.2°F-1.6°C 42% 3.6 mph ENE5.8 kmh ENE 11.0 mph17.7 kmh 30.23 in1023.7 mb 0.00 in0.0 mm 0.00 in0.0 mm 0.00 in0.0 mm
01:16 PM 51.6°F10.9°C 29.8°F-1.2°C 43% 1.7 mph E2.7 kmh E 6.0 mph9.7 kmh 30.24 in1024.0 mb 0.00 in0.0 mm 0.00 in0.0 mm 0.00 in0.0 mm
01:17 PM 51.6°F10.9°C 29.3°F-1.5°C 42% 5.2 mph E8.4 kmh E 11.0 mph17.7 kmh 30.24 in1024.0 mb 0.00 in0.0 mm 0.00 in0.0 mm 0.00 in0.0 mm
01:18 PM 51.6°F10.9°C 29.3°F-1.5°C 42% 4.2 mph E6.8 kmh E 11.0 mph17.7 kmh 30.23 in1023.7 mb 0.00 in0.0 mm 0.00 in0.0 mm 0.00 in0.0 mm
01:19 PM 51.7°F10.9°C 29.4°F-1.4°C 42% 5.9 mph ENE9.5 kmh ENE 10.0 mph16.1 kmh 30.23 in1023.7 mb 0.00 in0.0 mm 0.00 in0.0 mm 0.00 in0.0 mm
01:20 PM 51.7°F10.9°C 29.4°F-1.4°C 42% 3.7 mph E6.0 kmh E 10.0 mph16.1 kmh 30.24 in1024.0 mb 0.00 in0.0 mm 0.00 in0.0 mm 0.00 in0.0 mm
01:21 PM 51.8°F11.0°C 29.4°F-1.4°C 42% 7.2 mph ENE11.6 kmh ENE 12.0 mph19.3 kmh 30.23 in1023.7 mb 0.00 in0.0 mm 0.00 in0.0 mm 0.00 in0.0 mm
01:22 PM 51.7°F10.9°C 28.8°F-1.8°C 41% 8.0 mph E12.9 kmh E 13.0 mph20.9 kmh 30.24 in1024.0 mb 0.00 in0.0 mm 0.00 in0.0 mm 0.00 in0.0 mm
01:23 PM 51.7°F10.9°C 29.4°F-1.4°C 42% 4.7 mph NE7.6 kmh NE 13.0 mph20.9 kmh 30.23 in1023.7 mb 0.00 in0.0 mm 0.00 in0.0 mm 0.00 in0.0 mm
01:24 PM 51.7°F10.9°C 29.4°F-1.4°C 42% 2.0 mph NE3.2 kmh NE 9.0 mph14.5 kmh 30.23 in1023.7 mb 0.00 in0.0 mm 0.00 in0.0 mm 0.00 in0.0 mm
01:25 PM 51.7°F10.9°C 29.4°F-1.4°C 42% 4.1 mph ENE6.6 kmh ENE 11.0 mph17.7 kmh 30.23 in1023.7 mb 0.00 in0.0 mm 0.00 in0.0 mm 0.00 in0.0 mm
01:26 PM 51.8°F11.0°C 29.4°F-1.4°C 42% 3.6 mph ESE5.8 kmh ESE 11.0 mph17.7 kmh 30.23 in1023.7 mb 0.00 in0.0 mm 0.00 in0.0 mm 0.00 in0.0 mm
01:27 PM 51.8°F11.0°C 29.4°F-1.4°C 42% 7.2 mph ENE11.6 kmh ENE 13.0 mph20.9 kmh 30.23 in1023.7 mb 0.00 in0.0 mm 0.00 in0.0 mm 0.00 in0.0 mm
01:28 PM 51.8°F11.0°C 29.4°F-1.4°C 42% 6.7 mph E10.8 kmh E 13.0 mph20.9 kmh 30.23 in1023.7 mb 0.00 in0.0 mm 0.00 in0.0 mm 0.00 in0.0 mm
01:29 PM 51.7°F10.9°C 29.4°F-1.4°C 42% 5.7 mph E9.2 kmh E 10.0 mph16.1 kmh 30.24 in1024.0 mb 0.00 in0.0 mm 0.00 in0.0 mm 0.00 in0.0 mm
01:30 PM 51.6°F10.9°C 29.3°F-1.5°C 42% 4.8 mph E7.7 kmh E 9.0 mph14.5 kmh 30.24 in1024.0 mb 0.00 in0.0 mm 0.00 in0.0 mm 0.00 in0.0 mm
01:31 PM 51.6°F10.9°C 29.3°F-1.5°C 42% 2.9 mph E4.7 kmh E 9.0 mph14.5 kmh 30.23 in1023.7 mb 0.00 in0.0 mm 0.00 in0.0 mm 0.00 in0.0 mm
01:32 PM 51.6°F10.9°C 29.3°F-1.5°C 42% 4.9 mph ENE7.9 kmh ENE 11.0 mph17.7 kmh 30.23 in1023.7 mb 0.00 in0.0 mm 0.00 in0.0 mm 0.00 in0.0 mm
01:33 PM 51.6°F10.9°C 29.3°F-1.5°C 42% 3.5 mph ENE5.6 kmh ENE 11.0 mph17.7 kmh 30.23 in1023.7 mb 0.00 in0.0 mm 0.00 in0.0 mm 0.00 in0.0 mm
01:34 PM 51.6°F10.9°C 29.3°F-1.5°C 42% 4.1 mph ENE6.6 kmh ENE 7.0 mph11.3 kmh 30.23 in1023.7 mb 0.00 in0.0 mm 0.00 in0.0 mm 0.00 in0.0 mm
01:35 PM 51.7°F10.9°C 29.9°F-1.2°C 43% 4.9 mph E7.9 kmh E 9.0 mph14.5 kmh 30.23 in1023.7 mb 0.00 in0.0 mm 0.00 in0.0 mm 0.00 in0.0 mm
01:36 PM 51.7°F10.9°C 29.9°F-1.2°C 43% 7.2 mph E11.6 kmh E 10.0 mph16.1 kmh 30.23 in1023.7 mb 0.00 in0.0 mm 0.00 in0.0 mm 0.00 in0.0 mm
01:37 PM 51.7°F10.9°C 29.9°F-1.2°C 43% 5.3 mph ENE8.5 kmh ENE 10.0 mph16.1 kmh 30.23 in1023.7 mb 0.00 in0.0 mm 0.00 in0.0 mm 0.00 in0.0 mm
01:38 PM 51.6°F10.9°C 29.8°F-1.2°C 43% 5.1 mph E8.2 kmh E 9.0 mph14.5 kmh 30.23 in1023.7 mb 0.00 in0.0 mm 0.00 in0.0 mm 0.00 in0.0 mm
01:39 PM 51.5°F10.8°C 30.3°F-0.9°C 44% 2.7 mph E4.3 kmh E 9.0 mph14.5 kmh 30.23 in1023.7 mb 0.00 in0.0 mm 0.00 in0.0 mm 0.00 in0.0 mm
01:40 PM 51.5°F10.8°C 30.3°F-0.9°C 44% 4.2 mph ENE6.8 kmh ENE 9.0 mph14.5 kmh 30.23 in1023.7 mb 0.00 in0.0 mm 0.00 in0.0 mm 0.00 in0.0 mm
01:41 PM 51.6°F10.9°C 31.0°F-0.6°C 45% 2.3 mph ENE3.7 kmh ENE 9.0 mph14.5 kmh 30.23 in1023.7 mb 0.00 in0.0 mm 0.00 in0.0 mm 0.00 in0.0 mm
01:42 PM 51.6°F10.9°C 31.0°F-0.6°C 45% 7.0 mph E11.3 kmh E 14.0 mph22.5 kmh 30.23 in1023.7 mb 0.00 in0.0 mm 0.00 in0.0 mm 0.00 in0.0 mm
01:43 PM 51.6°F10.9°C 31.0°F-0.6°C 45% 4.8 mph E7.7 kmh E 14.0 mph22.5 kmh 30.23 in1023.7 mb 0.00 in0.0 mm 0.00 in0.0 mm 0.00 in0.0 mm
01:44 PM 51.7°F10.9°C 31.1°F-0.5°C 45% 4.5 mph E7.2 kmh E 9.0 mph14.5 kmh 30.23 in1023.7 mb 0.00 in0.0 mm 0.00 in0.0 mm 0.00 in0.0 mm
01:45 PM 51.6°F10.9°C 31.5°F-0.3°C 46% 5.2 mph E8.4 kmh E 10.0 mph16.1 kmh 30.23 in1023.7 mb 0.00 in0.0 mm 0.00 in0.0 mm 0.00 in0.0 mm
01:46 PM 51.5°F10.8°C 31.4°F-0.3°C 46% 5.3 mph E8.5 kmh E 10.0 mph16.1 kmh 30.23 in1023.7 mb 0.00 in0.0 mm 0.00 in0.0 mm 0.00 in0.0 mm
01:47 PM 51.5°F10.8°C 31.4°F-0.3°C 46% 4.1 mph E6.6 kmh E 9.0 mph14.5 kmh 30.23 in1023.7 mb 0.00 in0.0 mm 0.00 in0.0 mm 0.00 in0.0 mm
01:48 PM 51.5°F10.8°C 31.4°F-0.3°C 46% 5.1 mph E8.2 kmh E 10.0 mph16.1 kmh 30.23 in1023.7 mb 0.00 in0.0 mm 0.00 in0.0 mm 0.00 in0.0 mm
01:49 PM 51.5°F10.8°C 30.9°F-0.6°C 45% 6.2 mph E10.0 kmh E 10.0 mph16.1 kmh 30.23 in1023.7 mb 0.00 in0.0 mm 0.00 in0.0 mm 0.00 in0.0 mm
01:50 PM 51.6°F10.9°C 31.5°F-0.3°C 46% 9.1 mph E14.6 kmh E 12.0 mph19.3 kmh 30.23 in1023.7 mb 0.00 in0.0 mm 0.00 in0.0 mm 0.00 in0.0 mm
01:51 PM 51.6°F10.9°C 31.5°F-0.3°C 46% 6.9 mph ENE11.1 kmh ENE 13.0 mph20.9 kmh 30.23 in1023.7 mb 0.00 in0.0 mm 0.00 in0.0 mm 0.00 in0.0 mm
01:52 PM 51.6°F10.9°C 31.5°F-0.3°C 46% 6.5 mph E10.5 kmh E 13.0 mph20.9 kmh 30.22 in1023.4 mb 0.00 in0.0 mm 0.00 in0.0 mm 0.00 in0.0 mm
01:53 PM 51.6°F10.9°C 31.5°F-0.3°C 46% 4.7 mph E7.6 kmh E 13.0 mph20.9 kmh 30.23 in1023.7 mb 0.00 in0.0 mm 0.00 in0.0 mm 0.00 in0.0 mm
01:54 PM 51.6°F10.9°C 31.5°F-0.3°C 46% 7.9 mph E12.7 kmh E 12.0 mph19.3 kmh 30.23 in1023.7 mb 0.00 in0.0 mm 0.00 in0.0 mm 0.00 in0.0 mm
01:55 PM 51.5°F10.8°C 31.4°F-0.3°C 46% 7.8 mph E12.6 kmh E 13.0 mph20.9 kmh 30.23 in1023.7 mb 0.00 in0.0 mm 0.00 in0.0 mm 0.00 in0.0 mm
01:56 PM 51.5°F10.8°C 31.4°F-0.3°C 46% 3.0 mph E4.8 kmh E 13.0 mph20.9 kmh 30.23 in1023.7 mb 0.00 in0.0 mm 0.00 in0.0 mm 0.00 in0.0 mm
01:57 PM 51.4°F10.8°C 31.3°F-0.4°C 46% 3.6 mph E5.8 kmh E 9.0 mph14.5 kmh 30.22 in1023.4 mb 0.00 in0.0 mm 0.00 in0.0 mm 0.00 in0.0 mm
01:58 PM 51.4°F10.8°C 31.9°F-0.1°C 47% 2.3 mph E3.7 kmh E 8.0 mph12.9 kmh 30.22 in1023.4 mb 0.00 in0.0 mm 0.00 in0.0 mm 0.00 in0.0 mm
01:59 PM 51.5°F10.8°C 31.9°F-0.1°C 47% 0.9 mph E1.4 kmh E 6.0 mph9.7 kmh 30.22 in1023.4 mb 0.00 in0.0 mm 0.00 in0.0 mm 0.00 in0.0 mm
02:00 PM 51.7°F10.9°C 32.1°F0.1°C 47% 2.9 mph E4.7 kmh E 8.0 mph12.9 kmh 30.22 in1023.4 mb 0.00 in0.0 mm 0.00 in0.0 mm 0.00 in0.0 mm
02:01 PM 51.9°F11.1°C 31.8°F-0.1°C 46% 4.7 mph E7.6 kmh E 8.0 mph12.9 kmh 30.22 in1023.4 mb 0.00 in0.0 mm 0.00 in0.0 mm 0.00 in0.0 mm
02:02 PM 51.9°F11.1°C 31.8°F-0.1°C 46% 8.8 mph ENE14.2 kmh ENE 12.0 mph19.3 kmh 30.22 in1023.4 mb 0.00 in0.0 mm 0.00 in0.0 mm 0.00 in0.0 mm
02:03 PM 51.9°F11.1°C 31.8°F-0.1°C 46% 6.1 mph E9.8 kmh E 12.0 mph19.3 kmh 30.23 in1023.7 mb 0.00 in0.0 mm 0.00 in0.0 mm 0.00 in0.0 mm
02:04 PM 51.9°F11.1°C 31.8°F-0.1°C 46% 3.5 mph E5.6 kmh E 10.0 mph16.1 kmh 30.22 in1023.4 mb 0.00 in0.0 mm 0.00 in0.0 mm 0.00 in0.0 mm
02:05 PM 51.9°F11.1°C 31.8°F-0.1°C 46% 3.7 mph E6.0 kmh E 9.0 mph14.5 kmh 30.22 in1023.4 mb 0.00 in0.0 mm 0.00 in0.0 mm 0.00 in0.0 mm
02:06 PM 51.9°F11.1°C 31.8°F-0.1°C 46% 6.3 mph E10.1 kmh E 11.0 mph17.7 kmh 30.22 in1023.4 mb 0.00 in0.0 mm 0.00 in0.0 mm 0.00 in0.0 mm
02:07 PM 51.9°F11.1°C 31.8°F-0.1°C 46% 5.1 mph E8.2 kmh E 11.0 mph17.7 kmh 30.22 in1023.4 mb 0.00 in0.0 mm 0.00 in0.0 mm 0.00 in0.0 mm
02:08 PM 51.9°F11.1°C 31.8°F-0.1°C 46% 6.8 mph E10.9 kmh E 12.0 mph19.3 kmh 30.22 in1023.4 mb 0.00 in0.0 mm 0.00 in0.0 mm 0.00 in0.0 mm
02:09 PM 51.9°F11.1°C 31.8°F-0.1°C 46% 5.8 mph E9.3 kmh E 12.0 mph19.3 kmh 30.22 in1023.4 mb 0.00 in0.0 mm 0.00 in0.0 mm 0.00 in0.0 mm
02:10 PM 51.9°F11.1°C 31.8°F-0.1°C 46% 5.2 mph E8.4 kmh E 10.0 mph16.1 kmh 30.21 in1023.0 mb 0.00 in0.0 mm 0.00 in0.0 mm 0.00 in0.0 mm
02:11 PM 51.9°F11.1°C 31.8°F-0.1°C 46% 8.4 mph E13.5 kmh E 15.0 mph24.1 kmh 30.22 in1023.4 mb 0.00 in0.0 mm 0.00 in0.0 mm 0.00 in0.0 mm
02:12 PM 51.9°F11.1°C 31.2°F-0.4°C 45% 6.7 mph E10.8 kmh E 15.0 mph24.1 kmh 30.22 in1023.4 mb 0.00 in0.0 mm 0.00 in0.0 mm 0.00 in0.0 mm
02:13 PM 51.9°F11.1°C 31.8°F-0.1°C 46% 6.8 mph E10.9 kmh E 10.0 mph16.1 kmh 30.22 in1023.4 mb 0.00 in0.0 mm 0.00 in0.0 mm 0.00 in0.0 mm
02:14 PM 51.9°F11.1°C 31.8°F-0.1°C 46% 5.9 mph E9.5 kmh E 10.0 mph16.1 kmh 30.21 in1023.0 mb 0.00 in0.0 mm 0.00 in0.0 mm 0.00 in0.0 mm
02:15 PM 51.9°F11.1°C 31.8°F-0.1°C 46% 4.1 mph ESE6.6 kmh ESE 10.0 mph16.1 kmh 30.21 in1023.0 mb 0.00 in0.0 mm 0.00 in0.0 mm 0.00 in0.0 mm
02:16 PM 52.0°F11.1°C 31.9°F-0.1°C 46% 3.2 mph E5.1 kmh E 7.0 mph11.3 kmh 30.21 in1023.0 mb 0.00 in0.0 mm 0.00 in0.0 mm 0.00 in0.0 mm
02:17 PM 52.1°F11.2°C 32.0°F0.0°C 46% 2.8 mph E4.5 kmh E 7.0 mph11.3 kmh 30.21 in1023.0 mb 0.00 in0.0 mm 0.00 in0.0 mm 0.00 in0.0 mm
02:18 PM 52.2°F11.2°C 32.1°F0.1°C 46% 7.1 mph E11.4 kmh E 11.0 mph17.7 kmh 30.22 in1023.4 mb 0.00 in0.0 mm 0.00 in0.0 mm 0.00 in0.0 mm
02:19 PM 52.3°F11.3°C 32.1°F0.1°C 46% 4.9 mph NE7.9 kmh NE 11.0 mph17.7 kmh 30.21 in1023.0 mb 0.00 in0.0 mm 0.00 in0.0 mm 0.00 in0.0 mm
02:20 PM 52.2°F11.2°C 32.1°F0.1°C 46% 3.9 mph E6.3 kmh E 11.0 mph17.7 kmh 30.21 in1023.0 mb 0.00 in0.0 mm 0.00 in0.0 mm 0.00 in0.0 mm
02:21 PM 52.2°F11.2°C 32.1°F0.1°C 46% 5.4 mph N8.7 kmh N 11.0 mph17.7 kmh 30.21 in1023.0 mb 0.00 in0.0 mm 0.00 in0.0 mm 0.00 in0.0 mm
02:22 PM 52.3°F11.3°C 32.1°F0.1°C 46% 6.7 mph ENE10.8 kmh ENE 11.0 mph17.7 kmh 30.21 in1023.0 mb 0.00 in0.0 mm 0.00 in0.0 mm 0.00 in0.0 mm
02:23 PM 52.3°F11.3°C 32.1°F0.1°C 46% 1.7 mph E2.7 kmh E 11.0 mph17.7 kmh 30.21 in1023.0 mb 0.00 in0.0 mm 0.00 in0.0 mm 0.00 in0.0 mm
02:24 PM 52.3°F11.3°C 32.1°F0.1°C 46% 2.2 mph E3.5 kmh E 11.0 mph17.7 kmh 30.21 in1023.0 mb 0.00 in0.0 mm 0.00 in0.0 mm 0.00 in0.0 mm
02:25 PM 52.4°F11.3°C 32.2°F0.1°C 46% 9.4 mph NE15.1 kmh NE 15.0 mph24.1 kmh 30.21 in1023.0 mb 0.00 in0.0 mm 0.00 in0.0 mm 0.00 in0.0 mm
02:26 PM 52.4°F11.3°C 31.7°F-0.2°C 45% 2.1 mph NE3.4 kmh NE 15.0 mph24.1 kmh 30.21 in1023.0 mb 0.00 in0.0 mm 0.00 in0.0 mm 0.00 in0.0 mm
02:27 PM 52.4°F11.3°C 31.7°F-0.2°C 45% 11.1 mph SE17.9 kmh SE 17.0 mph27.4 kmh 30.21 in1023.0 mb 0.00 in0.0 mm 0.00 in0.0 mm 0.00 in0.0 mm
02:28 PM 52.4°F11.3°C 31.7°F-0.2°C 45% 6.6 mph E10.6 kmh E 17.0 mph27.4 kmh 30.21 in1023.0 mb 0.00 in0.0 mm 0.00 in0.0 mm 0.00 in0.0 mm
02:29 PM 52.5°F11.4°C 31.8°F-0.1°C 45% 5.8 mph SE9.3 kmh SE 13.0 mph20.9 kmh 30.21 in1023.0 mb 0.00 in0.0 mm 0.00 in0.0 mm 0.00 in0.0 mm
02:30 PM 52.5°F11.4°C 31.8°F-0.1°C 45% 3.7 mph ESE6.0 kmh ESE 14.0 mph22.5 kmh 30.21 in1023.0 mb 0.00 in0.0 mm 0.00 in0.0 mm 0.00 in0.0 mm
02:31 PM 52.5°F11.4°C 31.8°F-0.1°C 45% 7.7 mph ESE12.4 kmh ESE 14.0 mph22.5 kmh 30.21 in1023.0 mb 0.00 in0.0 mm 0.00 in0.0 mm 0.00 in0.0 mm
02:32 PM 52.5°F11.4°C 31.8°F-0.1°C 45% 5.1 mph E8.2 kmh E 11.0 mph17.7 kmh 30.21 in1023.0 mb 0.00 in0.0 mm 0.00 in0.0 mm 0.00 in0.0 mm
02:33 PM 52.5°F11.4°C 32.3°F0.2°C 46% 4.3 mph SE6.9 kmh SE 11.0 mph17.7 kmh 30.21 in1023.0 mb 0.00 in0.0 mm 0.00 in0.0 mm 0.00 in0.0 mm
02:34 PM 52.5°F11.4°C 32.3°F0.2°C 46% 7.7 mph SE12.4 kmh SE 18.0 mph29.0 kmh 30.21 in1023.0 mb 0.00 in0.0 mm 0.00 in0.0 mm 0.00 in0.0 mm
02:35 PM 52.6°F11.4°C 32.4°F0.2°C 46% 1.8 mph ESE2.9 kmh ESE 18.0 mph29.0 kmh 30.21 in1023.0 mb 0.00 in0.0 mm 0.00 in0.0 mm 0.00 in0.0 mm
02:36 PM 52.6°F11.4°C 32.4°F0.2°C 46% 6.7 mph E10.8 kmh E 15.0 mph24.1 kmh 30.21 in1023.0 mb 0.00 in0.0 mm 0.00 in0.0 mm 0.00 in0.0 mm
02:37 PM 52.6°F11.4°C 32.4°F0.2°C 46% 9.4 mph E15.1 kmh E 15.0 mph24.1 kmh 30.21 in1023.0 mb 0.00 in0.0 mm 0.00 in0.0 mm 0.00 in0.0 mm
02:38 PM 52.4°F11.3°C 32.2°F0.1°C 46% 8.2 mph E13.2 kmh E 15.0 mph24.1 kmh 30.21 in1023.0 mb 0.00 in0.0 mm 0.00 in0.0 mm 0.00 in0.0 mm
02:39 PM 52.3°F11.3°C 32.1°F0.1°C 46% 4.7 mph ENE7.6 kmh ENE 12.0 mph19.3 kmh 30.21 in1023.0 mb 0.00 in0.0 mm 0.00 in0.0 mm 0.00 in0.0 mm
02:40 PM 52.3°F11.3°C 32.1°F0.1°C 46% 7.3 mph ENE11.7 kmh ENE 10.0 mph16.1 kmh 30.20 in1022.7 mb 0.00 in0.0 mm 0.00 in0.0 mm 0.00 in0.0 mm
02:41 PM 52.3°F11.3°C 32.1°F0.1°C 46% 2.4 mph ENE3.9 kmh ENE 10.0 mph16.1 kmh 30.21 in1023.0 mb 0.00 in0.0 mm 0.00 in0.0 mm 0.00 in0.0 mm
02:42 PM 52.3°F11.3°C 32.1°F0.1°C 46% 0.7 mph E1.1 kmh E 7.0 mph11.3 kmh 30.20 in1022.7 mb 0.00 in0.0 mm 0.00 in0.0 mm 0.00 in0.0 mm
02:43 PM 52.4°F11.3°C 32.2°F0.1°C 46% 3.7 mph ENE6.0 kmh ENE 7.0 mph11.3 kmh 30.20 in1022.7 mb 0.00 in0.0 mm 0.00 in0.0 mm 0.00 in0.0 mm
02:44 PM 52.5°F11.4°C 32.3°F0.2°C 46% 4.0 mph ENE6.4 kmh ENE 9.0 mph14.5 kmh 30.20 in1022.7 mb 0.00 in0.0 mm 0.00 in0.0 mm 0.00 in0.0 mm
02:45 PM 52.6°F11.4°C 31.9°F-0.1°C 45% 4.7 mph E7.6 kmh E 9.0 mph14.5 kmh 30.20 in1022.7 mb 0.00 in0.0 mm 0.00 in0.0 mm 0.00 in0.0 mm
02:46 PM 52.6°F11.4°C 32.4°F0.2°C 46% 3.6 mph E5.8 kmh E 9.0 mph14.5 kmh 30.20 in1022.7 mb 0.00 in0.0 mm 0.00 in0.0 mm 0.00 in0.0 mm
02:47 PM 52.6°F11.4°C 31.9°F-0.1°C 45% 4.5 mph ENE7.2 kmh ENE 11.0 mph17.7 kmh 30.20 in1022.7 mb 0.00 in0.0 mm 0.00 in0.0 mm 0.00 in0.0 mm
02:48 PM 52.6°F11.4°C 31.9°F-0.1°C 45% 2.2 mph E3.5 kmh E 11.0 mph17.7 kmh 30.21 in1023.0 mb 0.00 in0.0 mm 0.00 in0.0 mm 0.00 in0.0 mm
02:49 PM 52.7°F11.5°C 32.0°F0.0°C 45% 5.3 mph E8.5 kmh E 9.0 mph14.5 kmh 30.20 in1022.7 mb 0.00 in0.0 mm 0.00 in0.0 mm 0.00 in0.0 mm
02:50 PM 52.7°F11.5°C 32.0°F0.0°C 45% 6.1 mph E9.8 kmh E 10.0 mph16.1 kmh 30.20 in1022.7 mb 0.00 in0.0 mm 0.00 in0.0 mm 0.00 in0.0 mm
02:51 PM 52.7°F11.5°C 32.0°F0.0°C 45% 4.0 mph E6.4 kmh E 10.0 mph16.1 kmh 30.20 in1022.7 mb 0.00 in0.0 mm 0.00 in0.0 mm 0.00 in0.0 mm
02:52 PM 52.7°F11.5°C 32.0°F0.0°C 45% 4.2 mph E6.8 kmh E 9.0 mph14.5 kmh 30.20 in1022.7 mb 0.00 in0.0 mm 0.00 in0.0 mm 0.00 in0.0 mm
02:53 PM 52.8°F11.6°C 31.5°F-0.3°C 44% 6.6 mph ENE10.6 kmh ENE 10.0 mph16.1 kmh 30.20 in1022.7 mb 0.00 in0.0 mm 0.00 in0.0 mm 0.00 in0.0 mm
02:54 PM 52.8°F11.6°C 31.5°F-0.3°C 44% 6.5 mph ENE10.5 kmh ENE 13.0 mph20.9 kmh 30.20 in1022.7 mb 0.00 in0.0 mm 0.00 in0.0 mm 0.00 in0.0 mm
02:55 PM 52.7°F11.5°C 31.4°F-0.3°C 44% 3.5 mph NE5.6 kmh NE 13.0 mph20.9 kmh 30.20 in1022.7 mb 0.00 in0.0 mm 0.00 in0.0 mm 0.00 in0.0 mm
02:56 PM 52.7°F11.5°C 31.4°F-0.3°C 44% 1.0 mph NE1.6 kmh NE 12.0 mph19.3 kmh 30.20 in1022.7 mb 0.00 in0.0 mm 0.00 in0.0 mm 0.00 in0.0 mm
02:57 PM 52.8°F11.6°C 31.5°F-0.3°C 44% 5.2 mph ESE8.4 kmh ESE 9.0 mph14.5 kmh 30.20 in1022.7 mb 0.00 in0.0 mm 0.00 in0.0 mm 0.00 in0.0 mm
02:58 PM 52.8°F11.6°C 31.5°F-0.3°C 44% 2.1 mph ESE3.4 kmh ESE 9.0 mph14.5 kmh 30.20 in1022.7 mb 0.00 in0.0 mm 0.00 in0.0 mm 0.00 in0.0 mm
02:59 PM 52.8°F11.6°C 31.5°F-0.3°C 44% 4.1 mph E6.6 kmh E 10.0 mph16.1 kmh 30.20 in1022.7 mb 0.00 in0.0 mm 0.00 in0.0 mm 0.00 in0.0 mm
03:00 PM 52.9°F11.6°C 31.0°F-0.6°C 43% 7.7 mph E12.4 kmh E 12.0 mph19.3 kmh 30.20 in1022.7 mb 0.00 in0.0 mm 0.00 in0.0 mm 0.00 in0.0 mm
03:01 PM 52.9°F11.6°C 31.0°F-0.6°C 43% 9.4 mph E15.1 kmh E 15.0 mph24.1 kmh 30.20 in1022.7 mb 0.00 in0.0 mm 0.00 in0.0 mm 0.00 in0.0 mm
03:02 PM 52.8°F11.6°C 29.8°F-1.2°C 41% 5.7 mph E9.2 kmh E 15.0 mph24.1 kmh 30.20 in1022.7 mb 0.00 in0.0 mm 0.00 in0.0 mm 0.00 in0.0 mm
03:03 PM 52.7°F11.5°C 29.7°F-1.3°C 41% 3.4 mph ENE5.5 kmh ENE 9.0 mph14.5 kmh 30.20 in1022.7 mb 0.00 in0.0 mm 0.00 in0.0 mm 0.00 in0.0 mm
03:04 PM 52.7°F11.5°C 29.7°F-1.3°C 41% 5.4 mph ESE8.7 kmh ESE 10.0 mph16.1 kmh 30.20 in1022.7 mb 0.00 in0.0 mm 0.00 in0.0 mm 0.00 in0.0 mm
03:05 PM 52.7°F11.5°C 29.7°F-1.3°C 41% 5.2 mph SE8.4 kmh SE 12.0 mph19.3 kmh 30.20 in1022.7 mb 0.00 in0.0 mm 0.00 in0.0 mm 0.00 in0.0 mm
03:06 PM 52.8°F11.6°C 30.3°F-0.9°C 42% 5.4 mph E8.7 kmh E 12.0 mph19.3 kmh 30.20 in1022.7 mb 0.00 in0.0 mm 0.00 in0.0 mm 0.00 in0.0 mm
03:07 PM 52.9°F11.6°C 29.8°F-1.2°C 41% 4.9 mph E7.9 kmh E 11.0 mph17.7 kmh 30.20 in1022.7 mb 0.00 in0.0 mm 0.00 in0.0 mm 0.00 in0.0 mm
03:08 PM 52.9°F11.6°C 29.8°F-1.2°C 41% 1.0 mph E1.6 kmh E 9.0 mph14.5 kmh 30.20 in1022.7 mb 0.00 in0.0 mm 0.00 in0.0 mm 0.00 in0.0 mm
03:09 PM 52.9°F11.6°C 29.8°F-1.2°C 41% 4.0 mph E6.4 kmh E 7.0 mph11.3 kmh 30.20 in1022.7 mb 0.00 in0.0 mm 0.00 in0.0 mm 0.00 in0.0 mm
03:10 PM 53.0°F11.7°C 29.9°F-1.2°C 41% 2.7 mph E4.3 kmh E 7.0 mph11.3 kmh 30.20 in1022.7 mb 0.00 in0.0 mm 0.00 in0.0 mm 0.00 in0.0 mm
03:11 PM 53.0°F11.7°C 29.9°F-1.2°C 41% 3.6 mph E5.8 kmh E 7.0 mph11.3 kmh 30.19 in1022.4 mb 0.00 in0.0 mm 0.00 in0.0 mm 0.00 in0.0 mm
03:12 PM 53.0°F11.7°C 29.9°F-1.2°C 41% 5.0 mph E8.0 kmh E 8.0 mph12.9 kmh 30.19 in1022.4 mb 0.00 in0.0 mm 0.00 in0.0 mm 0.00 in0.0 mm
03:13 PM 53.0°F11.7°C 29.9°F-1.2°C 41% 7.6 mph ENE12.2 kmh ENE 12.0 mph19.3 kmh 30.19 in1022.4 mb 0.00 in0.0 mm 0.00 in0.0 mm 0.00 in0.0 mm
03:14 PM 53.0°F11.7°C 29.9°F-1.2°C 41% 3.4 mph E5.5 kmh E 12.0 mph19.3 kmh 30.19 in1022.4 mb 0.00 in0.0 mm 0.00 in0.0 mm 0.00 in0.0 mm
03:15 PM 53.0°F11.7°C 29.9°F-1.2°C 41% 7.1 mph ENE11.4 kmh ENE 12.0 mph19.3 kmh 30.19 in1022.4 mb 0.00 in0.0 mm 0.00 in0.0 mm 0.00 in0.0 mm
03:16 PM 52.9°F11.6°C 29.8°F-1.2°C 41% 4.5 mph ENE7.2 kmh ENE 12.0 mph19.3 kmh 30.19 in1022.4 mb 0.00 in0.0 mm 0.00 in0.0 mm 0.00 in0.0 mm
03:17 PM 52.9°F11.6°C 29.8°F-1.2°C 41% 3.8 mph ENE6.1 kmh ENE 10.0 mph16.1 kmh 30.19 in1022.4 mb 0.00 in0.0 mm 0.00 in0.0 mm 0.00 in0.0 mm
03:18 PM 52.9°F11.6°C 29.8°F-1.2°C 41% 6.9 mph ENE11.1 kmh ENE 12.0 mph19.3 kmh 30.19 in1022.4 mb 0.00 in0.0 mm 0.00 in0.0 mm 0.00 in0.0 mm
03:19 PM 52.8°F11.6°C 29.8°F-1.2°C 41% 2.9 mph E4.7 kmh E 12.0 mph19.3 kmh 30.19 in1022.4 mb 0.00 in0.0 mm 0.00 in0.0 mm 0.00 in0.0 mm
03:20 PM 52.9°F11.6°C 29.8°F-1.2°C 41% 3.5 mph E5.6 kmh E 7.0 mph11.3 kmh 30.19 in1022.4 mb 0.00 in0.0 mm 0.00 in0.0 mm 0.00 in0.0 mm
03:21 PM 52.9°F11.6°C 29.8°F-1.2°C 41% 4.2 mph E6.8 kmh E 11.0 mph17.7 kmh 30.19 in1022.4 mb 0.00 in0.0 mm 0.00 in0.0 mm 0.00 in0.0 mm
03:22 PM 52.9°F11.6°C 29.8°F-1.2°C 41% 7.0 mph E11.3 kmh E 13.0 mph20.9 kmh 30.19 in1022.4 mb 0.00 in0.0 mm 0.00 in0.0 mm 0.00 in0.0 mm
03:23 PM 52.9°F11.6°C 29.2°F-1.6°C 40% 10.0 mph E16.1 kmh E 13.0 mph20.9 kmh 30.19 in1022.4 mb 0.00 in0.0 mm 0.00 in0.0 mm 0.00 in0.0 mm
03:24 PM 52.9°F11.6°C 29.8°F-1.2°C 41% 11.1 mph E17.9 kmh E 17.0 mph27.4 kmh 30.19 in1022.4 mb 0.00 in0.0 mm 0.00 in0.0 mm 0.00 in0.0 mm
03:25 PM 52.8°F11.6°C 29.2°F-1.6°C 40% 9.1 mph E14.6 kmh E 17.0 mph27.4 kmh 30.19 in1022.4 mb 0.00 in0.0 mm 0.00 in0.0 mm 0.00 in0.0 mm
03:26 PM 52.7°F11.5°C 29.1°F-1.6°C 40% 9.2 mph E14.8 kmh E 13.0 mph20.9 kmh 30.19 in1022.4 mb 0.00 in0.0 mm 0.00 in0.0 mm 0.00 in0.0 mm
03:27 PM 52.6°F11.4°C 29.0°F-1.7°C 40% 7.6 mph E12.2 kmh E 13.0 mph20.9 kmh 30.19 in1022.4 mb 0.00 in0.0 mm 0.00 in0.0 mm 0.00 in0.0 mm
03:28 PM 52.6°F11.4°C 29.6°F-1.3°C 41% 9.4 mph ENE15.1 kmh ENE 13.0 mph20.9 kmh 30.18 in1022.0 mb 0.00 in0.0 mm 0.00 in0.0 mm 0.00 in0.0 mm
03:29 PM 52.6°F11.4°C 29.6°F-1.3°C 41% 5.3 mph ENE8.5 kmh ENE 12.0 mph19.3 kmh 30.19 in1022.4 mb 0.00 in0.0 mm 0.00 in0.0 mm 0.00 in0.0 mm
03:30 PM 52.6°F11.4°C 29.6°F-1.3°C 41% 3.2 mph NE5.1 kmh NE 12.0 mph19.3 kmh 30.18 in1022.0 mb 0.00 in0.0 mm 0.00 in0.0 mm 0.00 in0.0 mm
03:31 PM 52.7°F11.5°C 29.7°F-1.3°C 41% 4.7 mph NE7.6 kmh NE 10.0 mph16.1 kmh 30.18 in1022.0 mb 0.00 in0.0 mm 0.00 in0.0 mm 0.00 in0.0 mm
03:32 PM 52.7°F11.5°C 29.7°F-1.3°C 41% 4.7 mph ENE7.6 kmh ENE 9.0 mph14.5 kmh 30.18 in1022.0 mb 0.00 in0.0 mm 0.00 in0.0 mm 0.00 in0.0 mm
03:33 PM 52.7°F11.5°C 29.7°F-1.3°C 41% 7.9 mph E12.7 kmh E 13.0 mph20.9 kmh 30.18 in1022.0 mb 0.00 in0.0 mm 0.00 in0.0 mm 0.00 in0.0 mm
03:34 PM 52.7°F11.5°C 29.7°F-1.3°C 41% 4.6 mph E7.4 kmh E 13.0 mph20.9 kmh 30.18 in1022.0 mb 0.00 in0.0 mm 0.00 in0.0 mm 0.00 in0.0 mm
03:35 PM 52.8°F11.6°C 29.8°F-1.2°C 41% 5.3 mph E8.5 kmh E 9.0 mph14.5 kmh 30.19 in1022.4 mb 0.00 in0.0 mm 0.00 in0.0 mm 0.00 in0.0 mm
03:36 PM 52.8°F11.6°C 29.8°F-1.2°C 41% 4.1 mph E6.6 kmh E 9.0 mph14.5 kmh 30.18 in1022.0 mb 0.00 in0.0 mm 0.00 in0.0 mm 0.00 in0.0 mm
03:37 PM 52.9°F11.6°C 29.8°F-1.2°C 41% 5.1 mph E8.2 kmh E 9.0 mph14.5 kmh 30.18 in1022.0 mb 0.00 in0.0 mm 0.00 in0.0 mm 0.00 in0.0 mm
03:38 PM 52.9°F11.6°C 29.8°F-1.2°C 41% 5.8 mph E9.3 kmh E 9.0 mph14.5 kmh 30.18 in1022.0 mb 0.00 in0.0 mm 0.00 in0.0 mm 0.00 in0.0 mm
03:39 PM 53.0°F11.7°C 29.9°F-1.2°C 41% 7.7 mph E12.4 kmh E 12.0 mph19.3 kmh 30.18 in1022.0 mb 0.00 in0.0 mm 0.00 in0.0 mm 0.00 in0.0 mm
03:40 PM 53.0°F11.7°C 29.9°F-1.2°C 41% 7.5 mph E12.1 kmh E 12.0 mph19.3 kmh 30.18 in1022.0 mb 0.00 in0.0 mm 0.00 in0.0 mm 0.00 in0.0 mm
03:41 PM 52.9°F11.6°C 29.2°F-1.6°C 40% 6.5 mph E10.5 kmh E 12.0 mph19.3 kmh 30.18 in1022.0 mb 0.00 in0.0 mm 0.00 in0.0 mm 0.00 in0.0 mm
03:42 PM 52.8°F11.6°C 29.2°F-1.6°C 40% 4.5 mph E7.2 kmh E 11.0 mph17.7 kmh 30.18 in1022.0 mb 0.00 in0.0 mm 0.00 in0.0 mm 0.00 in0.0 mm
03:43 PM 52.8°F11.6°C 29.2°F-1.6°C 40% 2.6 mph E4.2 kmh E 8.0 mph12.9 kmh 30.18 in1022.0 mb 0.00 in0.0 mm 0.00 in0.0 mm 0.00 in0.0 mm
03:44 PM 52.8°F11.6°C 29.2°F-1.6°C 40% 4.4 mph E7.1 kmh E 9.0 mph14.5 kmh 30.18 in1022.0 mb 0.00 in0.0 mm 0.00 in0.0 mm 0.00 in0.0 mm
03:45 PM 52.9°F11.6°C 29.2°F-1.6°C 40% 5.5 mph ENE8.9 kmh ENE 13.0 mph20.9 kmh 30.18 in1022.0 mb 0.00 in0.0 mm 0.00 in0.0 mm 0.00 in0.0 mm
03:46 PM 52.9°F11.6°C 29.2°F-1.6°C 40% 10.6 mph E17.1 kmh E 15.0 mph24.1 kmh 30.18 in1022.0 mb 0.00 in0.0 mm 0.00 in0.0 mm 0.00 in0.0 mm
03:47 PM 52.9°F11.6°C 29.2°F-1.6°C 40% 7.5 mph E12.1 kmh E 15.0 mph24.1 kmh 30.18 in1022.0 mb 0.00 in0.0 mm 0.00 in0.0 mm 0.00 in0.0 mm
03:48 PM 52.8°F11.6°C 29.8°F-1.2°C 41% 8.6 mph ENE13.8 kmh ENE 14.0 mph22.5 kmh 30.18 in1022.0 mb 0.00 in0.0 mm 0.00 in0.0 mm 0.00 in0.0 mm
03:49 PM 52.8°F11.6°C 29.8°F-1.2°C 41% 3.7 mph ENE6.0 kmh ENE 14.0 mph22.5 kmh 30.18 in1022.0 mb 0.00 in0.0 mm 0.00 in0.0 mm 0.00 in0.0 mm
03:50 PM 52.9°F11.6°C 29.8°F-1.2°C 41% 4.3 mph E6.9 kmh E 8.0 mph12.9 kmh 30.18 in1022.0 mb 0.00 in0.0 mm 0.00 in0.0 mm 0.00 in0.0 mm
03:51 PM 52.9°F11.6°C 29.8°F-1.2°C 41% 6.2 mph E10.0 kmh E 12.0 mph19.3 kmh 30.18 in1022.0 mb 0.00 in0.0 mm 0.00 in0.0 mm 0.00 in0.0 mm
03:52 PM 52.9°F11.6°C 29.8°F-1.2°C 41% 1.5 mph E2.4 kmh E 12.0 mph19.3 kmh 30.18 in1022.0 mb 0.00 in0.0 mm 0.00 in0.0 mm 0.00 in0.0 mm
03:53 PM 53.0°F11.7°C 29.9°F-1.2°C 41% 4.4 mph E7.1 kmh E 9.0 mph14.5 kmh 30.18 in1022.0 mb 0.00 in0.0 mm 0.00 in0.0 mm 0.00 in0.0 mm
03:54 PM 53.1°F11.7°C 30.6°F-0.8°C 42% 3.6 mph E5.8 kmh E 9.0 mph14.5 kmh 30.18 in1022.0 mb 0.00 in0.0 mm 0.00 in0.0 mm 0.00 in0.0 mm
03:55 PM 53.2°F11.8°C 30.7°F-0.7°C 42% 3.2 mph ENE5.1 kmh ENE 8.0 mph12.9 kmh 30.18 in1022.0 mb 0.00 in0.0 mm 0.00 in0.0 mm 0.00 in0.0 mm
03:56 PM 53.2°F11.8°C 30.7°F-0.7°C 42% 9.6 mph E15.4 kmh E 16.0 mph25.7 kmh 30.18 in1022.0 mb 0.00 in0.0 mm 0.00 in0.0 mm 0.00 in0.0 mm
03:57 PM 53.1°F11.7°C 30.0°F-1.1°C 41% 8.6 mph E13.8 kmh E 16.0 mph25.7 kmh 30.18 in1022.0 mb 0.00 in0.0 mm 0.00 in0.0 mm 0.00 in0.0 mm
03:58 PM 53.1°F11.7°C 30.0°F-1.1°C 41% 5.0 mph E8.0 kmh E 15.0 mph24.1 kmh 30.18 in1022.0 mb 0.00 in0.0 mm 0.00 in0.0 mm 0.00 in0.0 mm
03:59 PM 53.0°F11.7°C 30.5°F-0.8°C 42% 3.6 mph E5.8 kmh E 9.0 mph14.5 kmh 30.18 in1022.0 mb 0.00 in0.0 mm 0.00 in0.0 mm 0.00 in0.0 mm
04:00 PM 52.9°F11.6°C 30.4°F-0.9°C 42% 3.7 mph E6.0 kmh E 8.0 mph12.9 kmh 30.18 in1022.0 mb 0.00 in0.0 mm 0.00 in0.0 mm 0.00 in0.0 mm
04:01 PM 52.9°F11.6°C 30.4°F-0.9°C 42% 4.6 mph E7.4 kmh E 9.0 mph14.5 kmh 30.18 in1022.0 mb 0.00 in0.0 mm 0.00 in0.0 mm 0.00 in0.0 mm
04:02 PM 52.9°F11.6°C 30.4°F-0.9°C 42% 5.3 mph E8.5 kmh E 9.0 mph14.5 kmh 30.18 in1022.0 mb 0.00 in0.0 mm 0.00 in0.0 mm 0.00 in0.0 mm
04:03 PM 53.0°F11.7°C 30.5°F-0.8°C 42% 3.3 mph E5.3 kmh E 9.0 mph14.5 kmh 30.17 in1021.7 mb 0.00 in0.0 mm 0.00 in0.0 mm 0.00 in0.0 mm
04:04 PM 53.0°F11.7°C 30.5°F-0.8°C 42% 8.3 mph E13.4 kmh E 13.0 mph20.9 kmh 30.17 in1021.7 mb 0.00 in0.0 mm 0.00 in0.0 mm 0.00 in0.0 mm
04:05 PM 53.0°F11.7°C 31.1°F-0.5°C 43% 7.8 mph E12.6 kmh E 14.0 mph22.5 kmh 30.18 in1022.0 mb 0.00 in0.0 mm 0.00 in0.0 mm 0.00 in0.0 mm
04:06 PM 53.0°F11.7°C 31.1°F-0.5°C 43% 3.3 mph E5.3 kmh E 14.0 mph22.5 kmh 30.18 in1022.0 mb 0.00 in0.0 mm 0.00 in0.0 mm 0.00 in0.0 mm
04:07 PM 53.1°F11.7°C 30.6°F-0.8°C 42% 4.6 mph E7.4 kmh E 9.0 mph14.5 kmh 30.18 in1022.0 mb 0.00 in0.0 mm 0.00 in0.0 mm 0.00 in0.0 mm
04:08 PM 53.0°F11.7°C 30.5°F-0.8°C 42% 3.9 mph E6.3 kmh E 9.0 mph14.5 kmh 30.18 in1022.0 mb 0.00 in0.0 mm 0.00 in0.0 mm 0.00 in0.0 mm
04:09 PM 53.0°F11.7°C 30.5°F-0.8°C 42% 8.2 mph E13.2 kmh E 12.0 mph19.3 kmh 30.18 in1022.0 mb 0.00 in0.0 mm 0.00 in0.0 mm 0.00 in0.0 mm
04:10 PM 53.0°F11.7°C 31.1°F-0.5°C 43% 6.7 mph ENE10.8 kmh ENE 12.0 mph19.3 kmh 30.17 in1021.7 mb 0.00 in0.0 mm 0.00 in0.0 mm 0.00 in0.0 mm
04:11 PM 53.0°F11.7°C 30.5°F-0.8°C 42% 7.3 mph E11.7 kmh E 12.0 mph19.3 kmh 30.18 in1022.0 mb 0.00 in0.0 mm 0.00 in0.0 mm 0.00 in0.0 mm
04:12 PM 52.9°F11.6°C 30.4°F-0.9°C 42% 5.0 mph NE8.0 kmh NE 12.0 mph19.3 kmh 30.17 in1021.7 mb 0.00 in0.0 mm 0.00 in0.0 mm 0.00 in0.0 mm
04:13 PM 52.9°F11.6°C 30.4°F-0.9°C 42% 6.1 mph E9.8 kmh E 11.0 mph17.7 kmh 30.17 in1021.7 mb 0.00 in0.0 mm 0.00 in0.0 mm 0.00 in0.0 mm
04:14 PM 52.9°F11.6°C 30.4°F-0.9°C 42% 6.5 mph E10.5 kmh E 11.0 mph17.7 kmh 30.17 in1021.7 mb 0.00 in0.0 mm 0.00 in0.0 mm 0.00 in0.0 mm
04:15 PM 52.9°F11.6°C 31.0°F-0.6°C 43% 5.0 mph E8.0 kmh E 11.0 mph17.7 kmh 30.17 in1021.7 mb 0.00 in0.0 mm 0.00 in0.0 mm 0.00 in0.0 mm
04:16 PM 52.9°F11.6°C 31.0°F-0.6°C 43% 5.2 mph E8.4 kmh E 11.0 mph17.7 kmh 30.17 in1021.7 mb 0.00 in0.0 mm 0.00 in0.0 mm 0.00 in0.0 mm
04:17 PM 52.9°F11.6°C 30.4°F-0.9°C 42% 7.5 mph E12.1 kmh E 12.0 mph19.3 kmh 30.17 in1021.7 mb 0.00 in0.0 mm 0.00 in0.0 mm 0.00 in0.0 mm
04:18 PM 52.9°F11.6°C 30.4°F-0.9°C 42% 5.7 mph E9.2 kmh E 12.0 mph19.3 kmh 30.17 in1021.7 mb 0.00 in0.0 mm 0.00 in0.0 mm 0.00 in0.0 mm
04:19 PM 52.9°F11.6°C 30.4°F-0.9°C 42% 5.6 mph E9.0 kmh E 11.0 mph17.7 kmh 30.17 in1021.7 mb 0.00 in0.0 mm 0.00 in0.0 mm 0.00 in0.0 mm
04:20 PM 52.9°F11.6°C 30.4°F-0.9°C 42% 6.8 mph E10.9 kmh E 12.0 mph19.3 kmh 30.17 in1021.7 mb 0.00 in0.0 mm 0.00 in0.0 mm 0.00 in0.0 mm
04:21 PM 52.9°F11.6°C 30.4°F-0.9°C 42% 7.1 mph E11.4 kmh E 12.0 mph19.3 kmh 30.17 in1021.7 mb 0.00 in0.0 mm 0.00 in0.0 mm 0.00 in0.0 mm
04:22 PM 52.9°F11.6°C 30.4°F-0.9°C 42% 8.4 mph ENE13.5 kmh ENE 14.0 mph22.5 kmh 30.17 in1021.7 mb 0.00 in0.0 mm 0.00 in0.0 mm 0.00 in0.0 mm
04:23 PM 52.8°F11.6°C 30.3°F-0.9°C 42% 7.3 mph E11.7 kmh E 14.0 mph22.5 kmh 30.17 in1021.7 mb 0.00 in0.0 mm 0.00 in0.0 mm 0.00 in0.0 mm
04:24 PM 52.8°F11.6°C 30.3°F-0.9°C 42% 3.8 mph E6.1 kmh E 11.0 mph17.7 kmh 30.17 in1021.7 mb 0.00 in0.0 mm 0.00 in0.0 mm 0.00 in0.0 mm
04:25 PM 52.8°F11.6°C 30.3°F-0.9°C 42% 4.2 mph E6.8 kmh E 8.0 mph12.9 kmh 30.17 in1021.7 mb 0.00 in0.0 mm 0.00 in0.0 mm 0.00 in0.0 mm
04:26 PM 52.8°F11.6°C 30.3°F-0.9°C 42% 10.8 mph E17.4 kmh E 16.0 mph25.7 kmh 30.17 in1021.7 mb 0.00 in0.0 mm 0.00 in0.0 mm 0.00 in0.0 mm
04:27 PM 52.8°F11.6°C 30.3°F-0.9°C 42% 10.7 mph ENE17.2 kmh ENE 17.0 mph27.4 kmh 30.17 in1021.7 mb 0.00 in0.0 mm 0.00 in0.0 mm 0.00 in0.0 mm
04:28 PM 52.8°F11.6°C 30.3°F-0.9°C 42% 8.5 mph ENE13.7 kmh ENE 17.0 mph27.4 kmh 30.17 in1021.7 mb 0.00 in0.0 mm 0.00 in0.0 mm 0.00 in0.0 mm
04:29 PM 52.8°F11.6°C 30.3°F-0.9°C 42% 3.5 mph E5.6 kmh E 15.0 mph24.1 kmh 30.17 in1021.7 mb 0.00 in0.0 mm 0.00 in0.0 mm 0.00 in0.0 mm
04:30 PM 52.9°F11.6°C 30.4°F-0.9°C 42% 4.8 mph E7.7 kmh E 8.0 mph12.9 kmh 30.17 in1021.7 mb 0.00 in0.0 mm 0.00 in0.0 mm 0.00 in0.0 mm
04:31 PM 52.9°F11.6°C 30.4°F-0.9°C 42% 4.3 mph E6.9 kmh E 8.0 mph12.9 kmh 30.17 in1021.7 mb 0.00 in0.0 mm 0.00 in0.0 mm 0.00 in0.0 mm
04:32 PM 52.9°F11.6°C 30.4°F-0.9°C 42% 2.5 mph E4.0 kmh E 8.0 mph12.9 kmh 30.17 in1021.7 mb 0.00 in0.0 mm 0.00 in0.0 mm 0.00 in0.0 mm
04:33 PM 53.0°F11.7°C 30.5°F-0.8°C 42% 2.2 mph E3.5 kmh E 7.0 mph11.3 kmh 30.17 in1021.7 mb 0.00 in0.0 mm 0.00 in0.0 mm 0.00 in0.0 mm
04:34 PM 53.0°F11.7°C 30.5°F-0.8°C 42% 3.0 mph E4.8 kmh E 8.0 mph12.9 kmh 30.17 in1021.7 mb 0.00 in0.0 mm 0.00 in0.0 mm 0.00 in0.0 mm
04:35 PM 53.1°F11.7°C 30.0°F-1.1°C 41% 1.9 mph ESE3.1 kmh ESE 9.0 mph14.5 kmh 30.17 in1021.7 mb 0.00 in0.0 mm 0.00 in0.0 mm 0.00 in0.0 mm
04:36 PM 53.2°F11.8°C 30.1°F-1.1°C 41% 7.0 mph E11.3 kmh E 11.0 mph17.7 kmh 30.17 in1021.7 mb 0.00 in0.0 mm 0.00 in0.0 mm 0.00 in0.0 mm
04:37 PM 53.2°F11.8°C 30.1°F-1.1°C 41% 7.7 mph E12.4 kmh E 14.0 mph22.5 kmh 30.17 in1021.7 mb 0.00 in0.0 mm 0.00 in0.0 mm 0.00 in0.0 mm
04:38 PM 53.2°F11.8°C 30.1°F-1.1°C 41% 8.1 mph E13.0 kmh E 14.0 mph22.5 kmh 30.16 in1021.3 mb 0.00 in0.0 mm 0.00 in0.0 mm 0.00 in0.0 mm
04:39 PM 53.2°F11.8°C 30.1°F-1.1°C 41% 7.7 mph E12.4 kmh E 14.0 mph22.5 kmh 30.17 in1021.7 mb 0.00 in0.0 mm 0.00 in0.0 mm 0.00 in0.0 mm
04:40 PM 53.1°F11.7°C 30.0°F-1.1°C 41% 8.4 mph E13.5 kmh E 14.0 mph22.5 kmh 30.16 in1021.3 mb 0.00 in0.0 mm 0.00 in0.0 mm 0.00 in0.0 mm
04:41 PM 53.1°F11.7°C 30.0°F-1.1°C 41% 6.6 mph ENE10.6 kmh ENE 11.0 mph17.7 kmh 30.17 in1021.7 mb 0.00 in0.0 mm 0.00 in0.0 mm 0.00 in0.0 mm
04:42 PM 53.0°F11.7°C 29.9°F-1.2°C 41% 8.3 mph ENE13.4 kmh ENE 12.0 mph19.3 kmh 30.17 in1021.7 mb 0.00 in0.0 mm 0.00 in0.0 mm 0.00 in0.0 mm
04:43 PM 53.0°F11.7°C 29.9°F-1.2°C 41% 7.9 mph E12.7 kmh E 12.0 mph19.3 kmh 30.17 in1021.7 mb 0.00 in0.0 mm 0.00 in0.0 mm 0.00 in0.0 mm
04:44 PM 52.9°F11.6°C 29.8°F-1.2°C 41% 5.7 mph E9.2 kmh E 12.0 mph19.3 kmh 30.17 in1021.7 mb 0.00 in0.0 mm 0.00 in0.0 mm 0.00 in0.0 mm
04:45 PM 52.9°F11.6°C 29.8°F-1.2°C 41% 6.5 mph E10.5 kmh E 11.0 mph17.7 kmh 30.17 in1021.7 mb 0.00 in0.0 mm 0.00 in0.0 mm 0.00 in0.0 mm
04:46 PM 52.9°F11.6°C 29.8°F-1.2°C 41% 7.7 mph E12.4 kmh E 11.0 mph17.7 kmh 30.16 in1021.3 mb 0.00 in0.0 mm 0.00 in0.0 mm 0.00 in0.0 mm
04:47 PM 52.8°F11.6°C 29.8°F-1.2°C 41% 4.4 mph E7.1 kmh E 11.0 mph17.7 kmh 30.16 in1021.3 mb 0.00 in0.0 mm 0.00 in0.0 mm 0.00 in0.0 mm
04:48 PM 52.8°F11.6°C 29.8°F-1.2°C 41% 7.2 mph ENE11.6 kmh ENE 10.0 mph16.1 kmh 30.17 in1021.7 mb 0.00 in0.0 mm 0.00 in0.0 mm 0.00 in0.0 mm
04:49 PM 52.8°F11.6°C 29.8°F-1.2°C 41% 7.3 mph E11.7 kmh E 13.0 mph20.9 kmh 30.16 in1021.3 mb 0.00 in0.0 mm 0.00 in0.0 mm 0.00 in0.0 mm
04:50 PM 52.8°F11.6°C 29.8°F-1.2°C 41% 6.6 mph ENE10.6 kmh ENE 13.0 mph20.9 kmh 30.16 in1021.3 mb 0.00 in0.0 mm 0.00 in0.0 mm 0.00 in0.0 mm
04:51 PM 52.7°F11.5°C 29.7°F-1.3°C 41% 5.5 mph E8.9 kmh E 13.0 mph20.9 kmh 30.16 in1021.3 mb 0.00 in0.0 mm 0.00 in0.0 mm 0.00 in0.0 mm
04:52 PM 52.7°F11.5°C 29.7°F-1.3°C 41% 8.3 mph E13.4 kmh E 13.0 mph20.9 kmh 30.16 in1021.3 mb 0.00 in0.0 mm 0.00 in0.0 mm 0.00 in0.0 mm
04:53 PM 52.7°F11.5°C 29.7°F-1.3°C 41% 8.9 mph E14.3 kmh E 13.0 mph20.9 kmh 30.16 in1021.3 mb 0.00 in0.0 mm 0.00 in0.0 mm 0.00 in0.0 mm
04:54 PM 52.7°F11.5°C 29.7°F-1.3°C 41% 8.5 mph ENE13.7 kmh ENE 14.0 mph22.5 kmh 30.16 in1021.3 mb 0.00 in0.0 mm 0.00 in0.0 mm 0.00 in0.0 mm
04:55 PM 52.6°F11.4°C 29.6°F-1.3°C 41% 6.5 mph E10.5 kmh E 14.0 mph22.5 kmh 30.16 in1021.3 mb 0.00 in0.0 mm 0.00 in0.0 mm 0.00 in0.0 mm
04:56 PM 52.6°F11.4°C 29.6°F-1.3°C 41% 7.1 mph E11.4 kmh E 11.0 mph17.7 kmh 30.16 in1021.3 mb 0.00 in0.0 mm 0.00 in0.0 mm 0.00 in0.0 mm
04:57 PM 52.6°F11.4°C 29.6°F-1.3°C 41% 5.2 mph ENE8.4 kmh ENE 11.0 mph17.7 kmh 30.16 in1021.3 mb 0.00 in0.0 mm 0.00 in0.0 mm 0.00 in0.0 mm
04:58 PM 52.7°F11.5°C 29.7°F-1.3°C 41% 3.9 mph E6.3 kmh E 10.0 mph16.1 kmh 30.16 in1021.3 mb 0.00 in0.0 mm 0.00 in0.0 mm 0.00 in0.0 mm
04:59 PM 52.7°F11.5°C 29.7°F-1.3°C 41% 6.9 mph E11.1 kmh E 12.0 mph19.3 kmh 30.16 in1021.3 mb 0.00 in0.0 mm 0.00 in0.0 mm 0.00 in0.0 mm
05:00 PM 52.7°F11.5°C 29.7°F-1.3°C 41% 3.0 mph E4.8 kmh E 12.0 mph19.3 kmh 30.16 in1021.3 mb 0.00 in0.0 mm 0.00 in0.0 mm 0.00 in0.0 mm
05:01 PM 52.7°F11.5°C 29.7°F-1.3°C 41% 6.7 mph E10.8 kmh E 10.0 mph16.1 kmh 30.16 in1021.3 mb 0.00 in0.0 mm 0.00 in0.0 mm 0.00 in0.0 mm
05:02 PM 52.8°F11.6°C 29.8°F-1.2°C 41% 8.6 mph E13.8 kmh E 12.0 mph19.3 kmh 30.16 in1021.3 mb 0.00 in0.0 mm 0.00 in0.0 mm 0.00 in0.0 mm
05:03 PM 52.7°F11.5°C 29.7°F-1.3°C 41% 9.9 mph E15.9 kmh E 13.0 mph20.9 kmh 30.16 in1021.3 mb 0.00 in0.0 mm 0.00 in0.0 mm 0.00 in0.0 mm
05:04 PM 52.7°F11.5°C 29.7°F-1.3°C 41% 6.1 mph E9.8 kmh E 13.0 mph20.9 kmh 30.16 in1021.3 mb 0.00 in0.0 mm 0.00 in0.0 mm 0.00 in0.0 mm
05:05 PM 52.6°F11.4°C 29.6°F-1.3°C 41% 6.4 mph ENE10.3 kmh ENE 10.0 mph16.1 kmh 30.16 in1021.3 mb 0.00 in0.0 mm 0.00 in0.0 mm 0.00 in0.0 mm
05:06 PM 52.6°F11.4°C 29.6°F-1.3°C 41% 8.8 mph E14.2 kmh E 15.0 mph24.1 kmh 30.16 in1021.3 mb 0.00 in0.0 mm 0.00 in0.0 mm 0.00 in0.0 mm
05:07 PM 52.6°F11.4°C 29.6°F-1.3°C 41% 9.7 mph E15.6 kmh E 17.0 mph27.4 kmh 30.16 in1021.3 mb 0.00 in0.0 mm 0.00 in0.0 mm 0.00 in0.0 mm
05:08 PM 52.6°F11.4°C 29.6°F-1.3°C 41% 9.4 mph E15.1 kmh E 17.0 mph27.4 kmh 30.16 in1021.3 mb 0.00 in0.0 mm 0.00 in0.0 mm 0.00 in0.0 mm
05:09 PM 52.5°F11.4°C 29.5°F-1.4°C 41% 6.7 mph E10.8 kmh E 16.0 mph25.7 kmh 30.16 in1021.3 mb 0.00 in0.0 mm 0.00 in0.0 mm 0.00 in0.0 mm
05:10 PM 52.5°F11.4°C 29.5°F-1.4°C 41% 4.6 mph ENE7.4 kmh ENE 10.0 mph16.1 kmh 30.16 in1021.3 mb 0.00 in0.0 mm 0.00 in0.0 mm 0.00 in0.0 mm
05:11 PM 52.5°F11.4°C 29.5°F-1.4°C 41% 3.6 mph E5.8 kmh E 8.0 mph12.9 kmh 30.16 in1021.3 mb 0.00 in0.0 mm 0.00 in0.0 mm 0.00 in0.0 mm
05:12 PM 52.6°F11.4°C 29.6°F-1.3°C 41% 2.5 mph E4.0 kmh E 8.0 mph12.9 kmh 30.16 in1021.3 mb 0.00 in0.0 mm 0.00 in0.0 mm 0.00 in0.0 mm
05:13 PM 52.6°F11.4°C 29.6°F-1.3°C 41% 2.9 mph E4.7 kmh E 7.0 mph11.3 kmh 30.16 in1021.3 mb 0.00 in0.0 mm 0.00 in0.0 mm 0.00 in0.0 mm
05:14 PM 52.6°F11.4°C 29.6°F-1.3°C 41% 1.8 mph ESE2.9 kmh ESE 4.0 mph6.4 kmh 30.16 in1021.3 mb 0.00 in0.0 mm 0.00 in0.0 mm 0.00 in0.0 mm
05:15 PM 52.6°F11.4°C 29.6°F-1.3°C 41% 1.6 mph ESE2.6 kmh ESE 4.0 mph6.4 kmh 30.16 in1021.3 mb 0.00 in0.0 mm 0.00 in0.0 mm 0.00 in0.0 mm
05:16 PM 52.7°F11.5°C 29.7°F-1.3°C 41% 2.8 mph E4.5 kmh E 8.0 mph12.9 kmh 30.16 in1021.3 mb 0.00 in0.0 mm 0.00 in0.0 mm 0.00 in0.0 mm
05:17 PM 52.7°F11.5°C 29.7°F-1.3°C 41% 1.8 mph E2.9 kmh E 8.0 mph12.9 kmh 30.16 in1021.3 mb 0.00 in0.0 mm 0.00 in0.0 mm 0.00 in0.0 mm
05:18 PM 52.7°F11.5°C 29.7°F-1.3°C 41% 3.9 mph E6.3 kmh E 8.0 mph12.9 kmh 30.16 in1021.3 mb 0.00 in0.0 mm 0.00 in0.0 mm 0.00 in0.0 mm
05:19 PM 52.7°F11.5°C 29.7°F-1.3°C 41% 8.1 mph E13.0 kmh E 11.0 mph17.7 kmh 30.16 in1021.3 mb 0.00 in0.0 mm 0.00 in0.0 mm 0.00 in0.0 mm
05:20 PM 52.7°F11.5°C 29.7°F-1.3°C 41% 8.7 mph E14.0 kmh E 12.0 mph19.3 kmh 30.16 in1021.3 mb 0.00 in0.0 mm 0.00 in0.0 mm 0.00 in0.0 mm
05:21 PM 52.6°F11.4°C 29.6°F-1.3°C 41% 9.1 mph ENE14.6 kmh ENE 17.0 mph27.4 kmh 30.16 in1021.3 mb 0.00 in0.0 mm 0.00 in0.0 mm 0.00 in0.0 mm
05:22 PM 52.5°F11.4°C 29.5°F-1.4°C 41% 10.1 mph E16.3 kmh E 17.0 mph27.4 kmh 30.16 in1021.3 mb 0.00 in0.0 mm 0.00 in0.0 mm 0.00 in0.0 mm
05:23 PM 52.4°F11.3°C 29.4°F-1.4°C 41% 8.8 mph E14.2 kmh E 14.0 mph22.5 kmh 30.16 in1021.3 mb 0.00 in0.0 mm 0.00 in0.0 mm 0.00 in0.0 mm
05:24 PM 52.3°F11.3°C 29.3°F-1.5°C 41% 7.7 mph ENE12.4 kmh ENE 13.0 mph20.9 kmh 30.16 in1021.3 mb 0.00 in0.0 mm 0.00 in0.0 mm 0.00 in0.0 mm
05:25 PM 52.3°F11.3°C 29.9°F-1.2°C 42% 4.2 mph E6.8 kmh E 13.0 mph20.9 kmh 30.16 in1021.3 mb 0.00 in0.0 mm 0.00 in0.0 mm 0.00 in0.0 mm
05:26 PM 52.2°F11.2°C 29.8°F-1.2°C 42% 8.9 mph E14.3 kmh E 12.0 mph19.3 kmh 30.16 in1021.3 mb 0.00 in0.0 mm 0.00 in0.0 mm 0.00 in0.0 mm
05:27 PM 52.2°F11.2°C 29.8°F-1.2°C 42% 7.4 mph E11.9 kmh E 12.0 mph19.3 kmh 30.16 in1021.3 mb 0.00 in0.0 mm 0.00 in0.0 mm 0.00 in0.0 mm
05:28 PM 52.1°F11.2°C 29.7°F-1.3°C 42% 8.9 mph ENE14.3 kmh ENE 12.0 mph19.3 kmh 30.16 in1021.3 mb 0.00 in0.0 mm 0.00 in0.0 mm 0.00 in0.0 mm
05:29 PM 52.1°F11.2°C 29.7°F-1.3°C 42% 8.8 mph E14.2 kmh E 15.0 mph24.1 kmh 30.16 in1021.3 mb 0.00 in0.0 mm 0.00 in0.0 mm 0.00 in0.0 mm
05:30 PM 52.1°F11.2°C 29.7°F-1.3°C 42% 8.0 mph ENE12.9 kmh ENE 15.0 mph24.1 kmh 30.16 in1021.3 mb 0.00 in0.0 mm 0.00 in0.0 mm 0.00 in0.0 mm
05:31 PM 52.0°F11.1°C 29.6°F-1.3°C 42% 7.4 mph ENE11.9 kmh ENE 12.0 mph19.3 kmh 30.15 in1021.0 mb 0.00 in0.0 mm 0.00 in0.0 mm 0.00 in0.0 mm
05:32 PM 52.0°F11.1°C 29.6°F-1.3°C 42% 8.7 mph E14.0 kmh E 13.0 mph20.9 kmh 30.16 in1021.3 mb 0.00 in0.0 mm 0.00 in0.0 mm 0.00 in0.0 mm
05:33 PM 51.9°F11.1°C 29.5°F-1.4°C 42% 10.8 mph ENE17.4 kmh ENE 15.0 mph24.1 kmh 30.16 in1021.3 mb 0.00 in0.0 mm 0.00 in0.0 mm 0.00 in0.0 mm
05:34 PM 51.9°F11.1°C 30.1°F-1.1°C 43% 5.6 mph ENE9.0 kmh ENE 15.0 mph24.1 kmh 30.16 in1021.3 mb 0.00 in0.0 mm 0.00 in0.0 mm 0.00 in0.0 mm
05:35 PM 51.8°F11.0°C 30.0°F-1.1°C 43% 6.8 mph E10.9 kmh E 12.0 mph19.3 kmh 30.16 in1021.3 mb 0.00 in0.0 mm 0.00 in0.0 mm 0.00 in0.0 mm
05:36 PM 51.8°F11.0°C 29.4°F-1.4°C 42% 8.8 mph ENE14.2 kmh ENE 13.0 mph20.9 kmh 30.16 in1021.3 mb 0.00 in0.0 mm 0.00 in0.0 mm 0.00 in0.0 mm
05:37 PM 51.8°F11.0°C 30.0°F-1.1°C 43% 6.6 mph E10.6 kmh E 13.0 mph20.9 kmh 30.16 in1021.3 mb 0.00 in0.0 mm 0.00 in0.0 mm 0.00 in0.0 mm
05:38 PM 51.7°F10.9°C 29.4°F-1.4°C 42% 9.0 mph E14.5 kmh E 14.0 mph22.5 kmh 30.16 in1021.3 mb 0.00 in0.0 mm 0.00 in0.0 mm 0.00 in0.0 mm
05:39 PM 51.7°F10.9°C 29.9°F-1.2°C 43% 7.9 mph E12.7 kmh E 14.0 mph22.5 kmh 30.16 in1021.3 mb 0.00 in0.0 mm 0.00 in0.0 mm 0.00 in0.0 mm
05:40 PM 51.6°F10.9°C 29.8°F-1.2°C 43% 5.0 mph ENE8.0 kmh ENE 11.0 mph17.7 kmh 30.16 in1021.3 mb 0.00 in0.0 mm 0.00 in0.0 mm 0.00 in0.0 mm
05:41 PM 51.6°F10.9°C 29.8°F-1.2°C 43% 7.5 mph E12.1 kmh E 10.0 mph16.1 kmh 30.16 in1021.3 mb 0.00 in0.0 mm 0.00 in0.0 mm 0.00 in0.0 mm
05:42 PM 51.6°F10.9°C 29.8°F-1.2°C 43% 7.4 mph ENE11.9 kmh ENE 11.0 mph17.7 kmh 30.16 in1021.3 mb 0.00 in0.0 mm 0.00 in0.0 mm 0.00 in0.0 mm
05:43 PM 51.5°F10.8°C 29.8°F-1.2°C 43% 3.7 mph E6.0 kmh E 11.0 mph17.7 kmh 30.16 in1021.3 mb 0.00 in0.0 mm 0.00 in0.0 mm 0.00 in0.0 mm
05:44 PM 51.5°F10.8°C 29.8°F-1.2°C 43% 9.6 mph E15.4 kmh E 14.0 mph22.5 kmh 30.16 in1021.3 mb 0.00 in0.0 mm 0.00 in0.0 mm 0.00 in0.0 mm
05:45 PM 51.5°F10.8°C 29.8°F-1.2°C 43% 10.2 mph ENE16.4 kmh ENE 14.0 mph22.5 kmh 30.16 in1021.3 mb 0.00 in0.0 mm 0.00 in0.0 mm 0.00 in0.0 mm
05:46 PM 51.4°F10.8°C 29.7°F-1.3°C 43% 6.8 mph E10.9 kmh E 14.0 mph22.5 kmh 30.16 in1021.3 mb 0.00 in0.0 mm 0.00 in0.0 mm 0.00 in0.0 mm
05:47 PM 51.4°F10.8°C 29.7°F-1.3°C 43% 6.5 mph E10.5 kmh E 12.0 mph19.3 kmh 30.16 in1021.3 mb 0.00 in0.0 mm 0.00 in0.0 mm 0.00 in0.0 mm
05:48 PM 51.4°F10.8°C 29.7°F-1.3°C 43% 11.7 mph E18.8 kmh E 16.0 mph25.7 kmh 30.16 in1021.3 mb 0.00 in0.0 mm 0.00 in0.0 mm 0.00 in0.0 mm
05:49 PM 51.3°F10.7°C 29.6°F-1.3°C 43% 10.6 mph E17.1 kmh E 16.0 mph25.7 kmh 30.16 in1021.3 mb 0.00 in0.0 mm 0.00 in0.0 mm 0.00 in0.0 mm
05:50 PM 51.3°F10.7°C 29.6°F-1.3°C 43% 8.9 mph E14.3 kmh E 15.0 mph24.1 kmh 30.16 in1021.3 mb 0.00 in0.0 mm 0.00 in0.0 mm 0.00 in0.0 mm
05:51 PM 51.2°F10.7°C 29.5°F-1.4°C 43% 10.1 mph E16.3 kmh E 14.0 mph22.5 kmh 30.16 in1021.3 mb 0.00 in0.0 mm 0.00 in0.0 mm 0.00 in0.0 mm
05:52 PM 51.2°F10.7°C 29.5°F-1.4°C 43% 6.1 mph E9.8 kmh E 14.0 mph22.5 kmh 30.16 in1021.3 mb 0.00 in0.0 mm 0.00 in0.0 mm 0.00 in0.0 mm
05:53 PM 51.2°F10.7°C 29.5°F-1.4°C 43% 6.9 mph ENE11.1 kmh ENE 10.0 mph16.1 kmh 30.16 in1021.3 mb 0.00 in0.0 mm 0.00 in0.0 mm 0.00 in0.0 mm
05:54 PM 51.1°F10.6°C 30.0°F-1.1°C 44% 3.4 mph E5.5 kmh E 10.0 mph16.1 kmh 30.16 in1021.3 mb 0.00 in0.0 mm 0.00 in0.0 mm 0.00 in0.0 mm
05:55 PM 51.1°F10.6°C 30.0°F-1.1°C 44% 4.1 mph E6.6 kmh E 11.0 mph17.7 kmh 30.16 in1021.3 mb 0.00 in0.0 mm 0.00 in0.0 mm 0.00 in0.0 mm
05:56 PM 51.0°F10.6°C 29.3°F-1.5°C 43% 11.3 mph E18.2 kmh E 15.0 mph24.1 kmh 30.16 in1021.3 mb 0.00 in0.0 mm 0.00 in0.0 mm 0.00 in0.0 mm
05:57 PM 51.0°F10.6°C 29.3°F-1.5°C 43% 9.2 mph E14.8 kmh E 15.0 mph24.1 kmh 30.16 in1021.3 mb 0.00 in0.0 mm 0.00 in0.0 mm 0.00 in0.0 mm
05:58 PM 51.0°F10.6°C 29.3°F-1.5°C 43% 6.5 mph ENE10.5 kmh ENE 14.0 mph22.5 kmh 30.16 in1021.3 mb 0.00 in0.0 mm 0.00 in0.0 mm 0.00 in0.0 mm
05:59 PM 50.9°F10.5°C 29.2°F-1.6°C 43% 9.0 mph E14.5 kmh E 14.0 mph22.5 kmh 30.16 in1021.3 mb 0.00 in0.0 mm 0.00 in0.0 mm 0.00 in0.0 mm
06:00 PM 50.9°F10.5°C 29.2°F-1.6°C 43% 8.2 mph ENE13.2 kmh ENE 14.0 mph22.5 kmh 30.16 in1021.3 mb 0.00 in0.0 mm 0.00 in0.0 mm 0.00 in0.0 mm
06:01 PM 50.8°F10.4°C 29.7°F-1.3°C 44% 6.7 mph ENE10.8 kmh ENE 14.0 mph22.5 kmh 30.16 in1021.3 mb 0.00 in0.0 mm 0.00 in0.0 mm 0.00 in0.0 mm
06:02 PM 50.8°F10.4°C 29.7°F-1.3°C 44% 5.6 mph ENE9.0 kmh ENE 14.0 mph22.5 kmh 30.16 in1021.3 mb 0.00 in0.0 mm 0.00 in0.0 mm 0.00 in0.0 mm
06:03 PM 50.7°F10.4°C 29.6°F-1.3°C 44% 4.1 mph E6.6 kmh E 9.0 mph14.5 kmh 30.16 in1021.3 mb 0.00 in0.0 mm 0.00 in0.0 mm 0.00 in0.0 mm
06:04 PM 50.7°F10.4°C 29.6°F-1.3°C 44% 5.2 mph E8.4 kmh E 11.0 mph17.7 kmh 30.16 in1021.3 mb 0.00 in0.0 mm 0.00 in0.0 mm 0.00 in0.0 mm
06:05 PM 50.7°F10.4°C 29.6°F-1.3°C 44% 5.9 mph ENE9.5 kmh ENE 11.0 mph17.7 kmh 30.16 in1021.3 mb 0.00 in0.0 mm 0.00 in0.0 mm 0.00 in0.0 mm
06:06 PM 50.6°F10.3°C 29.5°F-1.4°C 44% 9.1 mph E14.6 kmh E 14.0 mph22.5 kmh 30.16 in1021.3 mb 0.00 in0.0 mm 0.00 in0.0 mm 0.00 in0.0 mm
06:07 PM 50.6°F10.3°C 29.5°F-1.4°C 44% 8.1 mph E13.0 kmh E 14.0 mph22.5 kmh 30.16 in1021.3 mb 0.00 in0.0 mm 0.00 in0.0 mm 0.00 in0.0 mm
06:08 PM 50.5°F10.3°C 29.4°F-1.4°C 44% 10.5 mph E16.9 kmh E 14.0 mph22.5 kmh 30.16 in1021.3 mb 0.00 in0.0 mm 0.00 in0.0 mm 0.00 in0.0 mm
06:09 PM 50.5°F10.3°C 29.4°F-1.4°C 44% 7.7 mph E12.4 kmh E 14.0 mph22.5 kmh 30.16 in1021.3 mb 0.00 in0.0 mm 0.00 in0.0 mm 0.00 in0.0 mm
06:10 PM 50.4°F10.2°C 29.3°F-1.5°C 44% 8.0 mph ENE12.9 kmh ENE 15.0 mph24.1 kmh 30.16 in1021.3 mb 0.00 in0.0 mm 0.00 in0.0 mm 0.00 in0.0 mm
06:11 PM 50.3°F10.2°C 29.2°F-1.6°C 44% 7.0 mph ENE11.3 kmh ENE 15.0 mph24.1 kmh 30.16 in1021.3 mb 0.00 in0.0 mm 0.00 in0.0 mm 0.00 in0.0 mm
06:12 PM 50.3°F10.2°C 29.2°F-1.6°C 44% 3.9 mph ENE6.3 kmh ENE 12.0 mph19.3 kmh 30.16 in1021.3 mb 0.00 in0.0 mm 0.00 in0.0 mm 0.00 in0.0 mm
06:13 PM 50.3°F10.2°C 29.2°F-1.6°C 44% 3.9 mph E6.3 kmh E 9.0 mph14.5 kmh 30.16 in1021.3 mb 0.00 in0.0 mm 0.00 in0.0 mm 0.00 in0.0 mm
06:14 PM 50.2°F10.1°C 29.1°F-1.6°C 44% 6.4 mph E10.3 kmh E 14.0 mph22.5 kmh 30.16 in1021.3 mb 0.00 in0.0 mm 0.00 in0.0 mm 0.00 in0.0 mm
06:15 PM 50.2°F10.1°C 29.1°F-1.6°C 44% 4.9 mph E7.9 kmh E 14.0 mph22.5 kmh 30.16 in1021.3 mb 0.00 in0.0 mm 0.00 in0.0 mm 0.00 in0.0 mm
06:16 PM 50.1°F10.1°C 29.0°F-1.7°C 44% 5.4 mph E8.7 kmh E 9.0 mph14.5 kmh 30.16 in1021.3 mb 0.00 in0.0 mm 0.00 in0.0 mm 0.00 in0.0 mm
06:17 PM 50.1°F10.1°C 29.0°F-1.7°C 44% 6.5 mph E10.5 kmh E 10.0 mph16.1 kmh 30.16 in1021.3 mb 0.00 in0.0 mm 0.00 in0.0 mm 0.00 in0.0 mm
06:18 PM 50.1°F10.1°C 29.0°F-1.7°C 44% 6.1 mph E9.8 kmh E 12.0 mph19.3 kmh 30.16 in1021.3 mb 0.00 in0.0 mm 0.00 in0.0 mm 0.00 in0.0 mm
06:19 PM 50.0°F10.0°C 29.0°F-1.7°C 44% 4.7 mph ENE7.6 kmh ENE 12.0 mph19.3 kmh 30.16 in1021.3 mb 0.00 in0.0 mm 0.00 in0.0 mm 0.00 in0.0 mm
06:20 PM 50.0°F10.0°C 29.0°F-1.7°C 44% 4.3 mph E6.9 kmh E 11.0 mph17.7 kmh 30.16 in1021.3 mb 0.00 in0.0 mm 0.00 in0.0 mm 0.00 in0.0 mm
06:21 PM 49.9°F9.9°C 28.9°F-1.7°C 44% 6.1 mph E9.8 kmh E 12.0 mph19.3 kmh 30.16 in1021.3 mb 0.00 in0.0 mm 0.00 in0.0 mm 0.00 in0.0 mm
06:22 PM 49.9°F9.9°C 28.9°F-1.7°C 44% 5.3 mph E8.5 kmh E 12.0 mph19.3 kmh 30.16 in1021.3 mb 0.00 in0.0 mm 0.00 in0.0 mm 0.00 in0.0 mm
06:23 PM 49.8°F9.9°C 28.8°F-1.8°C 44% 8.8 mph E14.2 kmh E 12.0 mph19.3 kmh 30.16 in1021.3 mb 0.00 in0.0 mm 0.00 in0.0 mm 0.00 in0.0 mm
06:24 PM 49.8°F9.9°C 29.3°F-1.5°C 45% 6.6 mph E10.6 kmh E 14.0 mph22.5 kmh 30.16 in1021.3 mb 0.00 in0.0 mm 0.00 in0.0 mm 0.00 in0.0 mm
06:25 PM 49.7°F9.8°C 29.2°F-1.6°C 45% 5.2 mph ENE8.4 kmh ENE 14.0 mph22.5 kmh 30.16 in1021.3 mb 0.00 in0.0 mm 0.00 in0.0 mm 0.00 in0.0 mm
06:26 PM 49.6°F9.8°C 29.1°F-1.6°C 45% 5.7 mph ENE9.2 kmh ENE 11.0 mph17.7 kmh 30.16 in1021.3 mb 0.00 in0.0 mm 0.00 in0.0 mm 0.00 in0.0 mm
06:27 PM 49.6°F9.8°C 29.1°F-1.6°C 45% 9.1 mph E14.6 kmh E 14.0 mph22.5 kmh 30.16 in1021.3 mb 0.00 in0.0 mm 0.00 in0.0 mm 0.00 in0.0 mm
06:28 PM 49.6°F9.8°C 29.1°F-1.6°C 45% 10.3 mph E16.6 kmh E 14.0 mph22.5 kmh 30.16 in1021.3 mb 0.00 in0.0 mm 0.00 in0.0 mm 0.00 in0.0 mm
06:29 PM 49.5°F9.7°C 29.1°F-1.6°C 45% 9.1 mph E14.6 kmh E 14.0 mph22.5 kmh 30.16 in1021.3 mb 0.00 in0.0 mm 0.00 in0.0 mm 0.00 in0.0 mm
06:30 PM 49.5°F9.7°C 29.1°F-1.6°C 45% 8.7 mph ENE14.0 kmh ENE 14.0 mph22.5 kmh 30.16 in1021.3 mb 0.00 in0.0 mm 0.00 in0.0 mm 0.00 in0.0 mm
06:31 PM 49.4°F9.7°C 29.0°F-1.7°C 45% 9.3 mph E15.0 kmh E 14.0 mph22.5 kmh 30.16 in1021.3 mb 0.00 in0.0 mm 0.00 in0.0 mm 0.00 in0.0 mm
06:32 PM 49.4°F9.7°C 29.0°F-1.7°C 45% 8.0 mph E12.9 kmh E 14.0 mph22.5 kmh 30.16 in1021.3 mb 0.00 in0.0 mm 0.00 in0.0 mm 0.00 in0.0 mm
06:33 PM 49.3°F9.6°C 28.9°F-1.7°C 45% 8.2 mph ENE13.2 kmh ENE 14.0 mph22.5 kmh 30.16 in1021.3 mb 0.00 in0.0 mm 0.00 in0.0 mm 0.00 in0.0 mm
06:34 PM 49.2°F9.6°C 28.8°F-1.8°C 45% 11.4 mph E18.3 kmh E 16.0 mph25.7 kmh 30.16 in1021.3 mb 0.00 in0.0 mm 0.00 in0.0 mm 0.00 in0.0 mm
06:35 PM 49.2°F9.6°C 28.8°F-1.8°C 45% 7.6 mph E12.2 kmh E 16.0 mph25.7 kmh 30.16 in1021.3 mb 0.00 in0.0 mm 0.00 in0.0 mm 0.00 in0.0 mm
06:36 PM 49.2°F9.6°C 28.8°F-1.8°C 45% 4.8 mph ENE7.7 kmh ENE 11.0 mph17.7 kmh 30.16 in1021.3 mb 0.00 in0.0 mm 0.00 in0.0 mm 0.00 in0.0 mm
06:37 PM 49.2°F9.6°C 28.8°F-1.8°C 45% 7.0 mph E11.3 kmh E 13.0 mph20.9 kmh 30.16 in1021.3 mb 0.00 in0.0 mm 0.00 in0.0 mm 0.00 in0.0 mm
06:38 PM 49.1°F9.5°C 28.7°F-1.8°C 45% 8.4 mph E13.5 kmh E 13.0 mph20.9 kmh 30.16 in1021.3 mb 0.00 in0.0 mm 0.00 in0.0 mm 0.00 in0.0 mm
06:39 PM 49.1°F9.5°C 28.7°F-1.8°C 45% 10.4 mph E16.7 kmh E 15.0 mph24.1 kmh 30.16 in1021.3 mb 0.00 in0.0 mm 0.00 in0.0 mm 0.00 in0.0 mm
06:40 PM 49.0°F9.4°C 28.6°F-1.9°C 45% 10.0 mph ENE16.1 kmh ENE 15.0 mph24.1 kmh 30.16 in1021.3 mb 0.00 in0.0 mm 0.00 in0.0 mm 0.00 in0.0 mm
06:41 PM 49.0°F9.4°C 28.6°F-1.9°C 45% 8.7 mph ENE14.0 kmh ENE 15.0 mph24.1 kmh 30.16 in1021.3 mb 0.00 in0.0 mm 0.00 in0.0 mm 0.00 in0.0 mm
06:42 PM 48.9°F9.4°C 28.5°F-1.9°C 45% 6.6 mph E10.6 kmh E 14.0 mph22.5 kmh 30.16 in1021.3 mb 0.00 in0.0 mm 0.00 in0.0 mm 0.00 in0.0 mm
06:43 PM 48.9°F9.4°C 28.5°F-1.9°C 45% 7.7 mph E12.4 kmh E 14.0 mph22.5 kmh 30.16 in1021.3 mb 0.00 in0.0 mm 0.00 in0.0 mm 0.00 in0.0 mm
06:44 PM 48.9°F9.4°C 28.5°F-1.9°C 45% 8.3 mph E13.4 kmh E 12.0 mph19.3 kmh 30.16 in1021.3 mb 0.00 in0.0 mm 0.00 in0.0 mm 0.00 in0.0 mm
06:45 PM 48.8°F9.3°C 28.4°F-2.0°C 45% 8.2 mph E13.2 kmh E 13.0 mph20.9 kmh 30.16 in1021.3 mb 0.00 in0.0 mm 0.00 in0.0 mm 0.00 in0.0 mm
06:46 PM 48.8°F9.3°C 28.4°F-2.0°C 45% 9.2 mph E14.8 kmh E 16.0 mph25.7 kmh 30.16 in1021.3 mb 0.00 in0.0 mm 0.00 in0.0 mm 0.00 in0.0 mm
06:47 PM 48.7°F9.3°C 28.3°F-2.1°C 45% 6.6 mph E10.6 kmh E 16.0 mph25.7 kmh 30.16 in1021.3 mb 0.00 in0.0 mm 0.00 in0.0 mm 0.00 in0.0 mm
06:48 PM 48.7°F9.3°C 28.3°F-2.1°C 45% 10.0 mph ENE16.1 kmh ENE 16.0 mph25.7 kmh 30.16 in1021.3 mb 0.00 in0.0 mm 0.00 in0.0 mm 0.00 in0.0 mm
06:49 PM 48.7°F9.3°C 28.3°F-2.1°C 45% 9.5 mph E15.3 kmh E 17.0 mph27.4 kmh 30.16 in1021.3 mb 0.00 in0.0 mm 0.00 in0.0 mm 0.00 in0.0 mm
06:50 PM 48.6°F9.2°C 28.2°F-2.1°C 45% 9.9 mph E15.9 kmh E 17.0 mph27.4 kmh 30.17 in1021.7 mb 0.00 in0.0 mm 0.00 in0.0 mm 0.00 in0.0 mm
06:51 PM 48.6°F9.2°C 28.2°F-2.1°C 45% 11.4 mph E18.3 kmh E 16.0 mph25.7 kmh 30.17 in1021.7 mb 0.00 in0.0 mm 0.00 in0.0 mm 0.00 in0.0 mm
06:52 PM 48.5°F9.2°C 28.1°F-2.2°C 45% 7.2 mph E11.6 kmh E 15.0 mph24.1 kmh 30.16 in1021.3 mb 0.00 in0.0 mm 0.00 in0.0 mm 0.00 in0.0 mm
06:53 PM 48.5°F9.2°C 28.1°F-2.2°C 45% 8.4 mph E13.5 kmh E 14.0 mph22.5 kmh 30.16 in1021.3 mb 0.00 in0.0 mm 0.00 in0.0 mm 0.00 in0.0 mm
06:54 PM 48.5°F9.2°C 28.1°F-2.2°C 45% 7.2 mph E11.6 kmh E 13.0 mph20.9 kmh 30.16 in1021.3 mb 0.00 in0.0 mm 0.00 in0.0 mm 0.00 in0.0 mm
06:55 PM 48.5°F9.2°C 28.1°F-2.2°C 45% 8.5 mph E13.7 kmh E 11.0 mph17.7 kmh 30.16 in1021.3 mb 0.00 in0.0 mm 0.00 in0.0 mm 0.00 in0.0 mm
06:56 PM 48.4°F9.1°C 28.0°F-2.2°C 45% 9.0 mph ENE14.5 kmh ENE 16.0 mph25.7 kmh 30.16 in1021.3 mb 0.00 in0.0 mm 0.00 in0.0 mm 0.00 in0.0 mm
06:57 PM 48.4°F9.1°C 28.0°F-2.2°C 45% 9.3 mph E15.0 kmh E 16.0 mph25.7 kmh 30.17 in1021.7 mb 0.00 in0.0 mm 0.00 in0.0 mm 0.00 in0.0 mm
06:58 PM 48.3°F9.1°C 28.0°F-2.2°C 45% 5.5 mph ENE8.9 kmh ENE 13.0 mph20.9 kmh 30.16 in1021.3 mb 0.00 in0.0 mm 0.00 in0.0 mm 0.00 in0.0 mm
06:59 PM 48.3°F9.1°C 28.0°F-2.2°C 45% 6.6 mph E10.6 kmh E 11.0 mph17.7 kmh 30.16 in1021.3 mb 0.00 in0.0 mm 0.00 in0.0 mm 0.00 in0.0 mm
07:00 PM 48.2°F9.0°C 27.9°F-2.3°C 45% 5.4 mph E8.7 kmh E 12.0 mph19.3 kmh 30.17 in1021.7 mb 0.00 in0.0 mm 0.00 in0.0 mm 0.00 in0.0 mm
07:01 PM 48.2°F9.0°C 27.9°F-2.3°C 45% 8.2 mph ENE13.2 kmh ENE 13.0 mph20.9 kmh 30.16 in1021.3 mb 0.00 in0.0 mm 0.00 in0.0 mm 0.00 in0.0 mm
07:02 PM 48.1°F8.9°C 28.3°F-2.1°C 46% 5.3 mph E8.5 kmh E 13.0 mph20.9 kmh 30.16 in1021.3 mb 0.00 in0.0 mm 0.00 in0.0 mm 0.00 in0.0 mm
07:03 PM 48.1°F8.9°C 28.3°F-2.1°C 46% 4.6 mph E7.4 kmh E 12.0 mph19.3 kmh 30.16 in1021.3 mb 0.00 in0.0 mm 0.00 in0.0 mm 0.00 in0.0 mm
07:04 PM 48.1°F8.9°C 28.3°F-2.1°C 46% 6.4 mph E10.3 kmh E 10.0 mph16.1 kmh 30.16 in1021.3 mb 0.00 in0.0 mm 0.00 in0.0 mm 0.00 in0.0 mm
07:05 PM 48.0°F8.9°C 28.2°F-2.1°C 46% 7.1 mph E11.4 kmh E 14.0 mph22.5 kmh 30.17 in1021.7 mb 0.00 in0.0 mm 0.00 in0.0 mm 0.00 in0.0 mm
07:06 PM 47.9°F8.8°C 28.1°F-2.2°C 46% 6.7 mph E10.8 kmh E 14.0 mph22.5 kmh 30.17 in1021.7 mb 0.00 in0.0 mm 0.00 in0.0 mm 0.00 in0.0 mm
07:07 PM 47.9°F8.8°C 28.1°F-2.2°C 46% 6.6 mph E10.6 kmh E 11.0 mph17.7 kmh 30.17 in1021.7 mb 0.00 in0.0 mm 0.00 in0.0 mm 0.00 in0.0 mm
07:08 PM 47.9°F8.8°C 28.1°F-2.2°C 46% 6.5 mph ENE10.5 kmh ENE 11.0 mph17.7 kmh 30.17 in1021.7 mb 0.00 in0.0 mm 0.00 in0.0 mm 0.00 in0.0 mm
07:09 PM 47.9°F8.8°C 28.1°F-2.2°C 46% 7.9 mph E12.7 kmh E 13.0 mph20.9 kmh 30.17 in1021.7 mb 0.00 in0.0 mm 0.00 in0.0 mm 0.00 in0.0 mm
07:10 PM 47.8°F8.8°C 28.0°F-2.2°C 46% 5.1 mph ENE8.2 kmh ENE 13.0 mph20.9 kmh 30.17 in1021.7 mb 0.00 in0.0 mm 0.00 in0.0 mm 0.00 in0.0 mm
07:11 PM 47.8°F8.8°C 28.0°F-2.2°C 46% 5.8 mph E9.3 kmh E 10.0 mph16.1 kmh 30.17 in1021.7 mb 0.00 in0.0 mm 0.00 in0.0 mm 0.00 in0.0 mm
07:12 PM 47.8°F8.8°C 28.0°F-2.2°C 46% 6.8 mph E10.9 kmh E 14.0 mph22.5 kmh 30.17 in1021.7 mb 0.00 in0.0 mm 0.00 in0.0 mm 0.00 in0.0 mm
07:13 PM 47.8°F8.8°C 28.0°F-2.2°C 46% 7.1 mph E11.4 kmh E 14.0 mph22.5 kmh 30.17 in1021.7 mb 0.00 in0.0 mm 0.00 in0.0 mm 0.00 in0.0 mm
07:14 PM 47.7°F8.7°C 27.9°F-2.3°C 46% 7.6 mph E12.2 kmh E 13.0 mph20.9 kmh 30.17 in1021.7 mb 0.00 in0.0 mm 0.00 in0.0 mm 0.00 in0.0 mm
07:15 PM 47.7°F8.7°C 27.9°F-2.3°C 46% 4.5 mph ENE7.2 kmh ENE 13.0 mph20.9 kmh 30.17 in1021.7 mb 0.00 in0.0 mm 0.00 in0.0 mm 0.00 in0.0 mm
07:16 PM 47.6°F8.7°C 27.9°F-2.3°C 46% 6.2 mph E10.0 kmh E 10.0 mph16.1 kmh 30.17 in1021.7 mb 0.00 in0.0 mm 0.00 in0.0 mm 0.00 in0.0 mm
07:17 PM 47.6°F8.7°C 27.9°F-2.3°C 46% 7.8 mph E12.6 kmh E 12.0 mph19.3 kmh 30.17 in1021.7 mb 0.00 in0.0 mm 0.00 in0.0 mm 0.00 in0.0 mm
07:18 PM 47.5°F8.6°C 27.8°F-2.3°C 46% 7.6 mph E12.2 kmh E 12.0 mph19.3 kmh 30.17 in1021.7 mb 0.00 in0.0 mm 0.00 in0.0 mm 0.00 in0.0 mm
07:19 PM 47.5°F8.6°C 27.8°F-2.3°C 46% 5.4 mph E8.7 kmh E 12.0 mph19.3 kmh 30.17 in1021.7 mb 0.00 in0.0 mm 0.00 in0.0 mm 0.00 in0.0 mm
07:20 PM 47.4°F8.6°C 28.2°F-2.1°C 47% 7.5 mph ENE12.1 kmh ENE 10.0 mph16.1 kmh 30.17 in1021.7 mb 0.00 in0.0 mm 0.00 in0.0 mm 0.00 in0.0 mm
07:21 PM 47.4°F8.6°C 28.2°F-2.1°C 47% 6.4 mph ENE10.3 kmh ENE 13.0 mph20.9 kmh 30.17 in1021.7 mb 0.00 in0.0 mm 0.00 in0.0 mm 0.00 in0.0 mm
07:22 PM 47.4°F8.6°C 28.2°F-2.1°C 47% 5.4 mph ENE8.7 kmh ENE 13.0 mph20.9 kmh 30.17 in1021.7 mb 0.00 in0.0 mm 0.00 in0.0 mm 0.00 in0.0 mm
07:23 PM 47.3°F8.5°C 28.1°F-2.2°C 47% 5.4 mph E8.7 kmh E 13.0 mph20.9 kmh 30.17 in1021.7 mb 0.00 in0.0 mm 0.00 in0.0 mm 0.00 in0.0 mm
07:24 PM 47.3°F8.5°C 28.1°F-2.2°C 47% 9.3 mph E15.0 kmh E 13.0 mph20.9 kmh 30.17 in1021.7 mb 0.00 in0.0 mm 0.00 in0.0 mm 0.00 in0.0 mm
07:25 PM 47.2°F8.4°C 28.0°F-2.2°C 47% 8.9 mph E14.3 kmh E 13.0 mph20.9 kmh 30.17 in1021.7 mb 0.00 in0.0 mm 0.00 in0.0 mm 0.00 in0.0 mm
07:26 PM 47.2°F8.4°C 28.0°F-2.2°C 47% 8.5 mph E13.7 kmh E 13.0 mph20.9 kmh 30.17 in1021.7 mb 0.00 in0.0 mm 0.00 in0.0 mm 0.00 in0.0 mm
07:27 PM 47.2°F8.4°C 28.0°F-2.2°C 47% 9.4 mph E15.1 kmh E 13.0 mph20.9 kmh 30.17 in1021.7 mb 0.00 in0.0 mm 0.00 in0.0 mm 0.00 in0.0 mm
07:28 PM 47.2°F8.4°C 28.0°F-2.2°C 47% 8.2 mph E13.2 kmh E 13.0 mph20.9 kmh 30.17 in1021.7 mb 0.00 in0.0 mm 0.00 in0.0 mm 0.00 in0.0 mm
07:29 PM 47.1°F8.4°C 27.9°F-2.3°C 47% 8.7 mph E14.0 kmh E 12.0 mph19.3 kmh 30.17 in1021.7 mb 0.00 in0.0 mm 0.00 in0.0 mm 0.00 in0.0 mm
07:30 PM 47.1°F8.4°C 27.9°F-2.3°C 47% 8.8 mph E14.2 kmh E 14.0 mph22.5 kmh 30.17 in1021.7 mb 0.00 in0.0 mm 0.00 in0.0 mm 0.00 in0.0 mm
07:31 PM 47.0°F8.3°C 27.8°F-2.3°C 47% 7.6 mph ENE12.2 kmh ENE 15.0 mph24.1 kmh 30.17 in1021.7 mb 0.00 in0.0 mm 0.00 in0.0 mm 0.00 in0.0 mm
07:32 PM 47.0°F8.3°C 27.8°F-2.3°C 47% 5.9 mph ENE9.5 kmh ENE 15.0 mph24.1 kmh 30.17 in1021.7 mb 0.00 in0.0 mm 0.00 in0.0 mm 0.00 in0.0 mm
07:33 PM 47.0°F8.3°C 27.8°F-2.3°C 47% 8.0 mph ENE12.9 kmh ENE 14.0 mph22.5 kmh 30.17 in1021.7 mb 0.00 in0.0 mm 0.00 in0.0 mm 0.00 in0.0 mm
07:34 PM 46.9°F8.3°C 27.7°F-2.4°C 47% 5.4 mph E8.7 kmh E 13.0 mph20.9 kmh 30.17 in1021.7 mb 0.00 in0.0 mm 0.00 in0.0 mm 0.00 in0.0 mm
07:35 PM 46.9°F8.3°C 27.7°F-2.4°C 47% 4.9 mph E7.9 kmh E 10.0 mph16.1 kmh 30.17 in1021.7 mb 0.00 in0.0 mm 0.00 in0.0 mm 0.00 in0.0 mm
07:36 PM 46.9°F8.3°C 27.7°F-2.4°C 47% 5.4 mph E8.7 kmh E 13.0 mph20.9 kmh 30.17 in1021.7 mb 0.00 in